<?xml version="1.0" encoding="UTF-8" standalone="no" ?>
<gpx xmlns="http://www.topografix.com/GPX/1/1" xmlns:xsi="http://www.w3.org/2001/XMLSchema-instance" xsi:schemaLocation="http://www.topografix.com/GPX/1/1 http://www.topografix.com/GPX/1/1/gpx.xsd" version="1.1" creator="VisuGPX - https://www.visugpx.com">
  <metadata>
    <name>Chemins du soleil Sud</name>
  </metadata>
  <trk>
    <name><![CDATA[track]]></name>
    <trkseg>
      <trkpt lat="44.13808" lon="5.96793">
        <ele>480</ele>
        <time>1990-12-05T07:55:41Z</time>
      </trkpt>
      <trkpt lat="44.13768" lon="5.96788">
        <ele>476</ele>
        <time>1990-12-05T07:56:36Z</time>
      </trkpt>
      <trkpt lat="44.13912" lon="5.9656">
        <ele>475</ele>
        <time>1990-12-05T08:09:18Z</time>
      </trkpt>
      <trkpt lat="44.13825" lon="5.96332">
        <ele>481</ele>
        <time>1990-12-05T08:10:24Z</time>
      </trkpt>
      <trkpt lat="44.13802" lon="5.96128">
        <ele>484</ele>
        <time>1990-12-05T08:11:13Z</time>
      </trkpt>
      <trkpt lat="44.13092" lon="5.96568">
        <ele>488</ele>
        <time>1990-12-05T08:20:06Z</time>
      </trkpt>
      <trkpt lat="44.1299" lon="5.9694">
        <ele>488</ele>
        <time>1990-12-05T08:21:25Z</time>
      </trkpt>
      <trkpt lat="44.12785" lon="5.96785">
        <ele>508</ele>
        <time>1990-12-05T08:23:19Z</time>
      </trkpt>
      <trkpt lat="44.12745" lon="5.96958">
        <ele>522</ele>
        <time>1990-12-05T08:24:42Z</time>
      </trkpt>
      <trkpt lat="44.12452" lon="5.9702">
        <ele>535</ele>
        <time>1990-12-05T08:27:03Z</time>
      </trkpt>
      <trkpt lat="44.12278" lon="5.97597">
        <ele>527</ele>
        <time>1990-12-05T08:29:25Z</time>
      </trkpt>
      <trkpt lat="44.1233" lon="5.97693">
        <ele>520</ele>
        <time>1990-12-05T08:29:44Z</time>
      </trkpt>
      <trkpt lat="44.12313" lon="5.97867">
        <ele>508</ele>
        <time>1990-12-05T08:30:06Z</time>
      </trkpt>
      <trkpt lat="44.12097" lon="5.9795">
        <ele>488</ele>
        <time>1990-12-05T08:30:55Z</time>
      </trkpt>
      <trkpt lat="44.12043" lon="5.97912">
        <ele>481</ele>
        <time>1990-12-05T08:31:11Z</time>
      </trkpt>
      <trkpt lat="44.12053" lon="5.98038">
        <ele>469</ele>
        <time>1990-12-05T08:31:59Z</time>
      </trkpt>
      <trkpt lat="44.11945" lon="5.98035">
        <ele>495</ele>
        <time>1990-12-05T08:34:44Z</time>
      </trkpt>
      <trkpt lat="44.11877" lon="5.98148">
        <ele>506</ele>
        <time>1990-12-05T08:36:00Z</time>
      </trkpt>
      <trkpt lat="44.11737" lon="5.98235">
        <ele>526</ele>
        <time>1990-12-05T08:37:36Z</time>
      </trkpt>
      <trkpt lat="44.11687" lon="5.98378">
        <ele>524</ele>
        <time>1990-12-05T08:41:13Z</time>
      </trkpt>
      <trkpt lat="44.11532" lon="5.9846">
        <ele>527</ele>
        <time>1990-12-05T08:42:16Z</time>
      </trkpt>
      <trkpt lat="44.11522" lon="5.98513">
        <ele>531</ele>
        <time>1990-12-05T08:42:30Z</time>
      </trkpt>
      <trkpt lat="44.10912" lon="5.98653">
        <ele>556</ele>
        <time>1990-12-05T08:47:21Z</time>
      </trkpt>
      <trkpt lat="44.10852" lon="5.98515">
        <ele>554</ele>
        <time>1990-12-05T08:49:04Z</time>
      </trkpt>
      <trkpt lat="44.1082" lon="5.98638">
        <ele>558</ele>
        <time>1990-12-05T08:49:52Z</time>
      </trkpt>
      <trkpt lat="44.10685" lon="5.9875">
        <ele>550</ele>
        <time>1990-12-05T08:50:53Z</time>
      </trkpt>
      <trkpt lat="44.10682" lon="5.98807">
        <ele>544</ele>
        <time>1990-12-05T08:51:04Z</time>
      </trkpt>
      <trkpt lat="44.10645" lon="5.98805">
        <ele>538</ele>
        <time>1990-12-05T08:51:17Z</time>
      </trkpt>
      <trkpt lat="44.10695" lon="5.9894">
        <ele>549</ele>
        <time>1990-12-05T08:52:30Z</time>
      </trkpt>
      <trkpt lat="44.1056" lon="5.99073">
        <ele>570</ele>
        <time>1990-12-05T08:56:38Z</time>
      </trkpt>
      <trkpt lat="44.10365" lon="5.98875">
        <ele>591</ele>
        <time>1990-12-05T08:59:04Z</time>
      </trkpt>
      <trkpt lat="44.10348" lon="5.98778">
        <ele>593</ele>
        <time>1990-12-05T08:59:51Z</time>
      </trkpt>
      <trkpt lat="44.10252" lon="5.98678">
        <ele>605</ele>
        <time>1990-12-05T09:01:12Z</time>
      </trkpt>
      <trkpt lat="44.10042" lon="5.98633">
        <ele>625</ele>
        <time>1990-12-05T09:03:33Z</time>
      </trkpt>
      <trkpt lat="44.10197" lon="5.98477">
        <ele>627</ele>
        <time>1990-12-05T09:08:56Z</time>
      </trkpt>
      <trkpt lat="44.1025" lon="5.9834">
        <ele>623</ele>
        <time>1990-12-05T09:09:16Z</time>
      </trkpt>
      <trkpt lat="44.10222" lon="5.9818">
        <ele>620</ele>
        <time>1990-12-05T09:09:48Z</time>
      </trkpt>
      <trkpt lat="44.10097" lon="5.98282">
        <ele>607</ele>
        <time>1990-12-05T09:10:31Z</time>
      </trkpt>
      <trkpt lat="44.0984" lon="5.98378">
        <ele>590</ele>
        <time>1990-12-05T09:11:06Z</time>
      </trkpt>
      <trkpt lat="44.09642" lon="5.98537">
        <ele>570</ele>
        <time>1990-12-05T09:11:38Z</time>
      </trkpt>
      <trkpt lat="44.09372" lon="5.98915">
        <ele>552</ele>
        <time>1990-12-05T09:12:39Z</time>
      </trkpt>
      <trkpt lat="44.09272" lon="5.98948">
        <ele>541</ele>
        <time>1990-12-05T09:13:32Z</time>
      </trkpt>
      <trkpt lat="44.09263" lon="5.99185">
        <ele>541</ele>
        <time>1990-12-05T09:14:32Z</time>
      </trkpt>
      <trkpt lat="44.093" lon="5.99343">
        <ele>539</ele>
        <time>1990-12-05T09:15:01Z</time>
      </trkpt>
      <trkpt lat="44.09457" lon="5.99623">
        <ele>533</ele>
        <time>1990-12-05T09:16:03Z</time>
      </trkpt>
      <trkpt lat="44.09545" lon="6.00277">
        <ele>496</ele>
        <time>1990-12-05T09:17:09Z</time>
      </trkpt>
      <trkpt lat="44.0968" lon="6.00485">
        <ele>486</ele>
        <time>1990-12-05T09:17:40Z</time>
      </trkpt>
      <trkpt lat="44.09757" lon="6.0042">
        <ele>488</ele>
        <time>1990-12-05T09:18:05Z</time>
      </trkpt>
      <trkpt lat="44.09885" lon="6.00695">
        <ele>488</ele>
        <time>1990-12-05T09:19:19Z</time>
      </trkpt>
      <trkpt lat="44.10012" lon="6.00697">
        <ele>467</ele>
        <time>1990-12-05T09:19:51Z</time>
      </trkpt>
      <trkpt lat="44.09867" lon="6.00862">
        <ele>455</ele>
        <time>1990-12-05T09:20:27Z</time>
      </trkpt>
      <trkpt lat="44.0987" lon="6.01025">
        <ele>447</ele>
        <time>1990-12-05T09:20:52Z</time>
      </trkpt>
      <trkpt lat="44.1016" lon="6.00902">
        <ele>448</ele>
        <time>1990-12-05T09:22:34Z</time>
      </trkpt>
      <trkpt lat="44.10162" lon="6.00972">
        <ele>447</ele>
        <time>1990-12-05T09:23:15Z</time>
      </trkpt>
      <trkpt lat="44.10055" lon="6.01093">
        <ele>447</ele>
        <time>1990-12-05T09:23:50Z</time>
      </trkpt>
      <trkpt lat="44.1009" lon="6.0114">
        <ele>447</ele>
        <time>1990-12-05T09:24:02Z</time>
      </trkpt>
      <trkpt lat="44.10292" lon="6.01">
        <ele>441</ele>
        <time>1990-12-05T09:24:53Z</time>
      </trkpt>
      <trkpt lat="44.1042" lon="6.00818">
        <ele>441</ele>
        <time>1990-12-05T09:25:32Z</time>
      </trkpt>
      <trkpt lat="44.10777" lon="6.00637">
        <ele>443</ele>
        <time>1990-12-05T09:26:57Z</time>
      </trkpt>
      <trkpt lat="44.10972" lon="6.01">
        <ele>441</ele>
        <time>1990-12-05T09:29:55Z</time>
      </trkpt>
      <trkpt lat="44.10927" lon="6.01058">
        <ele>441</ele>
        <time>1990-12-05T09:31:20Z</time>
      </trkpt>
      <trkpt lat="44.1087" lon="6.00992">
        <ele>440</ele>
        <time>1990-12-05T09:31:43Z</time>
      </trkpt>
      <trkpt lat="44.10605" lon="6.01278">
        <ele>441</ele>
        <time>1990-12-05T09:33:25Z</time>
      </trkpt>
      <trkpt lat="44.1053" lon="6.01297">
        <ele>441</ele>
        <time>1990-12-05T09:33:53Z</time>
      </trkpt>
      <trkpt lat="44.1034" lon="6.01523">
        <ele>440</ele>
        <time>1990-12-05T09:34:47Z</time>
      </trkpt>
      <trkpt lat="44.10278" lon="6.01712">
        <ele>441</ele>
        <time>1990-12-05T09:35:24Z</time>
      </trkpt>
      <trkpt lat="44.10297" lon="6.01952">
        <ele>440</ele>
        <time>1990-12-05T09:36:31Z</time>
      </trkpt>
      <trkpt lat="44.10175" lon="6.02307">
        <ele>439</ele>
        <time>1990-12-05T09:37:21Z</time>
      </trkpt>
      <trkpt lat="44.10118" lon="6.02283">
        <ele>440</ele>
        <time>1990-12-05T09:37:34Z</time>
      </trkpt>
      <trkpt lat="44.10217" lon="6.02438">
        <ele>443</ele>
        <time>1990-12-05T09:38:26Z</time>
      </trkpt>
      <trkpt lat="44.10033" lon="6.02337">
        <ele>446</ele>
        <time>1990-12-05T09:39:11Z</time>
      </trkpt>
      <trkpt lat="44.09927" lon="6.02412">
        <ele>441</ele>
        <time>1990-12-05T09:39:29Z</time>
      </trkpt>
      <trkpt lat="44.09675" lon="6.02408">
        <ele>440</ele>
        <time>1990-12-05T09:40:09Z</time>
      </trkpt>
      <trkpt lat="44.09437" lon="6.02303">
        <ele>442</ele>
        <time>1990-12-05T09:40:49Z</time>
      </trkpt>
      <trkpt lat="44.0925" lon="6.0215">
        <ele>439</ele>
        <time>1990-12-05T09:41:27Z</time>
      </trkpt>
      <trkpt lat="44.09148" lon="6.02188">
        <ele>440</ele>
        <time>1990-12-05T09:41:55Z</time>
      </trkpt>
      <trkpt lat="44.08872" lon="6.02112">
        <ele>439</ele>
        <time>1990-12-05T09:42:54Z</time>
      </trkpt>
      <trkpt lat="44.08055" lon="6.02175">
        <ele>456</ele>
        <time>1990-12-05T09:50:49Z</time>
      </trkpt>
      <trkpt lat="44.0784" lon="6.02615">
        <ele>476</ele>
        <time>1990-12-05T09:53:10Z</time>
      </trkpt>
      <trkpt lat="44.07898" lon="6.02883">
        <ele>489</ele>
        <time>1990-12-05T09:54:41Z</time>
      </trkpt>
      <trkpt lat="44.07812" lon="6.03213">
        <ele>510</ele>
        <time>1990-12-05T09:56:55Z</time>
      </trkpt>
      <trkpt lat="44.07677" lon="6.03318">
        <ele>524</ele>
        <time>1990-12-05T09:58:24Z</time>
      </trkpt>
      <trkpt lat="44.07567" lon="6.03328">
        <ele>536</ele>
        <time>1990-12-05T09:59:33Z</time>
      </trkpt>
      <trkpt lat="44.07495" lon="6.0342">
        <ele>547</ele>
        <time>1990-12-05T10:00:35Z</time>
      </trkpt>
      <trkpt lat="44.07448" lon="6.0363">
        <ele>568</ele>
        <time>1990-12-05T10:02:25Z</time>
      </trkpt>
      <trkpt lat="44.07577" lon="6.03495">
        <ele>582</ele>
        <time>1990-12-05T10:03:52Z</time>
      </trkpt>
      <trkpt lat="44.07623" lon="6.0351">
        <ele>587</ele>
        <time>1990-12-05T10:04:23Z</time>
      </trkpt>
      <trkpt lat="44.07453" lon="6.03797">
        <ele>609</ele>
        <time>1990-12-05T10:06:56Z</time>
      </trkpt>
      <trkpt lat="44.07415" lon="6.03777">
        <ele>613</ele>
        <time>1990-12-05T10:07:28Z</time>
      </trkpt>
      <trkpt lat="44.0721" lon="6.04035">
        <ele>637</ele>
        <time>1990-12-05T10:10:35Z</time>
      </trkpt>
      <trkpt lat="44.07172" lon="6.04243">
        <ele>640</ele>
        <time>1990-12-05T10:11:46Z</time>
      </trkpt>
      <trkpt lat="44.07378" lon="6.04168">
        <ele>641</ele>
        <time>1990-12-05T10:12:43Z</time>
      </trkpt>
      <trkpt lat="44.0741" lon="6.043">
        <ele>650</ele>
        <time>1990-12-05T10:13:23Z</time>
      </trkpt>
      <trkpt lat="44.073" lon="6.04217">
        <ele>651</ele>
        <time>1990-12-05T10:14:18Z</time>
      </trkpt>
      <trkpt lat="44.07115" lon="6.04328">
        <ele>656</ele>
        <time>1990-12-05T10:15:16Z</time>
      </trkpt>
      <trkpt lat="44.07147" lon="6.03975">
        <ele>675</ele>
        <time>1990-12-05T10:17:36Z</time>
      </trkpt>
      <trkpt lat="44.07077" lon="6.0388">
        <ele>683</ele>
        <time>1990-12-05T10:18:31Z</time>
      </trkpt>
      <trkpt lat="44.07115" lon="6.03983">
        <ele>689</ele>
        <time>1990-12-05T10:21:40Z</time>
      </trkpt>
      <trkpt lat="44.07057" lon="6.04183">
        <ele>707</ele>
        <time>1990-12-05T10:23:19Z</time>
      </trkpt>
      <trkpt lat="44.0696" lon="6.04265">
        <ele>721</ele>
        <time>1990-12-05T10:24:38Z</time>
      </trkpt>
      <trkpt lat="44.06973" lon="6.0438">
        <ele>729</ele>
        <time>1990-12-05T10:25:31Z</time>
      </trkpt>
      <trkpt lat="44.06915" lon="6.04473">
        <ele>736</ele>
        <time>1990-12-05T10:26:15Z</time>
      </trkpt>
      <trkpt lat="44.07092" lon="6.05078">
        <ele>714</ele>
        <time>1990-12-05T10:39:40Z</time>
      </trkpt>
      <trkpt lat="44.07145" lon="6.05143">
        <ele>709</ele>
        <time>1990-12-05T10:39:52Z</time>
      </trkpt>
      <trkpt lat="44.071" lon="6.05342">
        <ele>696</ele>
        <time>1990-12-05T10:40:17Z</time>
      </trkpt>
      <trkpt lat="44.07142" lon="6.05498">
        <ele>691</ele>
        <time>1990-12-05T10:40:41Z</time>
      </trkpt>
      <trkpt lat="44.07053" lon="6.05677">
        <ele>694</ele>
        <time>1990-12-05T10:41:54Z</time>
      </trkpt>
      <trkpt lat="44.07033" lon="6.06093">
        <ele>669</ele>
        <time>1990-12-05T10:43:18Z</time>
      </trkpt>
      <trkpt lat="44.06912" lon="6.06122">
        <ele>655</ele>
        <time>1990-12-05T10:43:38Z</time>
      </trkpt>
      <trkpt lat="44.0683" lon="6.0632">
        <ele>639</ele>
        <time>1990-12-05T10:44:05Z</time>
      </trkpt>
      <trkpt lat="44.06898" lon="6.06347">
        <ele>634</ele>
        <time>1990-12-05T10:44:22Z</time>
      </trkpt>
      <trkpt lat="44.06845" lon="6.06403">
        <ele>634</ele>
        <time>1990-12-05T10:44:34Z</time>
      </trkpt>
      <trkpt lat="44.06835" lon="6.06512">
        <ele>636</ele>
        <time>1990-12-05T10:44:50Z</time>
      </trkpt>
      <trkpt lat="44.0677" lon="6.06617">
        <ele>635</ele>
        <time>1990-12-05T10:45:11Z</time>
      </trkpt>
      <trkpt lat="44.0661" lon="6.06708">
        <ele>640</ele>
        <time>1990-12-05T10:45:58Z</time>
      </trkpt>
      <trkpt lat="44.0656" lon="6.06808">
        <ele>644</ele>
        <time>1990-12-05T10:46:56Z</time>
      </trkpt>
      <trkpt lat="44.06573" lon="6.0723">
        <ele>627</ele>
        <time>1990-12-05T10:47:51Z</time>
      </trkpt>
      <trkpt lat="44.06512" lon="6.07313">
        <ele>631</ele>
        <time>1990-12-05T10:48:23Z</time>
      </trkpt>
      <trkpt lat="44.06537" lon="6.07372">
        <ele>627</ele>
        <time>1990-12-05T10:48:35Z</time>
      </trkpt>
      <trkpt lat="44.06448" lon="6.07392">
        <ele>625</ele>
        <time>1990-12-05T10:49:13Z</time>
      </trkpt>
      <trkpt lat="44.06382" lon="6.0783">
        <ele>637</ele>
        <time>1990-12-05T10:52:32Z</time>
      </trkpt>
      <trkpt lat="44.06362" lon="6.08275">
        <ele>647</ele>
        <time>1990-12-05T10:55:05Z</time>
      </trkpt>
      <trkpt lat="44.06452" lon="6.08423">
        <ele>635</ele>
        <time>1990-12-05T10:55:26Z</time>
      </trkpt>
      <trkpt lat="44.06348" lon="6.08838">
        <ele>628</ele>
        <time>1990-12-05T10:56:18Z</time>
      </trkpt>
      <trkpt lat="44.06285" lon="6.0896">
        <ele>625</ele>
        <time>1990-12-05T10:56:39Z</time>
      </trkpt>
      <trkpt lat="44.0621" lon="6.0881">
        <ele>617</ele>
        <time>1990-12-05T10:57:09Z</time>
      </trkpt>
      <trkpt lat="44.0601" lon="6.09427">
        <ele>592</ele>
        <time>1990-12-05T10:59:50Z</time>
      </trkpt>
      <trkpt lat="44.06007" lon="6.09352">
        <ele>596</ele>
        <time>1990-12-05T11:00:04Z</time>
      </trkpt>
      <trkpt lat="44.05968" lon="6.09923">
        <ele>573</ele>
        <time>1990-12-05T11:01:27Z</time>
      </trkpt>
      <trkpt lat="44.05847" lon="6.1045">
        <ele>550</ele>
        <time>1990-12-05T11:05:09Z</time>
      </trkpt>
      <trkpt lat="44.05722" lon="6.10513">
        <ele>542</ele>
        <time>1990-12-05T11:05:36Z</time>
      </trkpt>
      <trkpt lat="44.05668" lon="6.106">
        <ele>538</ele>
        <time>1990-12-05T11:05:47Z</time>
      </trkpt>
      <trkpt lat="44.05392" lon="6.10467">
        <ele>530</ele>
        <time>1990-12-05T11:07:37Z</time>
      </trkpt>
      <trkpt lat="44.05293" lon="6.10495">
        <ele>526</ele>
        <time>1990-12-05T11:08:00Z</time>
      </trkpt>
      <trkpt lat="44.0532" lon="6.10293">
        <ele>539</ele>
        <time>1990-12-05T11:10:37Z</time>
      </trkpt>
      <trkpt lat="44.05122" lon="6.10228">
        <ele>532</ele>
        <time>1990-12-05T11:13:58Z</time>
      </trkpt>
      <trkpt lat="44.05027" lon="6.10602">
        <ele>521</ele>
        <time>1990-12-05T11:15:03Z</time>
      </trkpt>
      <trkpt lat="44.05063" lon="6.10737">
        <ele>522</ele>
        <time>1990-12-05T11:15:31Z</time>
      </trkpt>
      <trkpt lat="44.05237" lon="6.10872">
        <ele>526</ele>
        <time>1990-12-05T11:16:31Z</time>
      </trkpt>
      <trkpt lat="44.05327" lon="6.11007">
        <ele>528</ele>
        <time>1990-12-05T11:17:05Z</time>
      </trkpt>
      <trkpt lat="44.05467" lon="6.1099">
        <ele>532</ele>
        <time>1990-12-05T11:17:52Z</time>
      </trkpt>
      <trkpt lat="44.05385" lon="6.11038">
        <ele>531</ele>
        <time>1990-12-05T11:18:14Z</time>
      </trkpt>
      <trkpt lat="44.05312" lon="6.11275">
        <ele>536</ele>
        <time>1990-12-05T11:18:54Z</time>
      </trkpt>
      <trkpt lat="44.05007" lon="6.11832">
        <ele>555</ele>
        <time>1990-12-05T11:21:57Z</time>
      </trkpt>
      <trkpt lat="44.04965" lon="6.12">
        <ele>554</ele>
        <time>1990-12-05T11:22:52Z</time>
      </trkpt>
      <trkpt lat="44.0509" lon="6.12125">
        <ele>557</ele>
        <time>1990-12-05T11:23:46Z</time>
      </trkpt>
      <trkpt lat="44.0476" lon="6.12965">
        <ele>561</ele>
        <time>1990-12-05T11:28:01Z</time>
      </trkpt>
      <trkpt lat="44.0463" lon="6.13085">
        <ele>548</ele>
        <time>1990-12-05T11:29:14Z</time>
      </trkpt>
      <trkpt lat="44.04602" lon="6.13225">
        <ele>529</ele>
        <time>1990-12-05T11:29:32Z</time>
      </trkpt>
      <trkpt lat="44.04252" lon="6.13542">
        <ele>511</ele>
        <time>1990-12-05T11:30:50Z</time>
      </trkpt>
      <trkpt lat="44.04058" lon="6.13628">
        <ele>509</ele>
        <time>1990-12-05T11:31:32Z</time>
      </trkpt>
      <trkpt lat="44.0403" lon="6.13593">
        <ele>507</ele>
        <time>1990-12-05T11:31:47Z</time>
      </trkpt>
      <trkpt lat="44.03968" lon="6.13643">
        <ele>507</ele>
        <time>1990-12-05T11:32:13Z</time>
      </trkpt>
      <trkpt lat="44.04082" lon="6.13995">
        <ele>509</ele>
        <time>1990-12-05T11:33:30Z</time>
      </trkpt>
      <trkpt lat="44.04007" lon="6.14062">
        <ele>510</ele>
        <time>1990-12-05T11:33:54Z</time>
      </trkpt>
      <trkpt lat="44.04057" lon="6.14183">
        <ele>512</ele>
        <time>1990-12-05T11:34:41Z</time>
      </trkpt>
      <trkpt lat="44.03955" lon="6.14282">
        <ele>512</ele>
        <time>1990-12-05T11:35:13Z</time>
      </trkpt>
      <trkpt lat="44.03927" lon="6.14402">
        <ele>511</ele>
        <time>1990-12-05T11:36:01Z</time>
      </trkpt>
      <trkpt lat="44.0406" lon="6.14528">
        <ele>511</ele>
        <time>1990-12-05T11:36:56Z</time>
      </trkpt>
      <trkpt lat="44.0416" lon="6.14727">
        <ele>513</ele>
        <time>1990-12-05T11:37:46Z</time>
      </trkpt>
      <trkpt lat="44.04175" lon="6.14915">
        <ele>515</ele>
        <time>1990-12-05T11:38:32Z</time>
      </trkpt>
      <trkpt lat="44.03973" lon="6.15118">
        <ele>526</ele>
        <time>1990-12-05T11:40:02Z</time>
      </trkpt>
      <trkpt lat="44.0404" lon="6.15558">
        <ele>527</ele>
        <time>1990-12-05T11:46:47Z</time>
      </trkpt>
      <trkpt lat="44.04375" lon="6.16113">
        <ele>533</ele>
        <time>1990-12-05T11:49:16Z</time>
      </trkpt>
      <trkpt lat="44.04425" lon="6.16287">
        <ele>537</ele>
        <time>1990-12-05T11:50:05Z</time>
      </trkpt>
      <trkpt lat="44.045" lon="6.16377">
        <ele>537</ele>
        <time>1990-12-05T11:50:40Z</time>
      </trkpt>
      <trkpt lat="44.0457" lon="6.1635">
        <ele>534</ele>
        <time>1990-12-05T11:50:56Z</time>
      </trkpt>
      <trkpt lat="44.04737" lon="6.16153">
        <ele>529</ele>
        <time>1990-12-05T11:51:48Z</time>
      </trkpt>
      <trkpt lat="44.04775" lon="6.16165">
        <ele>530</ele>
        <time>1990-12-05T11:52:01Z</time>
      </trkpt>
      <trkpt lat="44.04868" lon="6.16382">
        <ele>529</ele>
        <time>1990-12-05T11:52:42Z</time>
      </trkpt>
      <trkpt lat="44.04995" lon="6.16428">
        <ele>530</ele>
        <time>1990-12-05T11:53:15Z</time>
      </trkpt>
      <trkpt lat="44.05105" lon="6.16292">
        <ele>526</ele>
        <time>1990-12-05T11:53:41Z</time>
      </trkpt>
      <trkpt lat="44.05182" lon="6.16278">
        <ele>527</ele>
        <time>1990-12-05T11:53:57Z</time>
      </trkpt>
      <trkpt lat="44.05653" lon="6.16892">
        <ele>535</ele>
        <time>1990-12-05T11:56:25Z</time>
      </trkpt>
      <trkpt lat="44.05705" lon="6.17178">
        <ele>537</ele>
        <time>1990-12-05T11:57:29Z</time>
      </trkpt>
      <trkpt lat="44.06117" lon="6.17685">
        <ele>542</ele>
        <time>1990-12-05T11:59:47Z</time>
      </trkpt>
      <trkpt lat="44.06222" lon="6.17545">
        <ele>541</ele>
        <time>1990-12-05T12:00:38Z</time>
      </trkpt>
      <trkpt lat="44.06297" lon="6.17577">
        <ele>540</ele>
        <time>1990-12-05T12:01:30Z</time>
      </trkpt>
      <trkpt lat="44.06342" lon="6.17512">
        <ele>541</ele>
        <time>1990-12-05T12:03:02Z</time>
      </trkpt>
      <trkpt lat="44.06493" lon="6.17602">
        <ele>544</ele>
        <time>1990-12-05T12:04:31Z</time>
      </trkpt>
      <trkpt lat="44.06643" lon="6.17793">
        <ele>547</ele>
        <time>1990-12-05T12:05:27Z</time>
      </trkpt>
      <trkpt lat="44.06443" lon="6.18072">
        <ele>546</ele>
        <time>1990-12-05T12:06:33Z</time>
      </trkpt>
      <trkpt lat="44.06415" lon="6.18183">
        <ele>546</ele>
        <time>1990-12-05T12:06:59Z</time>
      </trkpt>
      <trkpt lat="44.06508" lon="6.18347">
        <ele>547</ele>
        <time>1990-12-05T12:07:38Z</time>
      </trkpt>
      <trkpt lat="44.0653" lon="6.1885">
        <ele>555</ele>
        <time>1990-12-05T12:09:25Z</time>
      </trkpt>
      <trkpt lat="44.06818" lon="6.19618">
        <ele>570</ele>
        <time>1990-12-05T12:16:07Z</time>
      </trkpt>
      <trkpt lat="44.07127" lon="6.20185">
        <ele>572</ele>
        <time>1990-12-05T12:17:51Z</time>
      </trkpt>
      <trkpt lat="44.07248" lon="6.20265">
        <ele>575</ele>
        <time>1990-12-05T12:18:20Z</time>
      </trkpt>
      <trkpt lat="44.07553" lon="6.20622">
        <ele>578</ele>
        <time>1990-12-05T12:19:48Z</time>
      </trkpt>
      <trkpt lat="44.07632" lon="6.20543">
        <ele>572</ele>
        <time>1990-12-05T12:20:15Z</time>
      </trkpt>
      <trkpt lat="44.07772" lon="6.2059">
        <ele>570</ele>
        <time>1990-12-05T12:20:54Z</time>
      </trkpt>
      <trkpt lat="44.07783" lon="6.20785">
        <ele>572</ele>
        <time>1990-12-05T12:23:57Z</time>
      </trkpt>
      <trkpt lat="44.07983" lon="6.21295">
        <ele>575</ele>
        <time>1990-12-05T12:27:16Z</time>
      </trkpt>
      <trkpt lat="44.08003" lon="6.21433">
        <ele>577</ele>
        <time>1990-12-05T12:27:46Z</time>
      </trkpt>
      <trkpt lat="44.07967" lon="6.2144">
        <ele>577</ele>
        <time>1990-12-05T12:28:01Z</time>
      </trkpt>
      <trkpt lat="44.0841" lon="6.21633">
        <ele>598</ele>
        <time>1990-12-06T07:53:22Z</time>
      </trkpt>
      <trkpt lat="44.08368" lon="6.21722">
        <ele>602</ele>
        <time>1990-12-06T07:57:00Z</time>
      </trkpt>
      <trkpt lat="44.08138" lon="6.21758">
        <ele>601</ele>
        <time>1990-12-06T07:57:49Z</time>
      </trkpt>
      <trkpt lat="44.08242" lon="6.22048">
        <ele>600</ele>
        <time>1990-12-06T07:59:00Z</time>
      </trkpt>
      <trkpt lat="44.08502" lon="6.22553">
        <ele>604</ele>
        <time>1990-12-06T08:00:50Z</time>
      </trkpt>
      <trkpt lat="44.08702" lon="6.22787">
        <ele>605</ele>
        <time>1990-12-06T08:02:34Z</time>
      </trkpt>
      <trkpt lat="44.08702" lon="6.2274">
        <ele>604</ele>
        <time>1990-12-06T08:03:30Z</time>
      </trkpt>
      <trkpt lat="44.09057" lon="6.23047">
        <ele>607</ele>
        <time>1990-12-06T08:07:19Z</time>
      </trkpt>
      <trkpt lat="44.09095" lon="6.2318">
        <ele>608</ele>
        <time>1990-12-06T08:07:59Z</time>
      </trkpt>
      <trkpt lat="44.08968" lon="6.2391">
        <ele>613</ele>
        <time>1990-12-06T08:10:11Z</time>
      </trkpt>
      <trkpt lat="44.08995" lon="6.24078">
        <ele>615</ele>
        <time>1990-12-06T08:10:43Z</time>
      </trkpt>
      <trkpt lat="44.0911" lon="6.24303">
        <ele>618</ele>
        <time>1990-12-06T08:11:32Z</time>
      </trkpt>
      <trkpt lat="44.0911" lon="6.24403">
        <ele>622</ele>
        <time>1990-12-06T08:11:56Z</time>
      </trkpt>
      <trkpt lat="44.08962" lon="6.24883">
        <ele>625</ele>
        <time>1990-12-06T08:13:19Z</time>
      </trkpt>
      <trkpt lat="44.08733" lon="6.25038">
        <ele>632</ele>
        <time>1990-12-06T08:14:28Z</time>
      </trkpt>
      <trkpt lat="44.08602" lon="6.24992">
        <ele>634</ele>
        <time>1990-12-06T08:15:14Z</time>
      </trkpt>
      <trkpt lat="44.08513" lon="6.25022">
        <ele>635</ele>
        <time>1990-12-06T08:15:43Z</time>
      </trkpt>
      <trkpt lat="44.08467" lon="6.25097">
        <ele>637</ele>
        <time>1990-12-06T08:16:07Z</time>
      </trkpt>
      <trkpt lat="44.08445" lon="6.25263">
        <ele>641</ele>
        <time>1990-12-06T08:16:45Z</time>
      </trkpt>
      <trkpt lat="44.08185" lon="6.25495">
        <ele>647</ele>
        <time>1990-12-06T08:18:41Z</time>
      </trkpt>
      <trkpt lat="44.08137" lon="6.2546">
        <ele>648</ele>
        <time>1990-12-06T08:19:01Z</time>
      </trkpt>
      <trkpt lat="44.08065" lon="6.2556">
        <ele>651</ele>
        <time>1990-12-06T08:19:38Z</time>
      </trkpt>
      <trkpt lat="44.07963" lon="6.25867">
        <ele>653</ele>
        <time>1990-12-06T08:21:10Z</time>
      </trkpt>
      <trkpt lat="44.08002" lon="6.25943">
        <ele>653</ele>
        <time>1990-12-06T08:21:36Z</time>
      </trkpt>
      <trkpt lat="44.07935" lon="6.26735">
        <ele>670</ele>
        <time>1990-12-06T08:26:01Z</time>
      </trkpt>
      <trkpt lat="44.07862" lon="6.26833">
        <ele>675</ele>
        <time>1990-12-06T08:27:03Z</time>
      </trkpt>
      <trkpt lat="44.0787" lon="6.26907">
        <ele>675</ele>
        <time>1990-12-06T08:27:17Z</time>
      </trkpt>
      <trkpt lat="44.07773" lon="6.26975">
        <ele>679</ele>
        <time>1990-12-06T08:27:51Z</time>
      </trkpt>
      <trkpt lat="44.0775" lon="6.27055">
        <ele>694</ele>
        <time>1990-12-06T08:28:51Z</time>
      </trkpt>
      <trkpt lat="44.0764" lon="6.26883">
        <ele>703</ele>
        <time>1990-12-06T08:30:25Z</time>
      </trkpt>
      <trkpt lat="44.07513" lon="6.27097">
        <ele>691</ele>
        <time>1990-12-06T08:31:08Z</time>
      </trkpt>
      <trkpt lat="44.07283" lon="6.27132">
        <ele>692</ele>
        <time>1990-12-06T08:32:13Z</time>
      </trkpt>
      <trkpt lat="44.07087" lon="6.2724">
        <ele>696</ele>
        <time>1990-12-06T08:33:24Z</time>
      </trkpt>
      <trkpt lat="44.07068" lon="6.27163">
        <ele>695</ele>
        <time>1990-12-06T08:33:44Z</time>
      </trkpt>
      <trkpt lat="44.07277" lon="6.26923">
        <ele>723</ele>
        <time>1990-12-06T08:36:40Z</time>
      </trkpt>
      <trkpt lat="44.07448" lon="6.26838">
        <ele>743</ele>
        <time>1990-12-06T08:38:47Z</time>
      </trkpt>
      <trkpt lat="44.07443" lon="6.26697">
        <ele>755</ele>
        <time>1990-12-06T08:40:09Z</time>
      </trkpt>
      <trkpt lat="44.07548" lon="6.2667">
        <ele>770</ele>
        <time>1990-12-06T08:41:42Z</time>
      </trkpt>
      <trkpt lat="44.07485" lon="6.26645">
        <ele>784</ele>
        <time>1990-12-06T08:42:59Z</time>
      </trkpt>
      <trkpt lat="44.0753" lon="6.26563">
        <ele>788</ele>
        <time>1990-12-06T08:44:43Z</time>
      </trkpt>
      <trkpt lat="44.0738" lon="6.26347">
        <ele>794</ele>
        <time>1990-12-06T08:46:08Z</time>
      </trkpt>
      <trkpt lat="44.07095" lon="6.25645">
        <ele>848</ele>
        <time>1990-12-06T08:57:53Z</time>
      </trkpt>
      <trkpt lat="44.0715" lon="6.25743">
        <ele>836</ele>
        <time>1990-12-06T09:01:03Z</time>
      </trkpt>
      <trkpt lat="44.07288" lon="6.25837">
        <ele>854</ele>
        <time>1990-12-06T09:02:54Z</time>
      </trkpt>
      <trkpt lat="44.07157" lon="6.25573">
        <ele>880</ele>
        <time>1990-12-06T09:07:53Z</time>
      </trkpt>
      <trkpt lat="44.07075" lon="6.25215">
        <ele>911</ele>
        <time>1990-12-06T09:11:13Z</time>
      </trkpt>
      <trkpt lat="44.06892" lon="6.25047">
        <ele>936</ele>
        <time>1990-12-06T09:15:50Z</time>
      </trkpt>
      <trkpt lat="44.06948" lon="6.2504">
        <ele>946</ele>
        <time>1990-12-06T09:19:09Z</time>
      </trkpt>
      <trkpt lat="44.06813" lon="6.25032">
        <ele>960</ele>
        <time>1990-12-06T09:21:41Z</time>
      </trkpt>
      <trkpt lat="44.06757" lon="6.24798">
        <ele>978</ele>
        <time>1990-12-06T09:25:12Z</time>
      </trkpt>
      <trkpt lat="44.06698" lon="6.24825">
        <ele>983</ele>
        <time>1990-12-06T09:25:40Z</time>
      </trkpt>
      <trkpt lat="44.06655" lon="6.2476">
        <ele>990</ele>
        <time>1990-12-06T09:26:29Z</time>
      </trkpt>
      <trkpt lat="44.06723" lon="6.24765">
        <ele>1001</ele>
        <time>1990-12-06T09:28:31Z</time>
      </trkpt>
      <trkpt lat="44.0667" lon="6.24707">
        <ele>1012</ele>
        <time>1990-12-06T09:29:17Z</time>
      </trkpt>
      <trkpt lat="44.06693" lon="6.24697">
        <ele>1021</ele>
        <time>1990-12-06T09:29:52Z</time>
      </trkpt>
      <trkpt lat="44.0657" lon="6.2459">
        <ele>1038</ele>
        <time>1990-12-06T09:34:14Z</time>
      </trkpt>
      <trkpt lat="44.06755" lon="6.24643">
        <ele>1062</ele>
        <time>1990-12-06T09:37:41Z</time>
      </trkpt>
      <trkpt lat="44.06773" lon="6.24567">
        <ele>1077</ele>
        <time>1990-12-06T09:39:22Z</time>
      </trkpt>
      <trkpt lat="44.06608" lon="6.2446">
        <ele>1081</ele>
        <time>1990-12-06T09:49:43Z</time>
      </trkpt>
      <trkpt lat="44.06065" lon="6.24508">
        <ele>1070</ele>
        <time>1990-12-06T09:53:09Z</time>
      </trkpt>
      <trkpt lat="44.05892" lon="6.24802">
        <ele>1057</ele>
        <time>1990-12-06T09:59:53Z</time>
      </trkpt>
      <trkpt lat="44.05782" lon="6.24897">
        <ele>1051</ele>
        <time>1990-12-06T10:00:17Z</time>
      </trkpt>
      <trkpt lat="44.05753" lon="6.24977">
        <ele>1049</ele>
        <time>1990-12-06T10:00:38Z</time>
      </trkpt>
      <trkpt lat="44.05632" lon="6.2506">
        <ele>1068</ele>
        <time>1990-12-06T10:04:17Z</time>
      </trkpt>
      <trkpt lat="44.05307" lon="6.25053">
        <ele>1110</ele>
        <time>1990-12-06T10:07:01Z</time>
      </trkpt>
      <trkpt lat="44.05083" lon="6.24992">
        <ele>1142</ele>
        <time>1990-12-06T10:09:15Z</time>
      </trkpt>
      <trkpt lat="44.05042" lon="6.24932">
        <ele>1149</ele>
        <time>1990-12-06T10:09:53Z</time>
      </trkpt>
      <trkpt lat="44.05118" lon="6.25147">
        <ele>1174</ele>
        <time>1990-12-06T10:12:03Z</time>
      </trkpt>
      <trkpt lat="44.05247" lon="6.25172">
        <ele>1186</ele>
        <time>1990-12-06T10:13:55Z</time>
      </trkpt>
      <trkpt lat="44.05503" lon="6.25373">
        <ele>1186</ele>
        <time>1990-12-06T10:34:46Z</time>
      </trkpt>
      <trkpt lat="44.05233" lon="6.25465">
        <ele>1126</ele>
        <time>1990-12-06T10:40:34Z</time>
      </trkpt>
      <trkpt lat="44.04973" lon="6.2563">
        <ele>1071</ele>
        <time>1990-12-06T10:43:39Z</time>
      </trkpt>
      <trkpt lat="44.04832" lon="6.25807">
        <ele>1054</ele>
        <time>1990-12-06T10:45:19Z</time>
      </trkpt>
      <trkpt lat="44.04787" lon="6.2595">
        <ele>1036</ele>
        <time>1990-12-06T10:45:43Z</time>
      </trkpt>
      <trkpt lat="44.04592" lon="6.26067">
        <ele>1008</ele>
        <time>1990-12-06T10:46:28Z</time>
      </trkpt>
      <trkpt lat="44.04628" lon="6.2616">
        <ele>998</ele>
        <time>1990-12-06T10:46:41Z</time>
      </trkpt>
      <trkpt lat="44.04563" lon="6.26543">
        <ele>973</ele>
        <time>1990-12-06T10:47:51Z</time>
      </trkpt>
      <trkpt lat="44.04543" lon="6.26505">
        <ele>975</ele>
        <time>1990-12-06T10:48:04Z</time>
      </trkpt>
      <trkpt lat="44.0458" lon="6.26607">
        <ele>973</ele>
        <time>1990-12-06T10:48:56Z</time>
      </trkpt>
      <trkpt lat="44.04478" lon="6.26607">
        <ele>969</ele>
        <time>1990-12-06T10:52:54Z</time>
      </trkpt>
      <trkpt lat="44.04335" lon="6.26837">
        <ele>979</ele>
        <time>1990-12-06T10:53:58Z</time>
      </trkpt>
      <trkpt lat="44.04275" lon="6.27173">
        <ele>966</ele>
        <time>1990-12-06T10:55:31Z</time>
      </trkpt>
      <trkpt lat="44.04225" lon="6.27225">
        <ele>983</ele>
        <time>1990-12-06T10:57:13Z</time>
      </trkpt>
      <trkpt lat="44.04202" lon="6.27542">
        <ele>999</ele>
        <time>1990-12-06T11:03:02Z</time>
      </trkpt>
      <trkpt lat="44.04148" lon="6.2769">
        <ele>992</ele>
        <time>1990-12-06T11:03:36Z</time>
      </trkpt>
      <trkpt lat="44.03963" lon="6.27868">
        <ele>1008</ele>
        <time>1990-12-06T11:06:02Z</time>
      </trkpt>
      <trkpt lat="44.03802" lon="6.27925">
        <ele>993</ele>
        <time>1990-12-06T11:13:19Z</time>
      </trkpt>
      <trkpt lat="44.03133" lon="6.28438">
        <ele>1017</ele>
        <time>1990-12-06T11:19:48Z</time>
      </trkpt>
      <trkpt lat="44.03077" lon="6.28547">
        <ele>1018</ele>
        <time>1990-12-06T11:20:16Z</time>
      </trkpt>
      <trkpt lat="44.0269" lon="6.28893">
        <ele>1051</ele>
        <time>1990-12-06T11:25:51Z</time>
      </trkpt>
      <trkpt lat="44.02597" lon="6.29277">
        <ele>1079</ele>
        <time>1990-12-06T11:29:42Z</time>
      </trkpt>
      <trkpt lat="44.02647" lon="6.29432">
        <ele>1092</ele>
        <time>1990-12-06T11:31:26Z</time>
      </trkpt>
      <trkpt lat="44.02557" lon="6.2963">
        <ele>1105</ele>
        <time>1990-12-06T11:40:07Z</time>
      </trkpt>
      <trkpt lat="44.02918" lon="6.2967">
        <ele>1073</ele>
        <time>1990-12-06T11:41:04Z</time>
      </trkpt>
      <trkpt lat="44.02933" lon="6.29718">
        <ele>1070</ele>
        <time>1990-12-06T11:41:15Z</time>
      </trkpt>
      <trkpt lat="44.0338" lon="6.29692">
        <ele>1012</ele>
        <time>1990-12-06T11:44:44Z</time>
      </trkpt>
      <trkpt lat="44.0381" lon="6.29908">
        <ele>1000</ele>
        <time>1990-12-06T11:51:18Z</time>
      </trkpt>
      <trkpt lat="44.0384" lon="6.3014">
        <ele>1008</ele>
        <time>1990-12-06T11:52:45Z</time>
      </trkpt>
      <trkpt lat="44.03923" lon="6.30245">
        <ele>1007</ele>
        <time>1990-12-06T11:53:20Z</time>
      </trkpt>
      <trkpt lat="44.04018" lon="6.30173">
        <ele>1005</ele>
        <time>1990-12-06T11:53:42Z</time>
      </trkpt>
      <trkpt lat="44.04127" lon="6.30228">
        <ele>1000</ele>
        <time>1990-12-06T11:54:07Z</time>
      </trkpt>
      <trkpt lat="44.0431" lon="6.3022">
        <ele>998</ele>
        <time>1990-12-06T11:54:51Z</time>
      </trkpt>
      <trkpt lat="44.04302" lon="6.30723">
        <ele>976</ele>
        <time>1990-12-06T11:55:46Z</time>
      </trkpt>
      <trkpt lat="44.04377" lon="6.30892">
        <ele>978</ele>
        <time>1990-12-06T11:56:11Z</time>
      </trkpt>
      <trkpt lat="44.04458" lon="6.30915">
        <ele>981</ele>
        <time>1990-12-06T11:57:16Z</time>
      </trkpt>
      <trkpt lat="44.04517" lon="6.30702">
        <ele>997</ele>
        <time>1990-12-06T11:58:46Z</time>
      </trkpt>
      <trkpt lat="44.0461" lon="6.30712">
        <ele>1004</ele>
        <time>1990-12-06T12:01:52Z</time>
      </trkpt>
      <trkpt lat="44.04838" lon="6.30588">
        <ele>1031</ele>
        <time>1990-12-06T12:04:33Z</time>
      </trkpt>
      <trkpt lat="44.04818" lon="6.3063">
        <ele>1034</ele>
        <time>1990-12-06T12:05:01Z</time>
      </trkpt>
      <trkpt lat="44.049" lon="6.30832">
        <ele>1044</ele>
        <time>1990-12-06T12:06:50Z</time>
      </trkpt>
      <trkpt lat="44.04882" lon="6.30998">
        <ele>1051</ele>
        <time>1990-12-06T12:07:55Z</time>
      </trkpt>
      <trkpt lat="44.05132" lon="6.31027">
        <ele>1050</ele>
        <time>1990-12-06T12:10:57Z</time>
      </trkpt>
      <trkpt lat="44.05252" lon="6.30882">
        <ele>1064</ele>
        <time>1990-12-06T12:14:07Z</time>
      </trkpt>
      <trkpt lat="44.0537" lon="6.31117">
        <ele>1056</ele>
        <time>1990-12-06T12:15:32Z</time>
      </trkpt>
      <trkpt lat="44.05447" lon="6.31182">
        <ele>1052</ele>
        <time>1990-12-06T12:15:55Z</time>
      </trkpt>
      <trkpt lat="44.0551" lon="6.31025">
        <ele>1049</ele>
        <time>1990-12-06T12:16:23Z</time>
      </trkpt>
      <trkpt lat="44.05567" lon="6.31097">
        <ele>1041</ele>
        <time>1990-12-06T12:16:49Z</time>
      </trkpt>
      <trkpt lat="44.058" lon="6.31032">
        <ele>1041</ele>
        <time>1990-12-06T12:18:11Z</time>
      </trkpt>
      <trkpt lat="44.05952" lon="6.3131">
        <ele>1046</ele>
        <time>1990-12-06T12:19:39Z</time>
      </trkpt>
      <trkpt lat="44.06132" lon="6.31492">
        <ele>1037</ele>
        <time>1990-12-06T12:20:27Z</time>
      </trkpt>
      <trkpt lat="44.06228" lon="6.31377">
        <ele>1048</ele>
        <time>1990-12-06T12:21:22Z</time>
      </trkpt>
      <trkpt lat="44.06368" lon="6.31338">
        <ele>1046</ele>
        <time>1990-12-06T12:22:01Z</time>
      </trkpt>
      <trkpt lat="44.0658" lon="6.31178">
        <ele>1041</ele>
        <time>1990-12-06T12:22:47Z</time>
      </trkpt>
      <trkpt lat="44.06602" lon="6.31012">
        <ele>1030</ele>
        <time>1990-12-06T12:23:02Z</time>
      </trkpt>
      <trkpt lat="44.06415" lon="6.30893">
        <ele>1019</ele>
        <time>1990-12-06T12:24:38Z</time>
      </trkpt>
      <trkpt lat="44.06433" lon="6.30817">
        <ele>1013</ele>
        <time>1990-12-06T12:24:46Z</time>
      </trkpt>
      <trkpt lat="44.06577" lon="6.30668">
        <ele>987</ele>
        <time>1990-12-06T12:25:59Z</time>
      </trkpt>
      <trkpt lat="44.0653" lon="6.30628">
        <ele>982</ele>
        <time>1990-12-06T12:26:10Z</time>
      </trkpt>
      <trkpt lat="44.06592" lon="6.30557">
        <ele>974</ele>
        <time>1990-12-06T12:26:20Z</time>
      </trkpt>
      <trkpt lat="44.06608" lon="6.30457">
        <ele>967</ele>
        <time>1990-12-06T12:26:33Z</time>
      </trkpt>
      <trkpt lat="44.06705" lon="6.30523">
        <ele>962</ele>
        <time>1990-12-06T12:26:54Z</time>
      </trkpt>
      <trkpt lat="44.0668" lon="6.3066">
        <ele>960</ele>
        <time>1990-12-06T12:27:08Z</time>
      </trkpt>
      <trkpt lat="44.06835" lon="6.30563">
        <ele>971</ele>
        <time>1990-12-06T12:27:37Z</time>
      </trkpt>
      <trkpt lat="44.06925" lon="6.30608">
        <ele>973</ele>
        <time>1990-12-06T12:28:08Z</time>
      </trkpt>
      <trkpt lat="44.07017" lon="6.30745">
        <ele>966</ele>
        <time>1990-12-06T12:28:29Z</time>
      </trkpt>
      <trkpt lat="44.07467" lon="6.3096">
        <ele>977</ele>
        <time>1990-12-06T12:31:08Z</time>
      </trkpt>
      <trkpt lat="44.07538" lon="6.31082">
        <ele>974</ele>
        <time>1990-12-06T12:31:41Z</time>
      </trkpt>
      <trkpt lat="44.07608" lon="6.30925">
        <ele>986</ele>
        <time>1990-12-06T12:32:47Z</time>
      </trkpt>
      <trkpt lat="44.0761" lon="6.30985">
        <ele>995</ele>
        <time>1990-12-06T12:33:38Z</time>
      </trkpt>
      <trkpt lat="44.07668" lon="6.31008">
        <ele>998</ele>
        <time>1990-12-06T12:34:20Z</time>
      </trkpt>
      <trkpt lat="44.07867" lon="6.30678">
        <ele>1005</ele>
        <time>1990-12-06T12:37:00Z</time>
      </trkpt>
      <trkpt lat="44.07963" lon="6.30647">
        <ele>993</ele>
        <time>1990-12-06T12:37:23Z</time>
      </trkpt>
      <trkpt lat="44.08018" lon="6.30972">
        <ele>978</ele>
        <time>1990-12-06T12:37:54Z</time>
      </trkpt>
      <trkpt lat="44.08282" lon="6.30812">
        <ele>957</ele>
        <time>1990-12-06T12:38:45Z</time>
      </trkpt>
      <trkpt lat="44.08497" lon="6.31">
        <ele>961</ele>
        <time>1990-12-06T12:41:11Z</time>
      </trkpt>
      <trkpt lat="44.0852" lon="6.31095">
        <ele>973</ele>
        <time>1990-12-06T12:42:58Z</time>
      </trkpt>
      <trkpt lat="44.08738" lon="6.31177">
        <ele>981</ele>
        <time>1990-12-06T12:44:05Z</time>
      </trkpt>
      <trkpt lat="44.08687" lon="6.31232">
        <ele>979</ele>
        <time>1990-12-06T13:38:07Z</time>
      </trkpt>
      <trkpt lat="44.08797" lon="6.31162">
        <ele>988</ele>
        <time>1990-12-06T13:39:53Z</time>
      </trkpt>
      <trkpt lat="44.08942" lon="6.31267">
        <ele>998</ele>
        <time>1990-12-06T13:41:22Z</time>
      </trkpt>
      <trkpt lat="44.08932" lon="6.31322">
        <ele>1002</ele>
        <time>1990-12-06T13:41:46Z</time>
      </trkpt>
      <trkpt lat="44.08852" lon="6.31337">
        <ele>1008</ele>
        <time>1990-12-06T13:42:31Z</time>
      </trkpt>
      <trkpt lat="44.08925" lon="6.31427">
        <ele>1015</ele>
        <time>1990-12-06T13:43:25Z</time>
      </trkpt>
      <trkpt lat="44.09097" lon="6.314">
        <ele>1023</ele>
        <time>1990-12-06T13:44:50Z</time>
      </trkpt>
      <trkpt lat="44.0932" lon="6.31607">
        <ele>1026</ele>
        <time>1990-12-06T13:46:59Z</time>
      </trkpt>
      <trkpt lat="44.0935" lon="6.31577">
        <ele>1023</ele>
        <time>1990-12-06T13:47:07Z</time>
      </trkpt>
      <trkpt lat="44.0937" lon="6.31693">
        <ele>1016</ele>
        <time>1990-12-06T13:47:29Z</time>
      </trkpt>
      <trkpt lat="44.09437" lon="6.31748">
        <ele>1013</ele>
        <time>1990-12-06T13:47:44Z</time>
      </trkpt>
      <trkpt lat="44.09418" lon="6.31967">
        <ele>1000</ele>
        <time>1990-12-06T13:48:23Z</time>
      </trkpt>
      <trkpt lat="44.09603" lon="6.32062">
        <ele>994</ele>
        <time>1990-12-06T13:49:17Z</time>
      </trkpt>
      <trkpt lat="44.0965" lon="6.31967">
        <ele>999</ele>
        <time>1990-12-06T13:49:59Z</time>
      </trkpt>
      <trkpt lat="44.09788" lon="6.3202">
        <ele>1006</ele>
        <time>1990-12-06T13:51:12Z</time>
      </trkpt>
      <trkpt lat="44.09847" lon="6.3213">
        <ele>1010</ele>
        <time>1990-12-06T13:52:15Z</time>
      </trkpt>
      <trkpt lat="44.10077" lon="6.31703">
        <ele>1023</ele>
        <time>1990-12-06T13:55:55Z</time>
      </trkpt>
      <trkpt lat="44.10153" lon="6.31827">
        <ele>1025</ele>
        <time>1990-12-06T13:56:32Z</time>
      </trkpt>
      <trkpt lat="44.1022" lon="6.31843">
        <ele>1021</ele>
        <time>1990-12-06T13:56:47Z</time>
      </trkpt>
      <trkpt lat="44.10228" lon="6.3174">
        <ele>1029</ele>
        <time>1990-12-06T13:57:39Z</time>
      </trkpt>
      <trkpt lat="44.10275" lon="6.31713">
        <ele>1035</ele>
        <time>1990-12-06T13:58:17Z</time>
      </trkpt>
      <trkpt lat="44.10368" lon="6.31827">
        <ele>1042</ele>
        <time>1990-12-06T13:59:35Z</time>
      </trkpt>
      <trkpt lat="44.10462" lon="6.31788">
        <ele>1053</ele>
        <time>1990-12-06T14:01:01Z</time>
      </trkpt>
      <trkpt lat="44.10592" lon="6.3183">
        <ele>1064</ele>
        <time>1990-12-06T14:02:34Z</time>
      </trkpt>
      <trkpt lat="44.10845" lon="6.31473">
        <ele>1056</ele>
        <time>1990-12-06T14:07:04Z</time>
      </trkpt>
      <trkpt lat="44.10912" lon="6.31733">
        <ele>1072</ele>
        <time>1990-12-06T14:09:34Z</time>
      </trkpt>
      <trkpt lat="44.10842" lon="6.32078">
        <ele>1103</ele>
        <time>1990-12-06T14:13:01Z</time>
      </trkpt>
      <trkpt lat="44.10933" lon="6.32063">
        <ele>1106</ele>
        <time>1990-12-06T14:16:21Z</time>
      </trkpt>
      <trkpt lat="44.11068" lon="6.32125">
        <ele>1098</ele>
        <time>1990-12-06T14:16:53Z</time>
      </trkpt>
      <trkpt lat="44.11053" lon="6.32247">
        <ele>1090</ele>
        <time>1990-12-06T14:31:48Z</time>
      </trkpt>
      <trkpt lat="44.11142" lon="6.32297">
        <ele>1086</ele>
        <time>1990-12-06T14:34:24Z</time>
      </trkpt>
      <trkpt lat="44.11173" lon="6.3237">
        <ele>1079</ele>
        <time>1990-12-06T14:34:51Z</time>
      </trkpt>
      <trkpt lat="44.11138" lon="6.32513">
        <ele>1056</ele>
        <time>1990-12-06T15:40:12Z</time>
      </trkpt>
      <trkpt lat="44.11148" lon="6.32732">
        <ele>1013</ele>
        <time>1990-12-06T15:43:53Z</time>
      </trkpt>
      <trkpt lat="44.11117" lon="6.32748">
        <ele>1010</ele>
        <time>1990-12-06T15:46:17Z</time>
      </trkpt>
      <trkpt lat="44.11185" lon="6.32832">
        <ele>1015</ele>
        <time>1990-12-06T15:48:29Z</time>
      </trkpt>
      <trkpt lat="44.11192" lon="6.32977">
        <ele>1010</ele>
        <time>1990-12-06T15:49:59Z</time>
      </trkpt>
      <trkpt lat="44.11382" lon="6.33053">
        <ele>1005</ele>
        <time>1990-12-06T15:52:57Z</time>
      </trkpt>
      <trkpt lat="44.11558" lon="6.33303">
        <ele>988</ele>
        <time>1990-12-06T15:55:02Z</time>
      </trkpt>
      <trkpt lat="44.11635" lon="6.33285">
        <ele>976</ele>
        <time>1990-12-06T15:56:43Z</time>
      </trkpt>
      <trkpt lat="44.11707" lon="6.33338">
        <ele>969</ele>
        <time>1990-12-06T15:57:52Z</time>
      </trkpt>
      <trkpt lat="44.11863" lon="6.33335">
        <ele>954</ele>
        <time>1990-12-06T15:58:33Z</time>
      </trkpt>
      <trkpt lat="44.11965" lon="6.3342">
        <ele>942</ele>
        <time>1990-12-06T15:59:02Z</time>
      </trkpt>
      <trkpt lat="44.12108" lon="6.33453">
        <ele>956</ele>
        <time>1990-12-06T16:00:00Z</time>
      </trkpt>
      <trkpt lat="44.12158" lon="6.33408">
        <ele>961</ele>
        <time>1990-12-06T16:13:03Z</time>
      </trkpt>
      <trkpt lat="44.1245" lon="6.33443">
        <ele>971</ele>
        <time>1990-12-06T16:16:18Z</time>
      </trkpt>
      <trkpt lat="44.12515" lon="6.33573">
        <ele>962</ele>
        <time>1990-12-06T16:16:56Z</time>
      </trkpt>
      <trkpt lat="44.12678" lon="6.33672">
        <ele>957</ele>
        <time>1990-12-06T16:18:48Z</time>
      </trkpt>
      <trkpt lat="44.12697" lon="6.33737">
        <ele>952</ele>
        <time>1990-12-06T16:19:11Z</time>
      </trkpt>
      <trkpt lat="44.12887" lon="6.33632">
        <ele>978</ele>
        <time>1990-12-06T16:21:50Z</time>
      </trkpt>
      <trkpt lat="44.12933" lon="6.33655">
        <ele>979</ele>
        <time>1990-12-06T16:36:04Z</time>
      </trkpt>
      <trkpt lat="44.12988" lon="6.3361">
        <ele>978</ele>
        <time>1990-12-06T16:36:27Z</time>
      </trkpt>
      <trkpt lat="44.13215" lon="6.33703">
        <ele>966</ele>
        <time>1990-12-06T16:38:36Z</time>
      </trkpt>
      <trkpt lat="44.1342" lon="6.3369">
        <ele>949</ele>
        <time>1990-12-06T16:40:52Z</time>
      </trkpt>
      <trkpt lat="44.13425" lon="6.33775">
        <ele>946</ele>
        <time>1990-12-06T16:41:14Z</time>
      </trkpt>
      <trkpt lat="44.13268" lon="6.34028">
        <ele>900</ele>
        <time>1990-12-06T16:43:38Z</time>
      </trkpt>
      <trkpt lat="44.13247" lon="6.34158">
        <ele>884</ele>
        <time>1990-12-06T16:44:16Z</time>
      </trkpt>
      <trkpt lat="44.13343" lon="6.34165">
        <ele>868</ele>
        <time>1990-12-06T16:45:23Z</time>
      </trkpt>
      <trkpt lat="44.13458" lon="6.34277">
        <ele>878</ele>
        <time>1990-12-06T16:46:29Z</time>
      </trkpt>
      <trkpt lat="44.13287" lon="6.3454">
        <ele>878</ele>
        <time>1990-12-06T16:48:54Z</time>
      </trkpt>
      <trkpt lat="44.13253" lon="6.34537">
        <ele>880</ele>
        <time>1990-12-06T16:49:05Z</time>
      </trkpt>
      <trkpt lat="44.13278" lon="6.34605">
        <ele>885</ele>
        <time>1990-12-06T16:49:48Z</time>
      </trkpt>
      <trkpt lat="44.13253" lon="6.34607">
        <ele>890</ele>
        <time>1990-12-06T16:52:01Z</time>
      </trkpt>
      <trkpt lat="44.13355" lon="6.3459">
        <ele>890</ele>
        <time>1990-12-06T16:52:49Z</time>
      </trkpt>
      <trkpt lat="44.1343" lon="6.34665">
        <ele>899</ele>
        <time>1990-12-06T16:53:52Z</time>
      </trkpt>
      <trkpt lat="44.13497" lon="6.34908">
        <ele>919</ele>
        <time>1990-12-06T16:56:26Z</time>
      </trkpt>
      <trkpt lat="44.13367" lon="6.34865">
        <ele>930</ele>
        <time>1990-12-06T16:58:06Z</time>
      </trkpt>
      <trkpt lat="44.13397" lon="6.34948">
        <ele>937</ele>
        <time>1990-12-06T16:59:00Z</time>
      </trkpt>
      <trkpt lat="44.13383" lon="6.35128">
        <ele>947</ele>
        <time>1990-12-06T17:00:27Z</time>
      </trkpt>
      <trkpt lat="44.13438" lon="6.35253">
        <ele>955</ele>
        <time>1990-12-06T17:01:28Z</time>
      </trkpt>
      <trkpt lat="44.13383" lon="6.35438">
        <ele>972</ele>
        <time>1990-12-06T17:03:20Z</time>
      </trkpt>
      <trkpt lat="44.13293" lon="6.35448">
        <ele>982</ele>
        <time>1990-12-06T17:07:25Z</time>
      </trkpt>
      <trkpt lat="44.1313" lon="6.35367">
        <ele>997</ele>
        <time>1990-12-06T17:08:53Z</time>
      </trkpt>
      <trkpt lat="44.1299" lon="6.35507">
        <ele>1001</ele>
        <time>1990-12-06T17:09:48Z</time>
      </trkpt>
      <trkpt lat="44.12872" lon="6.35487">
        <ele>1010</ele>
        <time>1990-12-06T17:10:39Z</time>
      </trkpt>
      <trkpt lat="44.1282" lon="6.35337">
        <ele>1022</ele>
        <time>1990-12-06T17:12:08Z</time>
      </trkpt>
      <trkpt lat="44.12715" lon="6.3535">
        <ele>1032</ele>
        <time>1990-12-06T17:13:29Z</time>
      </trkpt>
      <trkpt lat="44.12712" lon="6.35492">
        <ele>1044</ele>
        <time>1990-12-06T17:14:59Z</time>
      </trkpt>
      <trkpt lat="44.1265" lon="6.35478">
        <ele>1051</ele>
        <time>1990-12-06T17:16:04Z</time>
      </trkpt>
      <trkpt lat="44.12535" lon="6.35687">
        <ele>1072</ele>
        <time>1990-12-06T17:19:16Z</time>
      </trkpt>
      <trkpt lat="44.12588" lon="6.35738">
        <ele>1076</ele>
        <time>1990-12-06T17:20:18Z</time>
      </trkpt>
      <trkpt lat="44.12512" lon="6.35972">
        <ele>1087</ele>
        <time>1990-12-06T17:23:45Z</time>
      </trkpt>
      <trkpt lat="44.1258" lon="6.36388">
        <ele>1113</ele>
        <time>1990-12-06T17:28:59Z</time>
      </trkpt>
      <trkpt lat="44.12525" lon="6.36485">
        <ele>1115</ele>
        <time>1990-12-06T17:29:41Z</time>
      </trkpt>
      <trkpt lat="44.12592" lon="6.36648">
        <ele>1130</ele>
        <time>1990-12-06T17:31:07Z</time>
      </trkpt>
      <trkpt lat="44.1241" lon="6.36842">
        <ele>1160</ele>
        <time>1990-12-06T17:33:54Z</time>
      </trkpt>
      <trkpt lat="44.12373" lon="6.37182">
        <ele>1194</ele>
        <time>1990-12-06T17:41:07Z</time>
      </trkpt>
      <trkpt lat="44.1198" lon="6.37522">
        <ele>1189</ele>
        <time>1990-12-06T17:48:34Z</time>
      </trkpt>
      <trkpt lat="44.12045" lon="6.37628">
        <ele>1192</ele>
        <time>1990-12-06T17:49:08Z</time>
      </trkpt>
      <trkpt lat="44.12112" lon="6.37903">
        <ele>1214</ele>
        <time>1990-12-06T17:52:14Z</time>
      </trkpt>
      <trkpt lat="44.12045" lon="6.38033">
        <ele>1227</ele>
        <time>1990-12-06T17:53:55Z</time>
      </trkpt>
      <trkpt lat="44.12065" lon="6.38103">
        <ele>1233</ele>
        <time>1990-12-06T17:54:40Z</time>
      </trkpt>
      <trkpt lat="44.11872" lon="6.3851">
        <ele>1271</ele>
        <time>1990-12-06T17:59:56Z</time>
      </trkpt>
      <trkpt lat="44.11868" lon="6.3872">
        <ele>1288</ele>
        <time>1990-12-06T18:06:09Z</time>
      </trkpt>
      <trkpt lat="44.11608" lon="6.38903">
        <ele>1323</ele>
        <time>1990-12-06T18:10:39Z</time>
      </trkpt>
      <trkpt lat="44.11565" lon="6.3889">
        <ele>1327</ele>
        <time>1990-12-06T18:11:25Z</time>
      </trkpt>
      <trkpt lat="44.11465" lon="6.39012">
        <ele>1342</ele>
        <time>1990-12-06T18:14:08Z</time>
      </trkpt>
      <trkpt lat="44.11222" lon="6.38982">
        <ele>1362</ele>
        <time>1990-12-06T18:17:40Z</time>
      </trkpt>
      <trkpt lat="44.11412" lon="6.39093">
        <ele>1370</ele>
        <time>1990-12-06T18:19:05Z</time>
      </trkpt>
      <trkpt lat="44.11313" lon="6.39223">
        <ele>1373</ele>
        <time>1990-12-06T18:19:53Z</time>
      </trkpt>
      <trkpt lat="44.1129" lon="6.39575">
        <ele>1396</ele>
        <time>1990-12-06T18:23:29Z</time>
      </trkpt>
      <trkpt lat="44.11385" lon="6.39628">
        <ele>1408</ele>
        <time>1990-12-06T18:25:12Z</time>
      </trkpt>
      <trkpt lat="44.11302" lon="6.3964">
        <ele>1415</ele>
        <time>1990-12-06T18:26:31Z</time>
      </trkpt>
      <trkpt lat="44.1142" lon="6.3971">
        <ele>1430</ele>
        <time>1990-12-06T18:28:38Z</time>
      </trkpt>
      <trkpt lat="44.11457" lon="6.39635">
        <ele>1435</ele>
        <time>1990-12-06T18:29:36Z</time>
      </trkpt>
      <trkpt lat="44.11462" lon="6.3975">
        <ele>1444</ele>
        <time>1990-12-06T18:30:52Z</time>
      </trkpt>
      <trkpt lat="44.11212" lon="6.39812">
        <ele>1476</ele>
        <time>1990-12-06T18:37:15Z</time>
      </trkpt>
      <trkpt lat="44.11123" lon="6.39787">
        <ele>1488</ele>
        <time>1990-12-06T18:38:40Z</time>
      </trkpt>
      <trkpt lat="44.10978" lon="6.39903">
        <ele>1503</ele>
        <time>1990-12-06T18:53:02Z</time>
      </trkpt>
      <trkpt lat="44.10442" lon="6.39805">
        <ele>1383</ele>
        <time>1990-12-06T19:15:09Z</time>
      </trkpt>
      <trkpt lat="44.10007" lon="6.3961">
        <ele>1288</ele>
        <time>1990-12-06T19:24:29Z</time>
      </trkpt>
      <trkpt lat="44.09912" lon="6.3952">
        <ele>1272</ele>
        <time>1990-12-06T19:25:08Z</time>
      </trkpt>
      <trkpt lat="44.09782" lon="6.39497">
        <ele>1250</ele>
        <time>1990-12-06T19:25:55Z</time>
      </trkpt>
      <trkpt lat="44.09585" lon="6.39365">
        <ele>1225</ele>
        <time>1990-12-06T19:29:10Z</time>
      </trkpt>
      <trkpt lat="44.09563" lon="6.39288">
        <ele>1220</ele>
        <time>1990-12-06T19:29:56Z</time>
      </trkpt>
      <trkpt lat="44.0904" lon="6.39142">
        <ele>1159</ele>
        <time>1990-12-06T19:33:23Z</time>
      </trkpt>
      <trkpt lat="44.0896" lon="6.39002">
        <ele>1148</ele>
        <time>1990-12-06T19:34:05Z</time>
      </trkpt>
      <trkpt lat="44.08923" lon="6.38732">
        <ele>1129</ele>
        <time>1990-12-06T19:35:15Z</time>
      </trkpt>
      <trkpt lat="44.08858" lon="6.387">
        <ele>1120</ele>
        <time>1990-12-06T19:35:38Z</time>
      </trkpt>
      <trkpt lat="44.08807" lon="6.38903">
        <ele>1103</ele>
        <time>1990-12-06T19:36:46Z</time>
      </trkpt>
      <trkpt lat="44.08485" lon="6.38562">
        <ele>1084</ele>
        <time>1990-12-06T19:38:09Z</time>
      </trkpt>
      <trkpt lat="44.08372" lon="6.38543">
        <ele>1082</ele>
        <time>1990-12-06T19:38:35Z</time>
      </trkpt>
      <trkpt lat="44.0829" lon="6.38632">
        <ele>1082</ele>
        <time>1990-12-06T19:39:03Z</time>
      </trkpt>
      <trkpt lat="44.08157" lon="6.38477">
        <ele>1068</ele>
        <time>1990-12-06T19:39:47Z</time>
      </trkpt>
      <trkpt lat="44.08133" lon="6.3851">
        <ele>1062</ele>
        <time>1990-12-06T19:39:57Z</time>
      </trkpt>
      <trkpt lat="44.0806" lon="6.38468">
        <ele>1053</ele>
        <time>1990-12-06T19:40:17Z</time>
      </trkpt>
      <trkpt lat="44.08045" lon="6.38408">
        <ele>1047</ele>
        <time>1990-12-06T19:40:31Z</time>
      </trkpt>
      <trkpt lat="44.08138" lon="6.38342">
        <ele>1036</ele>
        <time>1990-12-06T19:41:05Z</time>
      </trkpt>
      <trkpt lat="44.07998" lon="6.38305">
        <ele>1026</ele>
        <time>1990-12-06T19:41:43Z</time>
      </trkpt>
      <trkpt lat="44.07917" lon="6.38392">
        <ele>1017</ele>
        <time>1990-12-06T19:42:06Z</time>
      </trkpt>
      <trkpt lat="44.07825" lon="6.38315">
        <ele>1011</ele>
        <time>1990-12-06T19:42:57Z</time>
      </trkpt>
      <trkpt lat="44.07608" lon="6.38283">
        <ele>999</ele>
        <time>1990-12-06T19:44:10Z</time>
      </trkpt>
      <trkpt lat="44.07105" lon="6.38575">
        <ele>986</ele>
        <time>1990-12-06T19:45:41Z</time>
      </trkpt>
      <trkpt lat="44.07038" lon="6.38693">
        <ele>976</ele>
        <time>1990-12-06T19:45:58Z</time>
      </trkpt>
      <trkpt lat="44.06915" lon="6.38762">
        <ele>968</ele>
        <time>1990-12-06T19:47:47Z</time>
      </trkpt>
      <trkpt lat="44.06783" lon="6.38708">
        <ele>965</ele>
        <time>1990-12-06T19:48:15Z</time>
      </trkpt>
      <trkpt lat="44.06685" lon="6.38872">
        <ele>960</ele>
        <time>1990-12-06T19:48:51Z</time>
      </trkpt>
      <trkpt lat="44.06705" lon="6.38937">
        <ele>956</ele>
        <time>1990-12-07T07:53:26Z</time>
      </trkpt>
      <trkpt lat="44.0668" lon="6.38948">
        <ele>952</ele>
        <time>1990-12-07T07:53:35Z</time>
      </trkpt>
      <trkpt lat="44.06717" lon="6.38965">
        <ele>950</ele>
        <time>1990-12-07T07:53:49Z</time>
      </trkpt>
      <trkpt lat="44.06613" lon="6.39093">
        <ele>946</ele>
        <time>1990-12-07T07:54:13Z</time>
      </trkpt>
      <trkpt lat="44.06483" lon="6.39512">
        <ele>945</ele>
        <time>1990-12-07T07:55:26Z</time>
      </trkpt>
      <trkpt lat="44.06377" lon="6.39528">
        <ele>944</ele>
        <time>1990-12-07T07:55:52Z</time>
      </trkpt>
      <trkpt lat="44.06252" lon="6.40212">
        <ele>964</ele>
        <time>1990-12-07T07:58:43Z</time>
      </trkpt>
      <trkpt lat="44.06337" lon="6.40662">
        <ele>980</ele>
        <time>1990-12-07T08:00:29Z</time>
      </trkpt>
      <trkpt lat="44.06285" lon="6.4077">
        <ele>985</ele>
        <time>1990-12-07T08:01:10Z</time>
      </trkpt>
      <trkpt lat="44.06292" lon="6.40855">
        <ele>991</ele>
        <time>1990-12-07T08:01:37Z</time>
      </trkpt>
      <trkpt lat="44.06423" lon="6.40875">
        <ele>989</ele>
        <time>1990-12-07T08:02:41Z</time>
      </trkpt>
      <trkpt lat="44.0685" lon="6.41228">
        <ele>1028</ele>
        <time>1990-12-07T08:06:15Z</time>
      </trkpt>
      <trkpt lat="44.07037" lon="6.41267">
        <ele>1047</ele>
        <time>1990-12-07T08:07:46Z</time>
      </trkpt>
      <trkpt lat="44.0701" lon="6.41162">
        <ele>1055</ele>
        <time>1990-12-07T08:08:24Z</time>
      </trkpt>
      <trkpt lat="44.07082" lon="6.4118">
        <ele>1057</ele>
        <time>1990-12-07T08:09:09Z</time>
      </trkpt>
      <trkpt lat="44.07078" lon="6.41342">
        <ele>1059</ele>
        <time>1990-12-07T08:09:58Z</time>
      </trkpt>
      <trkpt lat="44.06957" lon="6.41533">
        <ele>1056</ele>
        <time>1990-12-07T08:10:47Z</time>
      </trkpt>
      <trkpt lat="44.06703" lon="6.415">
        <ele>1075</ele>
        <time>1990-12-07T08:12:41Z</time>
      </trkpt>
      <trkpt lat="44.06688" lon="6.41568">
        <ele>1080</ele>
        <time>1990-12-07T08:13:06Z</time>
      </trkpt>
      <trkpt lat="44.06558" lon="6.4162">
        <ele>1091</ele>
        <time>1990-12-07T08:14:02Z</time>
      </trkpt>
      <trkpt lat="44.06397" lon="6.4204">
        <ele>1118</ele>
        <time>1990-12-07T08:16:06Z</time>
      </trkpt>
      <trkpt lat="44.06608" lon="6.41857">
        <ele>1130</ele>
        <time>1990-12-07T08:17:22Z</time>
      </trkpt>
      <trkpt lat="44.0677" lon="6.41845">
        <ele>1142</ele>
        <time>1990-12-07T08:18:18Z</time>
      </trkpt>
      <trkpt lat="44.0663" lon="6.42088">
        <ele>1159</ele>
        <time>1990-12-07T08:19:44Z</time>
      </trkpt>
      <trkpt lat="44.06548" lon="6.42143">
        <ele>1166</ele>
        <time>1990-12-07T08:20:14Z</time>
      </trkpt>
      <trkpt lat="44.06468" lon="6.4232">
        <ele>1178</ele>
        <time>1990-12-07T08:21:09Z</time>
      </trkpt>
      <trkpt lat="44.06398" lon="6.42353">
        <ele>1184</ele>
        <time>1990-12-07T08:21:34Z</time>
      </trkpt>
      <trkpt lat="44.063" lon="6.42505">
        <ele>1196</ele>
        <time>1990-12-07T08:22:26Z</time>
      </trkpt>
      <trkpt lat="44.06015" lon="6.42655">
        <ele>1220</ele>
        <time>1990-12-07T08:24:11Z</time>
      </trkpt>
      <trkpt lat="44.0561" lon="6.42678">
        <ele>1250</ele>
        <time>1990-12-07T08:26:23Z</time>
      </trkpt>
      <trkpt lat="44.0556" lon="6.42608">
        <ele>1256</ele>
        <time>1990-12-07T08:26:45Z</time>
      </trkpt>
      <trkpt lat="44.05433" lon="6.42693">
        <ele>1266</ele>
        <time>1990-12-07T08:27:37Z</time>
      </trkpt>
      <trkpt lat="44.06003" lon="6.42835">
        <ele>1280</ele>
        <time>1990-12-07T08:36:24Z</time>
      </trkpt>
      <trkpt lat="44.06378" lon="6.42845">
        <ele>1308</ele>
        <time>1990-12-07T08:39:34Z</time>
      </trkpt>
      <trkpt lat="44.06418" lon="6.42935">
        <ele>1326</ele>
        <time>1990-12-07T08:41:17Z</time>
      </trkpt>
      <trkpt lat="44.06735" lon="6.43035">
        <ele>1343</ele>
        <time>1990-12-07T08:47:47Z</time>
      </trkpt>
      <trkpt lat="44.06752" lon="6.43142">
        <ele>1353</ele>
        <time>1990-12-07T08:48:50Z</time>
      </trkpt>
      <trkpt lat="44.06853" lon="6.43153">
        <ele>1342</ele>
        <time>1990-12-07T08:49:50Z</time>
      </trkpt>
      <trkpt lat="44.06908" lon="6.4323">
        <ele>1336</ele>
        <time>1990-12-07T08:50:33Z</time>
      </trkpt>
      <trkpt lat="44.07123" lon="6.43207">
        <ele>1302</ele>
        <time>1990-12-07T08:51:57Z</time>
      </trkpt>
      <trkpt lat="44.07238" lon="6.43275">
        <ele>1275</ele>
        <time>1990-12-07T08:52:54Z</time>
      </trkpt>
      <trkpt lat="44.07415" lon="6.43202">
        <ele>1262</ele>
        <time>1990-12-07T08:54:22Z</time>
      </trkpt>
      <trkpt lat="44.07252" lon="6.43672">
        <ele>1223</ele>
        <time>1990-12-07T08:56:32Z</time>
      </trkpt>
      <trkpt lat="44.07198" lon="6.4372">
        <ele>1219</ele>
        <time>1990-12-07T08:56:48Z</time>
      </trkpt>
      <trkpt lat="44.07487" lon="6.43835">
        <ele>1271</ele>
        <time>1990-12-07T09:00:23Z</time>
      </trkpt>
      <trkpt lat="44.07808" lon="6.44133">
        <ele>1355</ele>
        <time>1990-12-07T09:07:01Z</time>
      </trkpt>
      <trkpt lat="44.07807" lon="6.44395">
        <ele>1382</ele>
        <time>1990-12-07T09:22:40Z</time>
      </trkpt>
      <trkpt lat="44.07865" lon="6.44467">
        <ele>1360</ele>
        <time>1990-12-07T09:23:38Z</time>
      </trkpt>
      <trkpt lat="44.0787" lon="6.44548">
        <ele>1347</ele>
        <time>1990-12-07T09:23:54Z</time>
      </trkpt>
      <trkpt lat="44.07965" lon="6.4462">
        <ele>1317</ele>
        <time>1990-12-07T09:24:35Z</time>
      </trkpt>
      <trkpt lat="44.08027" lon="6.44842">
        <ele>1283</ele>
        <time>1990-12-07T09:25:43Z</time>
      </trkpt>
      <trkpt lat="44.07872" lon="6.45462">
        <ele>1293</ele>
        <time>1990-12-07T09:28:38Z</time>
      </trkpt>
      <trkpt lat="44.07753" lon="6.4565">
        <ele>1292</ele>
        <time>1990-12-07T09:29:23Z</time>
      </trkpt>
      <trkpt lat="44.0758" lon="6.45735">
        <ele>1294</ele>
        <time>1990-12-07T09:30:20Z</time>
      </trkpt>
      <trkpt lat="44.07557" lon="6.45923">
        <ele>1298</ele>
        <time>1990-12-07T09:31:06Z</time>
      </trkpt>
      <trkpt lat="44.07417" lon="6.46183">
        <ele>1306</ele>
        <time>1990-12-07T09:32:19Z</time>
      </trkpt>
      <trkpt lat="44.07352" lon="6.46193">
        <ele>1310</ele>
        <time>1990-12-07T09:32:40Z</time>
      </trkpt>
      <trkpt lat="44.07073" lon="6.46525">
        <ele>1300</ele>
        <time>1990-12-07T09:34:14Z</time>
      </trkpt>
      <trkpt lat="44.07007" lon="6.46488">
        <ele>1303</ele>
        <time>1990-12-07T09:34:27Z</time>
      </trkpt>
      <trkpt lat="44.06982" lon="6.46353">
        <ele>1308</ele>
        <time>1990-12-07T09:35:06Z</time>
      </trkpt>
      <trkpt lat="44.06928" lon="6.46405">
        <ele>1311</ele>
        <time>1990-12-07T09:35:28Z</time>
      </trkpt>
      <trkpt lat="44.06767" lon="6.46417">
        <ele>1290</ele>
        <time>1990-12-07T09:37:30Z</time>
      </trkpt>
      <trkpt lat="44.0686" lon="6.46537">
        <ele>1272</ele>
        <time>1990-12-07T09:41:50Z</time>
      </trkpt>
      <trkpt lat="44.06912" lon="6.46495">
        <ele>1266</ele>
        <time>1990-12-07T09:43:11Z</time>
      </trkpt>
      <trkpt lat="44.07002" lon="6.46927">
        <ele>1211</ele>
        <time>1990-12-07T09:44:54Z</time>
      </trkpt>
      <trkpt lat="44.07107" lon="6.47027">
        <ele>1185</ele>
        <time>1990-12-07T09:45:34Z</time>
      </trkpt>
      <trkpt lat="44.07098" lon="6.47233">
        <ele>1147</ele>
        <time>1990-12-07T09:48:04Z</time>
      </trkpt>
      <trkpt lat="44.07167" lon="6.4736">
        <ele>1116</ele>
        <time>1990-12-07T09:50:02Z</time>
      </trkpt>
      <trkpt lat="44.07147" lon="6.47558">
        <ele>1099</ele>
        <time>1990-12-07T09:51:54Z</time>
      </trkpt>
      <trkpt lat="44.07232" lon="6.47615">
        <ele>1082</ele>
        <time>1990-12-07T09:54:12Z</time>
      </trkpt>
      <trkpt lat="44.0733" lon="6.47793">
        <ele>1078</ele>
        <time>1990-12-07T09:54:44Z</time>
      </trkpt>
      <trkpt lat="44.07518" lon="6.47952">
        <ele>1086</ele>
        <time>1990-12-07T09:55:51Z</time>
      </trkpt>
      <trkpt lat="44.07492" lon="6.48073">
        <ele>1078</ele>
        <time>1990-12-07T09:56:11Z</time>
      </trkpt>
      <trkpt lat="44.07523" lon="6.481">
        <ele>1080</ele>
        <time>1990-12-07T09:56:21Z</time>
      </trkpt>
      <trkpt lat="44.07522" lon="6.48257">
        <ele>1081</ele>
        <time>1990-12-07T09:56:48Z</time>
      </trkpt>
      <trkpt lat="44.07733" lon="6.48492">
        <ele>1085</ele>
        <time>1990-12-07T09:57:57Z</time>
      </trkpt>
      <trkpt lat="44.07895" lon="6.4834">
        <ele>1090</ele>
        <time>1990-12-07T09:58:44Z</time>
      </trkpt>
      <trkpt lat="44.08148" lon="6.48207">
        <ele>1094</ele>
        <time>1990-12-07T09:59:50Z</time>
      </trkpt>
      <trkpt lat="44.08383" lon="6.4794">
        <ele>1106</ele>
        <time>1990-12-07T10:01:14Z</time>
      </trkpt>
      <trkpt lat="44.08622" lon="6.4795">
        <ele>1105</ele>
        <time>1990-12-07T10:02:16Z</time>
      </trkpt>
      <trkpt lat="44.08648" lon="6.48005">
        <ele>1104</ele>
        <time>1990-12-07T10:02:33Z</time>
      </trkpt>
      <trkpt lat="44.0887" lon="6.48077">
        <ele>1113</ele>
        <time>1990-12-07T10:13:22Z</time>
      </trkpt>
      <trkpt lat="44.0923" lon="6.48307">
        <ele>1119</ele>
        <time>1990-12-07T10:15:55Z</time>
      </trkpt>
      <trkpt lat="44.09343" lon="6.48437">
        <ele>1122</ele>
        <time>1990-12-07T10:17:50Z</time>
      </trkpt>
      <trkpt lat="44.09455" lon="6.48763">
        <ele>1126</ele>
        <time>1990-12-07T10:20:50Z</time>
      </trkpt>
      <trkpt lat="44.09468" lon="6.49277">
        <ele>1142</ele>
        <time>1990-12-07T10:24:57Z</time>
      </trkpt>
      <trkpt lat="44.09523" lon="6.49325">
        <ele>1155</ele>
        <time>1990-12-07T10:25:50Z</time>
      </trkpt>
      <trkpt lat="44.0951" lon="6.49757">
        <ele>1168</ele>
        <time>1990-12-07T10:30:49Z</time>
      </trkpt>
      <trkpt lat="44.09552" lon="6.49992">
        <ele>1152</ele>
        <time>1990-12-07T10:32:53Z</time>
      </trkpt>
      <trkpt lat="44.09445" lon="6.50042">
        <ele>1147</ele>
        <time>1990-12-07T10:33:42Z</time>
      </trkpt>
      <trkpt lat="44.09158" lon="6.49937">
        <ele>1141</ele>
        <time>1990-12-07T10:34:48Z</time>
      </trkpt>
      <trkpt lat="44.0907" lon="6.49973">
        <ele>1130</ele>
        <time>1990-12-07T10:35:13Z</time>
      </trkpt>
      <trkpt lat="44.09083" lon="6.5021">
        <ele>1130</ele>
        <time>1990-12-07T10:35:49Z</time>
      </trkpt>
      <trkpt lat="44.09003" lon="6.50288">
        <ele>1127</ele>
        <time>1990-12-07T10:36:07Z</time>
      </trkpt>
      <trkpt lat="44.08703" lon="6.50338">
        <ele>1112</ele>
        <time>1990-12-07T10:36:53Z</time>
      </trkpt>
      <trkpt lat="44.08617" lon="6.50308">
        <ele>1112</ele>
        <time>1990-12-07T10:37:09Z</time>
      </trkpt>
      <trkpt lat="44.08477" lon="6.50482">
        <ele>1121</ele>
        <time>1990-12-07T10:38:15Z</time>
      </trkpt>
      <trkpt lat="44.08483" lon="6.50648">
        <ele>1125</ele>
        <time>1990-12-07T10:39:11Z</time>
      </trkpt>
      <trkpt lat="44.08562" lon="6.50615">
        <ele>1116</ele>
        <time>1990-12-07T10:39:37Z</time>
      </trkpt>
      <trkpt lat="44.0876" lon="6.50897">
        <ele>1122</ele>
        <time>1990-12-07T10:42:39Z</time>
      </trkpt>
      <trkpt lat="44.08787" lon="6.51032">
        <ele>1126</ele>
        <time>1990-12-07T10:43:18Z</time>
      </trkpt>
      <trkpt lat="44.08602" lon="6.51208">
        <ele>1147</ele>
        <time>1990-12-07T10:44:58Z</time>
      </trkpt>
      <trkpt lat="44.08273" lon="6.51312">
        <ele>1187</ele>
        <time>1990-12-07T10:47:29Z</time>
      </trkpt>
      <trkpt lat="44.0806" lon="6.51222">
        <ele>1219</ele>
        <time>1990-12-07T10:49:32Z</time>
      </trkpt>
      <trkpt lat="44.081" lon="6.51025">
        <ele>1231</ele>
        <time>1990-12-07T10:50:37Z</time>
      </trkpt>
      <trkpt lat="44.08077" lon="6.50883">
        <ele>1240</ele>
        <time>1990-12-07T10:51:24Z</time>
      </trkpt>
      <trkpt lat="44.0787" lon="6.50848">
        <ele>1262</ele>
        <time>1990-12-07T10:52:50Z</time>
      </trkpt>
      <trkpt lat="44.07812" lon="6.51027">
        <ele>1279</ele>
        <time>1990-12-07T10:53:57Z</time>
      </trkpt>
      <trkpt lat="44.0776" lon="6.51043">
        <ele>1284</ele>
        <time>1990-12-07T10:54:20Z</time>
      </trkpt>
      <trkpt lat="44.07698" lon="6.50958">
        <ele>1295</ele>
        <time>1990-12-07T10:55:06Z</time>
      </trkpt>
      <trkpt lat="44.07685" lon="6.51212">
        <ele>1312</ele>
        <time>1990-12-07T10:56:31Z</time>
      </trkpt>
      <trkpt lat="44.07592" lon="6.51228">
        <ele>1321</ele>
        <time>1990-12-07T10:57:09Z</time>
      </trkpt>
      <trkpt lat="44.07533" lon="6.51037">
        <ele>1336</ele>
        <time>1990-12-07T10:58:19Z</time>
      </trkpt>
      <trkpt lat="44.07377" lon="6.50962">
        <ele>1353</ele>
        <time>1990-12-07T10:59:38Z</time>
      </trkpt>
      <trkpt lat="44.07153" lon="6.50312">
        <ele>1406</ele>
        <time>1990-12-07T11:03:35Z</time>
      </trkpt>
      <trkpt lat="44.07085" lon="6.49852">
        <ele>1443</ele>
        <time>1990-12-07T11:08:01Z</time>
      </trkpt>
      <trkpt lat="44.07038" lon="6.49755">
        <ele>1452</ele>
        <time>1990-12-07T11:08:46Z</time>
      </trkpt>
      <trkpt lat="44.06727" lon="6.49478">
        <ele>1485</ele>
        <time>1990-12-07T11:11:34Z</time>
      </trkpt>
      <trkpt lat="44.06508" lon="6.49407">
        <ele>1495</ele>
        <time>1990-12-07T11:13:12Z</time>
      </trkpt>
      <trkpt lat="44.06498" lon="6.4956">
        <ele>1497</ele>
        <time>1990-12-07T11:30:47Z</time>
      </trkpt>
      <trkpt lat="44.0639" lon="6.49638">
        <ele>1490</ele>
        <time>1990-12-07T11:31:18Z</time>
      </trkpt>
      <trkpt lat="44.063" lon="6.4983">
        <ele>1491</ele>
        <time>1990-12-07T11:31:59Z</time>
      </trkpt>
      <trkpt lat="44.06278" lon="6.49982">
        <ele>1495</ele>
        <time>1990-12-07T11:32:32Z</time>
      </trkpt>
      <trkpt lat="44.06197" lon="6.5002">
        <ele>1485</ele>
        <time>1990-12-07T11:33:19Z</time>
      </trkpt>
      <trkpt lat="44.05887" lon="6.50597">
        <ele>1480</ele>
        <time>1990-12-07T11:36:35Z</time>
      </trkpt>
      <trkpt lat="44.0581" lon="6.50922">
        <ele>1457</ele>
        <time>1990-12-07T11:37:31Z</time>
      </trkpt>
      <trkpt lat="44.06058" lon="6.5118">
        <ele>1437</ele>
        <time>1990-12-07T11:38:34Z</time>
      </trkpt>
      <trkpt lat="44.05897" lon="6.51173">
        <ele>1452</ele>
        <time>1990-12-07T11:39:49Z</time>
      </trkpt>
      <trkpt lat="44.0579" lon="6.51455">
        <ele>1474</ele>
        <time>1990-12-07T11:41:38Z</time>
      </trkpt>
      <trkpt lat="44.05565" lon="6.51227">
        <ele>1488</ele>
        <time>1990-12-07T11:43:27Z</time>
      </trkpt>
      <trkpt lat="44.05307" lon="6.51145">
        <ele>1495</ele>
        <time>1990-12-07T11:44:47Z</time>
      </trkpt>
      <trkpt lat="44.05042" lon="6.5119">
        <ele>1494</ele>
        <time>1990-12-07T11:46:22Z</time>
      </trkpt>
      <trkpt lat="44.04582" lon="6.51167">
        <ele>1505</ele>
        <time>1990-12-07T11:48:06Z</time>
      </trkpt>
      <trkpt lat="44.04423" lon="6.5128">
        <ele>1508</ele>
        <time>1990-12-07T11:48:53Z</time>
      </trkpt>
      <trkpt lat="44.0436" lon="6.51388">
        <ele>1499</ele>
        <time>1990-12-07T11:49:14Z</time>
      </trkpt>
      <trkpt lat="44.04172" lon="6.51438">
        <ele>1509</ele>
        <time>1990-12-07T11:50:16Z</time>
      </trkpt>
      <trkpt lat="44.0406" lon="6.51367">
        <ele>1520</ele>
        <time>1990-12-07T11:51:11Z</time>
      </trkpt>
      <trkpt lat="44.0384" lon="6.51353">
        <ele>1557</ele>
        <time>1990-12-07T11:54:19Z</time>
      </trkpt>
      <trkpt lat="44.03683" lon="6.51542">
        <ele>1565</ele>
        <time>1990-12-07T11:57:07Z</time>
      </trkpt>
      <trkpt lat="44.0352" lon="6.51367">
        <ele>1568</ele>
        <time>1990-12-07T12:13:53Z</time>
      </trkpt>
      <trkpt lat="44.03445" lon="6.51355">
        <ele>1567</ele>
        <time>1990-12-07T12:14:19Z</time>
      </trkpt>
      <trkpt lat="44.03442" lon="6.51192">
        <ele>1565</ele>
        <time>1990-12-07T12:15:06Z</time>
      </trkpt>
      <trkpt lat="44.03335" lon="6.511">
        <ele>1564</ele>
        <time>1990-12-07T12:15:58Z</time>
      </trkpt>
      <trkpt lat="44.03153" lon="6.51332">
        <ele>1558</ele>
        <time>1990-12-07T12:17:22Z</time>
      </trkpt>
      <trkpt lat="44.03143" lon="6.51462">
        <ele>1554</ele>
        <time>1990-12-07T12:17:46Z</time>
      </trkpt>
      <trkpt lat="44.0298" lon="6.51228">
        <ele>1533</ele>
        <time>1990-12-07T12:18:44Z</time>
      </trkpt>
      <trkpt lat="44.0292" lon="6.5121">
        <ele>1528</ele>
        <time>1990-12-07T12:18:58Z</time>
      </trkpt>
      <trkpt lat="44.02827" lon="6.5138">
        <ele>1514</ele>
        <time>1990-12-07T12:19:38Z</time>
      </trkpt>
      <trkpt lat="44.02567" lon="6.51388">
        <ele>1528</ele>
        <time>1990-12-07T12:22:35Z</time>
      </trkpt>
      <trkpt lat="44.02227" lon="6.51627">
        <ele>1546</ele>
        <time>1990-12-07T12:26:58Z</time>
      </trkpt>
      <trkpt lat="44.01947" lon="6.5165">
        <ele>1545</ele>
        <time>1990-12-07T12:28:42Z</time>
      </trkpt>
      <trkpt lat="44.0178" lon="6.51583">
        <ele>1552</ele>
        <time>1990-12-07T12:29:38Z</time>
      </trkpt>
      <trkpt lat="44.01627" lon="6.51693">
        <ele>1569</ele>
        <time>1990-12-07T12:30:52Z</time>
      </trkpt>
      <trkpt lat="44.0159" lon="6.52232">
        <ele>1605</ele>
        <time>1990-12-07T12:33:37Z</time>
      </trkpt>
      <trkpt lat="44.015" lon="6.52262">
        <ele>1614</ele>
        <time>1990-12-07T12:34:17Z</time>
      </trkpt>
      <trkpt lat="44.01447" lon="6.52367">
        <ele>1624</ele>
        <time>1990-12-07T12:35:00Z</time>
      </trkpt>
      <trkpt lat="44.0132" lon="6.52327">
        <ele>1637</ele>
        <time>1990-12-07T12:36:10Z</time>
      </trkpt>
      <trkpt lat="44.01165" lon="6.52405">
        <ele>1654</ele>
        <time>1990-12-07T12:37:36Z</time>
      </trkpt>
      <trkpt lat="44.00782" lon="6.52223">
        <ele>1670</ele>
        <time>1990-12-07T12:40:00Z</time>
      </trkpt>
      <trkpt lat="44.01265" lon="6.52703">
        <ele>1732</ele>
        <time>1990-12-07T12:45:03Z</time>
      </trkpt>
      <trkpt lat="44.01023" lon="6.52832">
        <ele>1753</ele>
        <time>1990-12-07T12:47:09Z</time>
      </trkpt>
      <trkpt lat="44.01175" lon="6.52918">
        <ele>1768</ele>
        <time>1990-12-07T12:58:38Z</time>
      </trkpt>
      <trkpt lat="44.00997" lon="6.52785">
        <ele>1756</ele>
        <time>1990-12-07T12:59:33Z</time>
      </trkpt>
      <trkpt lat="44.00872" lon="6.5257">
        <ele>1746</ele>
        <time>1990-12-07T13:26:38Z</time>
      </trkpt>
      <trkpt lat="44.00532" lon="6.52337">
        <ele>1669</ele>
        <time>1990-12-07T13:30:10Z</time>
      </trkpt>
      <trkpt lat="44.00428" lon="6.52318">
        <ele>1661</ele>
        <time>1990-12-07T13:30:43Z</time>
      </trkpt>
      <trkpt lat="44.00413" lon="6.52265">
        <ele>1657</ele>
        <time>1990-12-07T13:30:56Z</time>
      </trkpt>
      <trkpt lat="43.99967" lon="6.52095">
        <ele>1554</ele>
        <time>1990-12-07T13:37:47Z</time>
      </trkpt>
      <trkpt lat="44.00068" lon="6.52003">
        <ele>1534</ele>
        <time>1990-12-07T13:38:31Z</time>
      </trkpt>
      <trkpt lat="43.99912" lon="6.51965">
        <ele>1519</ele>
        <time>1990-12-07T13:39:09Z</time>
      </trkpt>
      <trkpt lat="44.00002" lon="6.51933">
        <ele>1511</ele>
        <time>1990-12-07T13:39:42Z</time>
      </trkpt>
      <trkpt lat="43.99822" lon="6.51945">
        <ele>1481</ele>
        <time>1990-12-07T13:40:44Z</time>
      </trkpt>
      <trkpt lat="43.99783" lon="6.52048">
        <ele>1470</ele>
        <time>1990-12-07T13:42:12Z</time>
      </trkpt>
      <trkpt lat="43.99502" lon="6.51973">
        <ele>1410</ele>
        <time>1990-12-07T13:45:15Z</time>
      </trkpt>
      <trkpt lat="43.99343" lon="6.51823">
        <ele>1383</ele>
        <time>1990-12-07T13:46:02Z</time>
      </trkpt>
      <trkpt lat="43.99322" lon="6.51875">
        <ele>1359</ele>
        <time>1990-12-07T13:46:54Z</time>
      </trkpt>
      <trkpt lat="43.9925" lon="6.51868">
        <ele>1337</ele>
        <time>1990-12-07T13:48:48Z</time>
      </trkpt>
      <trkpt lat="43.9909" lon="6.51715">
        <ele>1305</ele>
        <time>1990-12-07T13:49:33Z</time>
      </trkpt>
      <trkpt lat="43.99085" lon="6.5178">
        <ele>1289</ele>
        <time>1990-12-07T13:50:02Z</time>
      </trkpt>
      <trkpt lat="43.98775" lon="6.5166">
        <ele>1236</ele>
        <time>1990-12-07T13:51:19Z</time>
      </trkpt>
      <trkpt lat="43.98448" lon="6.5144">
        <ele>1161</ele>
        <time>1990-12-07T13:54:58Z</time>
      </trkpt>
      <trkpt lat="43.98542" lon="6.5142">
        <ele>1149</ele>
        <time>1990-12-07T13:55:16Z</time>
      </trkpt>
      <trkpt lat="43.98572" lon="6.51248">
        <ele>1150</ele>
        <time>1990-12-07T13:55:54Z</time>
      </trkpt>
      <trkpt lat="43.98748" lon="6.51042">
        <ele>1119</ele>
        <time>1990-12-07T13:56:48Z</time>
      </trkpt>
      <trkpt lat="43.99162" lon="6.50908">
        <ele>1120</ele>
        <time>1990-12-07T13:59:27Z</time>
      </trkpt>
      <trkpt lat="43.99285" lon="6.50932">
        <ele>1127</ele>
        <time>1990-12-07T14:07:07Z</time>
      </trkpt>
      <trkpt lat="43.99672" lon="6.50627">
        <ele>1084</ele>
        <time>1990-12-07T14:19:56Z</time>
      </trkpt>
      <trkpt lat="43.99807" lon="6.50362">
        <ele>1036</ele>
        <time>1990-12-07T14:21:03Z</time>
      </trkpt>
      <trkpt lat="43.9962" lon="6.50438">
        <ele>1014</ele>
        <time>1990-12-07T14:22:16Z</time>
      </trkpt>
      <trkpt lat="43.99665" lon="6.50383">
        <ele>1003</ele>
        <time>1990-12-07T14:22:47Z</time>
      </trkpt>
      <trkpt lat="43.99432" lon="6.50525">
        <ele>974</ele>
        <time>1990-12-07T14:24:06Z</time>
      </trkpt>
      <trkpt lat="43.9957" lon="6.50317">
        <ele>952</ele>
        <time>1990-12-07T14:25:07Z</time>
      </trkpt>
      <trkpt lat="43.99552" lon="6.50272">
        <ele>951</ele>
        <time>1990-12-07T14:27:17Z</time>
      </trkpt>
      <trkpt lat="43.99265" lon="6.50297">
        <ele>952</ele>
        <time>1990-12-07T14:28:33Z</time>
      </trkpt>
      <trkpt lat="43.99017" lon="6.50408">
        <ele>949</ele>
        <time>1990-12-07T14:29:24Z</time>
      </trkpt>
      <trkpt lat="43.98933" lon="6.5052">
        <ele>947</ele>
        <time>1990-12-07T14:29:42Z</time>
      </trkpt>
      <trkpt lat="43.98715" lon="6.50468">
        <ele>941</ele>
        <time>1990-12-07T14:30:10Z</time>
      </trkpt>
      <trkpt lat="43.98175" lon="6.50748">
        <ele>932</ele>
        <time>1990-12-07T14:31:20Z</time>
      </trkpt>
      <trkpt lat="43.97558" lon="6.50917">
        <ele>926</ele>
        <time>1990-12-07T14:32:45Z</time>
      </trkpt>
      <trkpt lat="43.97367" lon="6.5086">
        <ele>925</ele>
        <time>1990-12-07T14:33:14Z</time>
      </trkpt>
      <trkpt lat="43.97313" lon="6.5095">
        <ele>923</ele>
        <time>1990-12-07T14:33:26Z</time>
      </trkpt>
      <trkpt lat="43.9729" lon="6.50928">
        <ele>921</ele>
        <time>1990-12-07T14:33:30Z</time>
      </trkpt>
      <trkpt lat="43.97138" lon="6.51058">
        <ele>915</ele>
        <time>1990-12-07T14:33:55Z</time>
      </trkpt>
      <trkpt lat="43.97017" lon="6.5109">
        <ele>911</ele>
        <time>1990-12-07T14:34:18Z</time>
      </trkpt>
      <trkpt lat="43.96913" lon="6.51055">
        <ele>911</ele>
        <time>1990-12-07T14:34:36Z</time>
      </trkpt>
      <trkpt lat="43.9647" lon="6.50695">
        <ele>905</ele>
        <time>1990-12-07T14:40:00Z</time>
      </trkpt>
      <trkpt lat="43.96452" lon="6.50552">
        <ele>911</ele>
        <time>1990-12-07T14:40:31Z</time>
      </trkpt>
      <trkpt lat="43.96275" lon="6.50428">
        <ele>910</ele>
        <time>1990-12-07T14:41:21Z</time>
      </trkpt>
      <trkpt lat="43.96203" lon="6.50232">
        <ele>919</ele>
        <time>1990-12-07T14:42:09Z</time>
      </trkpt>
      <trkpt lat="43.96013" lon="6.50175">
        <ele>917</ele>
        <time>1990-12-07T14:43:00Z</time>
      </trkpt>
      <trkpt lat="43.95985" lon="6.50113">
        <ele>923</ele>
        <time>1990-12-07T14:43:21Z</time>
      </trkpt>
      <trkpt lat="43.95885" lon="6.50138">
        <ele>933</ele>
        <time>1990-12-07T14:44:17Z</time>
      </trkpt>
      <trkpt lat="43.95838" lon="6.50208">
        <ele>936</ele>
        <time>1990-12-07T14:44:41Z</time>
      </trkpt>
      <trkpt lat="43.95767" lon="6.50112">
        <ele>946</ele>
        <time>1990-12-07T14:45:24Z</time>
      </trkpt>
      <trkpt lat="43.95925" lon="6.49762">
        <ele>977</ele>
        <time>1990-12-07T14:47:50Z</time>
      </trkpt>
      <trkpt lat="43.95745" lon="6.49892">
        <ele>973</ele>
        <time>1990-12-07T14:49:09Z</time>
      </trkpt>
      <trkpt lat="43.95588" lon="6.50092">
        <ele>975</ele>
        <time>1990-12-07T14:50:04Z</time>
      </trkpt>
      <trkpt lat="43.95575" lon="6.50173">
        <ele>973</ele>
        <time>1990-12-07T14:50:19Z</time>
      </trkpt>
      <trkpt lat="43.95525" lon="6.50212">
        <ele>973</ele>
        <time>1990-12-07T14:51:19Z</time>
      </trkpt>
      <trkpt lat="43.95592" lon="6.50368">
        <ele>964</ele>
        <time>1990-12-07T14:51:50Z</time>
      </trkpt>
      <trkpt lat="43.95552" lon="6.50552">
        <ele>951</ele>
        <time>1990-12-07T14:52:51Z</time>
      </trkpt>
      <trkpt lat="43.9557" lon="6.50625">
        <ele>947</ele>
        <time>1990-12-07T14:53:02Z</time>
      </trkpt>
      <trkpt lat="43.95433" lon="6.50778">
        <ele>948</ele>
        <time>1990-12-07T14:54:39Z</time>
      </trkpt>
      <trkpt lat="43.95375" lon="6.50765">
        <ele>938</ele>
        <time>1990-12-07T14:55:49Z</time>
      </trkpt>
      <trkpt lat="43.95302" lon="6.50862">
        <ele>946</ele>
        <time>1990-12-07T15:01:36Z</time>
      </trkpt>
      <trkpt lat="43.9531" lon="6.50795">
        <ele>951</ele>
        <time>1990-12-07T15:02:14Z</time>
      </trkpt>
      <trkpt lat="43.95237" lon="6.5083">
        <ele>960</ele>
        <time>1990-12-07T15:03:31Z</time>
      </trkpt>
      <trkpt lat="43.95248" lon="6.50688">
        <ele>967</ele>
        <time>1990-12-07T15:04:36Z</time>
      </trkpt>
      <trkpt lat="43.95147" lon="6.5083">
        <ele>979</ele>
        <time>1990-12-07T15:06:00Z</time>
      </trkpt>
      <trkpt lat="43.94995" lon="6.50757">
        <ele>992</ele>
        <time>1990-12-07T15:07:43Z</time>
      </trkpt>
      <trkpt lat="43.95173" lon="6.5064">
        <ele>1005</ele>
        <time>1990-12-07T15:09:34Z</time>
      </trkpt>
      <trkpt lat="43.94892" lon="6.50745">
        <ele>1026</ele>
        <time>1990-12-07T15:12:22Z</time>
      </trkpt>
      <trkpt lat="43.94965" lon="6.50655">
        <ele>1035</ele>
        <time>1990-12-07T15:13:27Z</time>
      </trkpt>
      <trkpt lat="43.94745" lon="6.5076">
        <ele>1055</ele>
        <time>1990-12-07T15:15:49Z</time>
      </trkpt>
      <trkpt lat="43.94527" lon="6.50662">
        <ele>1059</ele>
        <time>1990-12-07T15:17:17Z</time>
      </trkpt>
      <trkpt lat="43.94367" lon="6.50513">
        <ele>1071</ele>
        <time>1990-12-07T15:18:45Z</time>
      </trkpt>
      <trkpt lat="43.9394" lon="6.5032">
        <ele>1099</ele>
        <time>1990-12-07T15:22:33Z</time>
      </trkpt>
      <trkpt lat="43.94043" lon="6.50235">
        <ele>1110</ele>
        <time>1990-12-07T15:23:52Z</time>
      </trkpt>
      <trkpt lat="43.93978" lon="6.50243">
        <ele>1114</ele>
        <time>1990-12-07T15:24:36Z</time>
      </trkpt>
      <trkpt lat="43.94025" lon="6.50127">
        <ele>1123</ele>
        <time>1990-12-07T15:25:38Z</time>
      </trkpt>
      <trkpt lat="43.93942" lon="6.50167">
        <ele>1130</ele>
        <time>1990-12-07T15:26:32Z</time>
      </trkpt>
      <trkpt lat="43.94008" lon="6.50077">
        <ele>1138</ele>
        <time>1990-12-07T15:27:30Z</time>
      </trkpt>
      <trkpt lat="43.94045" lon="6.49913">
        <ele>1150</ele>
        <time>1990-12-07T15:29:02Z</time>
      </trkpt>
      <trkpt lat="43.93995" lon="6.49968">
        <ele>1154</ele>
        <time>1990-12-07T15:29:47Z</time>
      </trkpt>
      <trkpt lat="43.93878" lon="6.49902">
        <ele>1164</ele>
        <time>1990-12-07T15:31:20Z</time>
      </trkpt>
      <trkpt lat="43.93887" lon="6.49782">
        <ele>1172</ele>
        <time>1990-12-07T15:32:19Z</time>
      </trkpt>
      <trkpt lat="43.93757" lon="6.49777">
        <ele>1181</ele>
        <time>1990-12-07T15:33:39Z</time>
      </trkpt>
      <trkpt lat="43.93798" lon="6.49822">
        <ele>1184</ele>
        <time>1990-12-07T15:34:10Z</time>
      </trkpt>
      <trkpt lat="43.93595" lon="6.4999">
        <ele>1202</ele>
        <time>1990-12-07T15:46:43Z</time>
      </trkpt>
      <trkpt lat="43.9366" lon="6.49857">
        <ele>1211</ele>
        <time>1990-12-07T15:47:50Z</time>
      </trkpt>
      <trkpt lat="43.93423" lon="6.50052">
        <ele>1232</ele>
        <time>1990-12-07T15:50:23Z</time>
      </trkpt>
      <trkpt lat="43.9346" lon="6.4993">
        <ele>1240</ele>
        <time>1990-12-07T15:51:17Z</time>
      </trkpt>
      <trkpt lat="43.9343" lon="6.49895">
        <ele>1243</ele>
        <time>1990-12-07T15:51:42Z</time>
      </trkpt>
      <trkpt lat="43.93343" lon="6.50113">
        <ele>1259</ele>
        <time>1990-12-07T15:53:31Z</time>
      </trkpt>
      <trkpt lat="43.93353" lon="6.50182">
        <ele>1264</ele>
        <time>1990-12-07T15:54:08Z</time>
      </trkpt>
      <trkpt lat="43.9327" lon="6.50123">
        <ele>1272</ele>
        <time>1990-12-07T15:54:53Z</time>
      </trkpt>
      <trkpt lat="43.93278" lon="6.50028">
        <ele>1277</ele>
        <time>1990-12-07T15:55:22Z</time>
      </trkpt>
      <trkpt lat="43.93208" lon="6.49937">
        <ele>1284</ele>
        <time>1990-12-07T15:56:09Z</time>
      </trkpt>
      <trkpt lat="43.93185" lon="6.50162">
        <ele>1297</ele>
        <time>1990-12-07T15:57:43Z</time>
      </trkpt>
      <trkpt lat="43.9317" lon="6.5011">
        <ele>1301</ele>
        <time>1990-12-07T15:58:02Z</time>
      </trkpt>
      <trkpt lat="43.92995" lon="6.50452">
        <ele>1298</ele>
        <time>1990-12-07T16:01:01Z</time>
      </trkpt>
      <trkpt lat="43.92662" lon="6.50722">
        <ele>1282</ele>
        <time>1990-12-07T16:02:16Z</time>
      </trkpt>
      <trkpt lat="43.92625" lon="6.50837">
        <ele>1278</ele>
        <time>1990-12-07T16:02:35Z</time>
      </trkpt>
      <trkpt lat="43.92143" lon="6.51005">
        <ele>1272</ele>
        <time>1990-12-07T16:05:31Z</time>
      </trkpt>
      <trkpt lat="43.91942" lon="6.50893">
        <ele>1267</ele>
        <time>1990-12-07T16:06:34Z</time>
      </trkpt>
      <trkpt lat="43.9166" lon="6.5089">
        <ele>1259</ele>
        <time>1990-12-07T16:07:48Z</time>
      </trkpt>
      <trkpt lat="43.91282" lon="6.50992">
        <ele>1237</ele>
        <time>1990-12-07T16:10:23Z</time>
      </trkpt>
      <trkpt lat="43.9115" lon="6.5088">
        <ele>1204</ele>
        <time>1990-12-07T16:13:35Z</time>
      </trkpt>
      <trkpt lat="43.91023" lon="6.51267">
        <ele>1201</ele>
        <time>1990-12-07T16:19:12Z</time>
      </trkpt>
      <trkpt lat="43.908" lon="6.51545">
        <ele>1206</ele>
        <time>1990-12-07T16:21:27Z</time>
      </trkpt>
      <trkpt lat="43.90642" lon="6.51605">
        <ele>1199</ele>
        <time>1990-12-07T16:22:24Z</time>
      </trkpt>
      <trkpt lat="43.9048" lon="6.5216">
        <ele>1167</ele>
        <time>1990-12-07T16:27:36Z</time>
      </trkpt>
      <trkpt lat="43.90367" lon="6.52175">
        <ele>1155</ele>
        <time>1990-12-07T16:31:39Z</time>
      </trkpt>
      <trkpt lat="43.90252" lon="6.51968">
        <ele>1127</ele>
        <time>1990-12-07T16:33:39Z</time>
      </trkpt>
      <trkpt lat="43.90207" lon="6.51973">
        <ele>1119</ele>
        <time>1990-12-07T16:33:57Z</time>
      </trkpt>
      <trkpt lat="43.9023" lon="6.52187">
        <ele>1095</ele>
        <time>1990-12-07T16:37:25Z</time>
      </trkpt>
      <trkpt lat="43.90117" lon="6.52355">
        <ele>1066</ele>
        <time>1990-12-07T16:38:01Z</time>
      </trkpt>
      <trkpt lat="43.90067" lon="6.52267">
        <ele>1054</ele>
        <time>1990-12-07T16:39:10Z</time>
      </trkpt>
      <trkpt lat="43.90017" lon="6.52265">
        <ele>1050</ele>
        <time>1990-12-07T16:39:23Z</time>
      </trkpt>
      <trkpt lat="43.89908" lon="6.52065">
        <ele>1060</ele>
        <time>1990-12-07T16:41:19Z</time>
      </trkpt>
      <trkpt lat="43.89907" lon="6.51798">
        <ele>1065</ele>
        <time>1990-12-07T16:42:21Z</time>
      </trkpt>
      <trkpt lat="43.89873" lon="6.51722">
        <ele>1066</ele>
        <time>1990-12-07T16:42:42Z</time>
      </trkpt>
      <trkpt lat="43.89688" lon="6.51803">
        <ele>1077</ele>
        <time>1990-12-07T16:43:52Z</time>
      </trkpt>
      <trkpt lat="43.89522" lon="6.5157">
        <ele>1094</ele>
        <time>1990-12-07T16:45:45Z</time>
      </trkpt>
      <trkpt lat="43.89415" lon="6.5127">
        <ele>1106</ele>
        <time>1990-12-07T16:47:18Z</time>
      </trkpt>
      <trkpt lat="43.89258" lon="6.51048">
        <ele>1126</ele>
        <time>1990-12-07T16:49:23Z</time>
      </trkpt>
      <trkpt lat="43.89203" lon="6.50802">
        <ele>1132</ele>
        <time>1990-12-07T16:51:11Z</time>
      </trkpt>
      <trkpt lat="43.89268" lon="6.50228">
        <ele>1134</ele>
        <time>1990-12-07T16:52:33Z</time>
      </trkpt>
      <trkpt lat="43.89142" lon="6.50097">
        <ele>1144</ele>
        <time>1990-12-07T16:55:03Z</time>
      </trkpt>
      <trkpt lat="43.89205" lon="6.50185">
        <ele>1148</ele>
        <time>1990-12-08T07:49:37Z</time>
      </trkpt>
      <trkpt lat="43.89025" lon="6.50135">
        <ele>1122</ele>
        <time>1990-12-08T07:51:07Z</time>
      </trkpt>
      <trkpt lat="43.8891" lon="6.5022">
        <ele>1099</ele>
        <time>1990-12-08T07:53:26Z</time>
      </trkpt>
      <trkpt lat="43.88853" lon="6.50173">
        <ele>1091</ele>
        <time>1990-12-08T07:54:38Z</time>
      </trkpt>
      <trkpt lat="43.88752" lon="6.50235">
        <ele>1090</ele>
        <time>1990-12-08T07:56:00Z</time>
      </trkpt>
      <trkpt lat="43.88678" lon="6.50205">
        <ele>1081</ele>
        <time>1990-12-08T07:56:35Z</time>
      </trkpt>
      <trkpt lat="43.88478" lon="6.50347">
        <ele>1077</ele>
        <time>1990-12-08T07:57:27Z</time>
      </trkpt>
      <trkpt lat="43.88282" lon="6.50692">
        <ele>1083</ele>
        <time>1990-12-08T08:09:31Z</time>
      </trkpt>
      <trkpt lat="43.88245" lon="6.50647">
        <ele>1068</ele>
        <time>1990-12-08T08:12:19Z</time>
      </trkpt>
      <trkpt lat="43.88183" lon="6.50695">
        <ele>1047</ele>
        <time>1990-12-08T08:14:16Z</time>
      </trkpt>
      <trkpt lat="43.88187" lon="6.50662">
        <ele>1040</ele>
        <time>1990-12-08T08:15:34Z</time>
      </trkpt>
      <trkpt lat="43.88003" lon="6.50752">
        <ele>988</ele>
        <time>1990-12-08T08:18:49Z</time>
      </trkpt>
      <trkpt lat="43.88085" lon="6.50605">
        <ele>978</ele>
        <time>1990-12-08T08:21:17Z</time>
      </trkpt>
      <trkpt lat="43.88017" lon="6.50455">
        <ele>970</ele>
        <time>1990-12-08T08:21:34Z</time>
      </trkpt>
      <trkpt lat="43.87992" lon="6.50253">
        <ele>958</ele>
        <time>1990-12-08T08:21:51Z</time>
      </trkpt>
      <trkpt lat="43.87912" lon="6.50232">
        <ele>951</ele>
        <time>1990-12-08T08:22:00Z</time>
      </trkpt>
      <trkpt lat="43.87663" lon="6.50648">
        <ele>930</ele>
        <time>1990-12-08T08:22:40Z</time>
      </trkpt>
      <trkpt lat="43.8763" lon="6.50768">
        <ele>925</ele>
        <time>1990-12-08T08:22:49Z</time>
      </trkpt>
      <trkpt lat="43.87557" lon="6.50843">
        <ele>924</ele>
        <time>1990-12-08T08:23:00Z</time>
      </trkpt>
      <trkpt lat="43.87502" lon="6.50838">
        <ele>920</ele>
        <time>1990-12-08T08:23:08Z</time>
      </trkpt>
      <trkpt lat="43.874" lon="6.51012">
        <ele>912</ele>
        <time>1990-12-08T08:23:26Z</time>
      </trkpt>
      <trkpt lat="43.87128" lon="6.51138">
        <ele>901</ele>
        <time>1990-12-08T08:23:56Z</time>
      </trkpt>
      <trkpt lat="43.86965" lon="6.51083">
        <ele>894</ele>
        <time>1990-12-08T08:24:32Z</time>
      </trkpt>
      <trkpt lat="43.86887" lon="6.51147">
        <ele>889</ele>
        <time>1990-12-08T08:24:53Z</time>
      </trkpt>
      <trkpt lat="43.86792" lon="6.51087">
        <ele>877</ele>
        <time>1990-12-08T08:25:18Z</time>
      </trkpt>
      <trkpt lat="43.86537" lon="6.5112">
        <ele>872</ele>
        <time>1990-12-08T08:26:10Z</time>
      </trkpt>
      <trkpt lat="43.86048" lon="6.51565">
        <ele>859</ele>
        <time>1990-12-08T08:27:59Z</time>
      </trkpt>
      <trkpt lat="43.85865" lon="6.51427">
        <ele>843</ele>
        <time>1990-12-08T08:28:38Z</time>
      </trkpt>
      <trkpt lat="43.85775" lon="6.51277">
        <ele>835</ele>
        <time>1990-12-08T08:29:17Z</time>
      </trkpt>
      <trkpt lat="43.85583" lon="6.51208">
        <ele>822</ele>
        <time>1990-12-08T08:30:32Z</time>
      </trkpt>
      <trkpt lat="43.85548" lon="6.51328">
        <ele>811</ele>
        <time>1990-12-08T08:31:03Z</time>
      </trkpt>
      <trkpt lat="43.8559" lon="6.51383">
        <ele>814</ele>
        <time>1990-12-08T08:31:33Z</time>
      </trkpt>
      <trkpt lat="43.85575" lon="6.51527">
        <ele>818</ele>
        <time>1990-12-08T08:33:43Z</time>
      </trkpt>
      <trkpt lat="43.8542" lon="6.51297">
        <ele>810</ele>
        <time>1990-12-08T08:35:01Z</time>
      </trkpt>
      <trkpt lat="43.8518" lon="6.51137">
        <ele>784</ele>
        <time>1990-12-08T08:38:31Z</time>
      </trkpt>
      <trkpt lat="43.85127" lon="6.50865">
        <ele>758</ele>
        <time>1990-12-08T08:39:39Z</time>
      </trkpt>
      <trkpt lat="43.85077" lon="6.50842">
        <ele>749</ele>
        <time>1990-12-08T08:40:27Z</time>
      </trkpt>
      <trkpt lat="43.84898" lon="6.50917">
        <ele>740</ele>
        <time>1990-12-08T08:46:08Z</time>
      </trkpt>
      <trkpt lat="43.8477" lon="6.5119">
        <ele>731</ele>
        <time>1990-12-08T08:46:40Z</time>
      </trkpt>
      <trkpt lat="43.84612" lon="6.51242">
        <ele>730</ele>
        <time>1990-12-08T08:47:25Z</time>
      </trkpt>
      <trkpt lat="43.84518" lon="6.51472">
        <ele>732</ele>
        <time>1990-12-08T08:53:57Z</time>
      </trkpt>
      <trkpt lat="43.84512" lon="6.51667">
        <ele>737</ele>
        <time>1990-12-08T08:54:41Z</time>
      </trkpt>
      <trkpt lat="43.84415" lon="6.52063">
        <ele>736</ele>
        <time>1990-12-08T08:55:35Z</time>
      </trkpt>
      <trkpt lat="43.84177" lon="6.52638">
        <ele>735</ele>
        <time>1990-12-08T08:57:19Z</time>
      </trkpt>
      <trkpt lat="43.8413" lon="6.52873">
        <ele>735</ele>
        <time>1990-12-08T08:58:12Z</time>
      </trkpt>
      <trkpt lat="43.84132" lon="6.53105">
        <ele>740</ele>
        <time>1990-12-08T08:58:54Z</time>
      </trkpt>
      <trkpt lat="43.84203" lon="6.53278">
        <ele>748</ele>
        <time>1990-12-08T08:59:37Z</time>
      </trkpt>
      <trkpt lat="43.83837" lon="6.54108">
        <ele>760</ele>
        <time>1990-12-08T09:02:22Z</time>
      </trkpt>
      <trkpt lat="43.83798" lon="6.54315">
        <ele>773</ele>
        <time>1990-12-08T09:06:44Z</time>
      </trkpt>
      <trkpt lat="43.83825" lon="6.54332">
        <ele>779</ele>
        <time>1990-12-08T09:07:22Z</time>
      </trkpt>
      <trkpt lat="43.83692" lon="6.54502">
        <ele>813</ele>
        <time>1990-12-08T09:10:38Z</time>
      </trkpt>
      <trkpt lat="43.83552" lon="6.54563">
        <ele>821</ele>
        <time>1990-12-08T09:12:08Z</time>
      </trkpt>
      <trkpt lat="43.83555" lon="6.54633">
        <ele>840</ele>
        <time>1990-12-08T09:17:04Z</time>
      </trkpt>
      <trkpt lat="43.83463" lon="6.5472">
        <ele>855</ele>
        <time>1990-12-08T09:18:39Z</time>
      </trkpt>
      <trkpt lat="43.83425" lon="6.54825">
        <ele>867</ele>
        <time>1990-12-08T09:19:43Z</time>
      </trkpt>
      <trkpt lat="43.83207" lon="6.5504">
        <ele>899</ele>
        <time>1990-12-08T09:24:00Z</time>
      </trkpt>
      <trkpt lat="43.83115" lon="6.55205">
        <ele>922</ele>
        <time>1990-12-08T09:40:55Z</time>
      </trkpt>
      <trkpt lat="43.8313" lon="6.55333">
        <ele>923</ele>
        <time>1990-12-08T09:41:19Z</time>
      </trkpt>
      <trkpt lat="43.83042" lon="6.55807">
        <ele>932</ele>
        <time>1990-12-08T09:43:00Z</time>
      </trkpt>
      <trkpt lat="43.83077" lon="6.55855">
        <ele>945</ele>
        <time>1990-12-08T09:45:17Z</time>
      </trkpt>
      <trkpt lat="43.83318" lon="6.55733">
        <ele>996</ele>
        <time>1990-12-08T09:51:10Z</time>
      </trkpt>
      <trkpt lat="43.83373" lon="6.55623">
        <ele>1024</ele>
        <time>1990-12-08T09:53:58Z</time>
      </trkpt>
      <trkpt lat="43.83433" lon="6.55643">
        <ele>1033</ele>
        <time>1990-12-08T09:54:59Z</time>
      </trkpt>
      <trkpt lat="43.83513" lon="6.55898">
        <ele>1084</ele>
        <time>1990-12-08T10:00:01Z</time>
      </trkpt>
      <trkpt lat="43.83695" lon="6.5625">
        <ele>1131</ele>
        <time>1990-12-08T10:05:04Z</time>
      </trkpt>
      <trkpt lat="43.83835" lon="6.56415">
        <ele>1148</ele>
        <time>1990-12-08T10:08:18Z</time>
      </trkpt>
      <trkpt lat="43.83987" lon="6.5646">
        <ele>1135</ele>
        <time>1990-12-08T10:16:39Z</time>
      </trkpt>
      <trkpt lat="43.84063" lon="6.5639">
        <ele>1146</ele>
        <time>1990-12-08T10:17:40Z</time>
      </trkpt>
      <trkpt lat="43.84175" lon="6.56435">
        <ele>1160</ele>
        <time>1990-12-08T10:19:31Z</time>
      </trkpt>
      <trkpt lat="43.84393" lon="6.56885">
        <ele>1181</ele>
        <time>1990-12-08T10:22:24Z</time>
      </trkpt>
      <trkpt lat="43.84512" lon="6.57332">
        <ele>1205</ele>
        <time>1990-12-08T10:25:19Z</time>
      </trkpt>
      <trkpt lat="43.84683" lon="6.57702">
        <ele>1235</ele>
        <time>1990-12-08T10:28:23Z</time>
      </trkpt>
      <trkpt lat="43.84962" lon="6.58003">
        <ele>1266</ele>
        <time>1990-12-08T10:33:14Z</time>
      </trkpt>
      <trkpt lat="43.85177" lon="6.58542">
        <ele>1256</ele>
        <time>1990-12-08T10:42:13Z</time>
      </trkpt>
      <trkpt lat="43.85428" lon="6.58998">
        <ele>1245</ele>
        <time>1990-12-08T10:44:02Z</time>
      </trkpt>
      <trkpt lat="43.85425" lon="6.58888">
        <ele>1234</ele>
        <time>1990-12-08T10:44:28Z</time>
      </trkpt>
      <trkpt lat="43.85482" lon="6.58917">
        <ele>1230</ele>
        <time>1990-12-08T10:44:46Z</time>
      </trkpt>
      <trkpt lat="43.85468" lon="6.59065">
        <ele>1240</ele>
        <time>1990-12-08T10:46:47Z</time>
      </trkpt>
      <trkpt lat="43.85758" lon="6.58988">
        <ele>1270</ele>
        <time>1990-12-08T10:51:07Z</time>
      </trkpt>
      <trkpt lat="43.86077" lon="6.5914">
        <ele>1291</ele>
        <time>1990-12-08T10:53:45Z</time>
      </trkpt>
      <trkpt lat="43.86215" lon="6.59345">
        <ele>1290</ele>
        <time>1990-12-08T10:56:18Z</time>
      </trkpt>
      <trkpt lat="43.86293" lon="6.59332">
        <ele>1295</ele>
        <time>1990-12-08T10:56:53Z</time>
      </trkpt>
      <trkpt lat="43.86408" lon="6.59587">
        <ele>1290</ele>
        <time>1990-12-08T10:59:02Z</time>
      </trkpt>
      <trkpt lat="43.86517" lon="6.60783">
        <ele>1291</ele>
        <time>1990-12-08T11:01:57Z</time>
      </trkpt>
      <trkpt lat="43.86532" lon="6.6133">
        <ele>1293</ele>
        <time>1990-12-08T11:03:19Z</time>
      </trkpt>
      <trkpt lat="43.86685" lon="6.62302">
        <ele>1331</ele>
        <time>1990-12-08T11:08:05Z</time>
      </trkpt>
      <trkpt lat="43.86515" lon="6.63175">
        <ele>1365</ele>
        <time>1990-12-08T11:17:36Z</time>
      </trkpt>
      <trkpt lat="43.86613" lon="6.63395">
        <ele>1374</ele>
        <time>1990-12-08T11:24:04Z</time>
      </trkpt>
      <trkpt lat="43.8668" lon="6.63728">
        <ele>1395</ele>
        <time>1990-12-08T11:25:55Z</time>
      </trkpt>
      <trkpt lat="43.86717" lon="6.63122">
        <ele>1416</ele>
        <time>1990-12-08T11:28:06Z</time>
      </trkpt>
      <trkpt lat="43.86788" lon="6.62908">
        <ele>1429</ele>
        <time>1990-12-08T11:29:00Z</time>
      </trkpt>
      <trkpt lat="43.86912" lon="6.62747">
        <ele>1441</ele>
        <time>1990-12-08T11:29:56Z</time>
      </trkpt>
      <trkpt lat="43.8699" lon="6.62725">
        <ele>1446</ele>
        <time>1990-12-08T11:30:25Z</time>
      </trkpt>
      <trkpt lat="43.87198" lon="6.62498">
        <ele>1468</ele>
        <time>1990-12-08T11:31:54Z</time>
      </trkpt>
      <trkpt lat="43.8741" lon="6.62482">
        <ele>1487</ele>
        <time>1990-12-08T11:33:02Z</time>
      </trkpt>
      <trkpt lat="43.8722" lon="6.62578">
        <ele>1501</ele>
        <time>1990-12-08T11:34:02Z</time>
      </trkpt>
      <trkpt lat="43.87407" lon="6.62558">
        <ele>1517</ele>
        <time>1990-12-08T11:35:06Z</time>
      </trkpt>
      <trkpt lat="43.87487" lon="6.62485">
        <ele>1527</ele>
        <time>1990-12-08T11:35:40Z</time>
      </trkpt>
      <trkpt lat="43.8755" lon="6.62517">
        <ele>1532</ele>
        <time>1990-12-08T11:36:08Z</time>
      </trkpt>
      <trkpt lat="43.87767" lon="6.62875">
        <ele>1556</ele>
        <time>1990-12-08T11:37:54Z</time>
      </trkpt>
      <trkpt lat="43.87975" lon="6.62792">
        <ele>1567</ele>
        <time>1990-12-08T11:38:53Z</time>
      </trkpt>
      <trkpt lat="43.8826" lon="6.63067">
        <ele>1582</ele>
        <time>1990-12-08T11:40:16Z</time>
      </trkpt>
      <trkpt lat="43.88343" lon="6.63055">
        <ele>1586</ele>
        <time>1990-12-08T11:40:34Z</time>
      </trkpt>
      <trkpt lat="43.88407" lon="6.6313">
        <ele>1591</ele>
        <time>1990-12-08T11:41:02Z</time>
      </trkpt>
      <trkpt lat="43.88493" lon="6.63398">
        <ele>1600</ele>
        <time>1990-12-08T11:54:58Z</time>
      </trkpt>
      <trkpt lat="43.88507" lon="6.6369">
        <ele>1603</ele>
        <time>1990-12-08T11:56:50Z</time>
      </trkpt>
      <trkpt lat="43.88378" lon="6.63785">
        <ele>1596</ele>
        <time>1990-12-08T11:57:45Z</time>
      </trkpt>
      <trkpt lat="43.88337" lon="6.6404">
        <ele>1600</ele>
        <time>1990-12-08T11:59:19Z</time>
      </trkpt>
      <trkpt lat="43.88453" lon="6.64335">
        <ele>1575</ele>
        <time>1990-12-08T12:01:11Z</time>
      </trkpt>
      <trkpt lat="43.88872" lon="6.64878">
        <ele>1540</ele>
        <time>1990-12-08T12:10:00Z</time>
      </trkpt>
      <trkpt lat="43.89047" lon="6.65443">
        <ele>1470</ele>
        <time>1990-12-08T12:18:38Z</time>
      </trkpt>
      <trkpt lat="43.89088" lon="6.6542">
        <ele>1458</ele>
        <time>1990-12-08T12:19:00Z</time>
      </trkpt>
      <trkpt lat="43.89118" lon="6.6558">
        <ele>1426</ele>
        <time>1990-12-08T12:21:55Z</time>
      </trkpt>
      <trkpt lat="43.89165" lon="6.65477">
        <ele>1410</ele>
        <time>1990-12-08T12:22:49Z</time>
      </trkpt>
      <trkpt lat="43.89187" lon="6.65507">
        <ele>1394</ele>
        <time>1990-12-08T12:24:25Z</time>
      </trkpt>
      <trkpt lat="43.89195" lon="6.6547">
        <ele>1392</ele>
        <time>1990-12-08T12:25:21Z</time>
      </trkpt>
      <trkpt lat="43.89252" lon="6.65618">
        <ele>1384</ele>
        <time>1990-12-08T12:30:18Z</time>
      </trkpt>
      <trkpt lat="43.8956" lon="6.65982">
        <ele>1385</ele>
        <time>1990-12-08T12:35:13Z</time>
      </trkpt>
      <trkpt lat="43.8987" lon="6.67043">
        <ele>1277</ele>
        <time>1990-12-08T12:40:11Z</time>
      </trkpt>
      <trkpt lat="43.90022" lon="6.6712">
        <ele>1263</ele>
        <time>1990-12-08T12:42:15Z</time>
      </trkpt>
      <trkpt lat="43.89877" lon="6.67083">
        <ele>1259</ele>
        <time>1990-12-08T12:48:12Z</time>
      </trkpt>
      <trkpt lat="43.89642" lon="6.6678">
        <ele>1247</ele>
        <time>1990-12-08T12:49:15Z</time>
      </trkpt>
      <trkpt lat="43.89725" lon="6.67072">
        <ele>1217</ele>
        <time>1990-12-08T12:49:59Z</time>
      </trkpt>
      <trkpt lat="43.89697" lon="6.67063">
        <ele>1210</ele>
        <time>1990-12-08T12:50:12Z</time>
      </trkpt>
      <trkpt lat="43.89697" lon="6.672">
        <ele>1208</ele>
        <time>1990-12-08T12:50:30Z</time>
      </trkpt>
      <trkpt lat="43.89742" lon="6.67253">
        <ele>1213</ele>
        <time>1990-12-08T12:50:53Z</time>
      </trkpt>
      <trkpt lat="43.89513" lon="6.67315">
        <ele>1253</ele>
        <time>1990-12-08T12:53:23Z</time>
      </trkpt>
      <trkpt lat="43.89548" lon="6.6732">
        <ele>1259</ele>
        <time>1990-12-08T12:53:44Z</time>
      </trkpt>
      <trkpt lat="43.89425" lon="6.6744">
        <ele>1270</ele>
        <time>1990-12-08T12:54:52Z</time>
      </trkpt>
      <trkpt lat="43.89443" lon="6.67673">
        <ele>1253</ele>
        <time>1990-12-08T12:55:24Z</time>
      </trkpt>
      <trkpt lat="43.89347" lon="6.68065">
        <ele>1246</ele>
        <time>1990-12-08T13:00:11Z</time>
      </trkpt>
      <trkpt lat="43.89282" lon="6.68077">
        <ele>1249</ele>
        <time>1990-12-08T13:00:46Z</time>
      </trkpt>
      <trkpt lat="43.89255" lon="6.68227">
        <ele>1259</ele>
        <time>1990-12-08T13:01:51Z</time>
      </trkpt>
      <trkpt lat="43.89277" lon="6.68432">
        <ele>1271</ele>
        <time>1990-12-08T13:02:55Z</time>
      </trkpt>
      <trkpt lat="43.89188" lon="6.68575">
        <ele>1278</ele>
        <time>1990-12-08T13:03:57Z</time>
      </trkpt>
      <trkpt lat="43.88963" lon="6.68555">
        <ele>1288</ele>
        <time>1990-12-08T13:05:39Z</time>
      </trkpt>
      <trkpt lat="43.8877" lon="6.68693">
        <ele>1291</ele>
        <time>1990-12-08T13:08:41Z</time>
      </trkpt>
      <trkpt lat="43.88563" lon="6.68718">
        <ele>1302</ele>
        <time>1990-12-08T13:09:42Z</time>
      </trkpt>
      <trkpt lat="43.88423" lon="6.68575">
        <ele>1259</ele>
        <time>1990-12-08T13:16:10Z</time>
      </trkpt>
      <trkpt lat="43.88288" lon="6.6858">
        <ele>1226</ele>
        <time>1990-12-08T13:17:12Z</time>
      </trkpt>
      <trkpt lat="43.88243" lon="6.68765">
        <ele>1219</ele>
        <time>1990-12-08T13:20:23Z</time>
      </trkpt>
      <trkpt lat="43.88093" lon="6.68863">
        <ele>1192</ele>
        <time>1990-12-08T13:21:21Z</time>
      </trkpt>
      <trkpt lat="43.88117" lon="6.68978">
        <ele>1188</ele>
        <time>1990-12-08T13:21:47Z</time>
      </trkpt>
      <trkpt lat="43.8807" lon="6.69055">
        <ele>1185</ele>
        <time>1990-12-08T13:22:07Z</time>
      </trkpt>
      <trkpt lat="43.87972" lon="6.6908">
        <ele>1169</ele>
        <time>1990-12-08T14:18:27Z</time>
      </trkpt>
      <trkpt lat="43.87915" lon="6.69293">
        <ele>1146</ele>
        <time>1990-12-08T14:20:22Z</time>
      </trkpt>
      <trkpt lat="43.87757" lon="6.69473">
        <ele>1117</ele>
        <time>1990-12-08T14:22:18Z</time>
      </trkpt>
      <trkpt lat="43.8742" lon="6.69642">
        <ele>1082</ele>
        <time>1990-12-08T14:31:11Z</time>
      </trkpt>
      <trkpt lat="43.87122" lon="6.69613">
        <ele>1102</ele>
        <time>1990-12-08T14:34:39Z</time>
      </trkpt>
      <trkpt lat="43.868" lon="6.69347">
        <ele>1141</ele>
        <time>1990-12-08T14:45:04Z</time>
      </trkpt>
      <trkpt lat="43.86673" lon="6.69165">
        <ele>1149</ele>
        <time>1990-12-08T14:47:34Z</time>
      </trkpt>
      <trkpt lat="43.86585" lon="6.69232">
        <ele>1152</ele>
        <time>1990-12-08T14:50:27Z</time>
      </trkpt>
      <trkpt lat="43.86448" lon="6.6917">
        <ele>1131</ele>
        <time>1990-12-08T14:51:07Z</time>
      </trkpt>
      <trkpt lat="43.8617" lon="6.68893">
        <ele>1072</ele>
        <time>1990-12-08T14:57:59Z</time>
      </trkpt>
      <trkpt lat="43.86182" lon="6.69182">
        <ele>1064</ele>
        <time>1990-12-08T15:00:12Z</time>
      </trkpt>
      <trkpt lat="43.86128" lon="6.69255">
        <ele>1068</ele>
        <time>1990-12-08T15:01:30Z</time>
      </trkpt>
      <trkpt lat="43.86158" lon="6.69482">
        <ele>1060</ele>
        <time>1990-12-08T15:02:25Z</time>
      </trkpt>
      <trkpt lat="43.862" lon="6.69543">
        <ele>1053</ele>
        <time>1990-12-08T15:02:48Z</time>
      </trkpt>
      <trkpt lat="43.86192" lon="6.69617">
        <ele>1045</ele>
        <time>1990-12-08T15:03:10Z</time>
      </trkpt>
      <trkpt lat="43.86263" lon="6.69702">
        <ele>1021</ele>
        <time>1990-12-08T15:05:32Z</time>
      </trkpt>
      <trkpt lat="43.86235" lon="6.69742">
        <ele>1006</ele>
        <time>1990-12-08T15:06:07Z</time>
      </trkpt>
      <trkpt lat="43.86272" lon="6.69825">
        <ele>982</ele>
        <time>1990-12-08T15:07:43Z</time>
      </trkpt>
      <trkpt lat="43.86308" lon="6.69798">
        <ele>987</ele>
        <time>1990-12-08T15:10:44Z</time>
      </trkpt>
      <trkpt lat="43.86193" lon="6.7001">
        <ele>1008</ele>
        <time>1990-12-08T15:13:23Z</time>
      </trkpt>
      <trkpt lat="43.86103" lon="6.7005">
        <ele>1014</ele>
        <time>1990-12-08T15:14:26Z</time>
      </trkpt>
      <trkpt lat="43.8607" lon="6.70202">
        <ele>1022</ele>
        <time>1990-12-08T15:16:22Z</time>
      </trkpt>
      <trkpt lat="43.86052" lon="6.69983">
        <ele>996</ele>
        <time>1990-12-08T15:20:01Z</time>
      </trkpt>
      <trkpt lat="43.85952" lon="6.69842">
        <ele>972</ele>
        <time>1990-12-08T15:21:03Z</time>
      </trkpt>
      <trkpt lat="43.85812" lon="6.69812">
        <ele>960</ele>
        <time>1990-12-08T15:23:04Z</time>
      </trkpt>
      <trkpt lat="43.85648" lon="6.70288">
        <ele>945</ele>
        <time>1990-12-08T15:26:05Z</time>
      </trkpt>
      <trkpt lat="43.85712" lon="6.70522">
        <ele>934</ele>
        <time>1990-12-08T15:26:53Z</time>
      </trkpt>
      <trkpt lat="43.85682" lon="6.70577">
        <ele>937</ele>
        <time>1990-12-08T15:27:54Z</time>
      </trkpt>
      <trkpt lat="43.85785" lon="6.7173">
        <ele>916</ele>
        <time>1990-12-08T15:32:26Z</time>
      </trkpt>
      <trkpt lat="43.85745" lon="6.7183">
        <ele>915</ele>
        <time>1990-12-08T15:32:51Z</time>
      </trkpt>
      <trkpt lat="43.85773" lon="6.71875">
        <ele>916</ele>
        <time>1990-12-08T15:33:08Z</time>
      </trkpt>
      <trkpt lat="43.85725" lon="6.71942">
        <ele>913</ele>
        <time>1990-12-08T15:37:26Z</time>
      </trkpt>
      <trkpt lat="43.85727" lon="6.72062">
        <ele>918</ele>
        <time>1990-12-08T15:41:07Z</time>
      </trkpt>
      <trkpt lat="43.85718" lon="6.71988">
        <ele>921</ele>
        <time>1990-12-08T15:41:30Z</time>
      </trkpt>
      <trkpt lat="43.8568" lon="6.72217">
        <ele>931</ele>
        <time>1990-12-08T15:42:55Z</time>
      </trkpt>
      <trkpt lat="43.8569" lon="6.72033">
        <ele>940</ele>
        <time>1990-12-08T15:43:49Z</time>
      </trkpt>
      <trkpt lat="43.85643" lon="6.72248">
        <ele>948</ele>
        <time>1990-12-08T15:44:54Z</time>
      </trkpt>
      <trkpt lat="43.85657" lon="6.71965">
        <ele>961</ele>
        <time>1990-12-08T15:46:21Z</time>
      </trkpt>
      <trkpt lat="43.85592" lon="6.72248">
        <ele>973</ele>
        <time>1990-12-08T15:47:46Z</time>
      </trkpt>
      <trkpt lat="43.85368" lon="6.7259">
        <ele>987</ele>
        <time>1990-12-08T15:50:05Z</time>
      </trkpt>
      <trkpt lat="43.85405" lon="6.72625">
        <ele>987</ele>
        <time>1990-12-08T15:50:43Z</time>
      </trkpt>
      <trkpt lat="43.8533" lon="6.72735">
        <ele>989</ele>
        <time>1990-12-08T15:51:32Z</time>
      </trkpt>
      <trkpt lat="43.85198" lon="6.72777">
        <ele>996</ele>
        <time>1990-12-08T15:54:03Z</time>
      </trkpt>
      <trkpt lat="43.85198" lon="6.72905">
        <ele>1001</ele>
        <time>1990-12-08T15:55:15Z</time>
      </trkpt>
      <trkpt lat="43.85112" lon="6.73135">
        <ele>1009</ele>
        <time>1990-12-08T15:56:15Z</time>
      </trkpt>
      <trkpt lat="43.84963" lon="6.7316">
        <ele>1012</ele>
        <time>1990-12-08T15:56:47Z</time>
      </trkpt>
      <trkpt lat="43.84907" lon="6.73122">
        <ele>1010</ele>
        <time>1990-12-08T15:57:58Z</time>
      </trkpt>
      <trkpt lat="43.84785" lon="6.73168">
        <ele>1009</ele>
        <time>1990-12-08T15:59:27Z</time>
      </trkpt>
      <trkpt lat="43.8464" lon="6.73597">
        <ele>1010</ele>
        <time>1990-12-08T16:00:44Z</time>
      </trkpt>
      <trkpt lat="43.84482" lon="6.73832">
        <ele>1012</ele>
        <time>1990-12-08T16:01:42Z</time>
      </trkpt>
      <trkpt lat="43.84387" lon="6.74202">
        <ele>1017</ele>
        <time>1990-12-08T16:02:49Z</time>
      </trkpt>
      <trkpt lat="43.8426" lon="6.74378">
        <ele>1022</ele>
        <time>1990-12-08T16:03:30Z</time>
      </trkpt>
      <trkpt lat="43.83952" lon="6.7452">
        <ele>1029</ele>
        <time>1990-12-08T16:04:46Z</time>
      </trkpt>
      <trkpt lat="43.83797" lon="6.7449">
        <ele>1032</ele>
        <time>1990-12-08T16:05:46Z</time>
      </trkpt>
      <trkpt lat="43.8393" lon="6.74607">
        <ele>1046</ele>
        <time>1990-12-08T16:08:09Z</time>
      </trkpt>
      <trkpt lat="43.84043" lon="6.75017">
        <ele>1073</ele>
        <time>1990-12-08T16:15:07Z</time>
      </trkpt>
      <trkpt lat="43.84047" lon="6.7541">
        <ele>1100</ele>
        <time>1990-12-08T16:17:49Z</time>
      </trkpt>
      <trkpt lat="43.83953" lon="6.75758">
        <ele>1126</ele>
        <time>1990-12-08T16:20:51Z</time>
      </trkpt>
      <trkpt lat="43.83972" lon="6.76713">
        <ele>1184</ele>
        <time>1990-12-08T16:28:14Z</time>
      </trkpt>
      <trkpt lat="43.8413" lon="6.77173">
        <ele>1218</ele>
        <time>1990-12-08T16:32:18Z</time>
      </trkpt>
      <trkpt lat="43.83947" lon="6.76893">
        <ele>1240</ele>
        <time>1990-12-08T16:35:15Z</time>
      </trkpt>
      <trkpt lat="43.84112" lon="6.7735">
        <ele>1255</ele>
        <time>1990-12-08T16:38:14Z</time>
      </trkpt>
      <trkpt lat="43.84087" lon="6.7745">
        <ele>1264</ele>
        <time>1990-12-08T16:39:02Z</time>
      </trkpt>
      <trkpt lat="43.84258" lon="6.77435">
        <ele>1283</ele>
        <time>1990-12-08T16:43:39Z</time>
      </trkpt>
      <trkpt lat="43.84363" lon="6.77503">
        <ele>1289</ele>
        <time>1990-12-08T16:44:35Z</time>
      </trkpt>
      <trkpt lat="43.84533" lon="6.77762">
        <ele>1253</ele>
        <time>1990-12-08T16:54:58Z</time>
      </trkpt>
      <trkpt lat="43.845" lon="6.77827">
        <ele>1246</ele>
        <time>1990-12-08T16:55:33Z</time>
      </trkpt>
      <trkpt lat="43.84565" lon="6.77993">
        <ele>1243</ele>
        <time>1990-12-08T16:56:05Z</time>
      </trkpt>
      <trkpt lat="43.84798" lon="6.7817">
        <ele>1237</ele>
        <time>1990-12-08T16:57:13Z</time>
      </trkpt>
      <trkpt lat="43.84987" lon="6.7858">
        <ele>1202</ele>
        <time>1990-12-08T16:58:13Z</time>
      </trkpt>
      <trkpt lat="43.85085" lon="6.78518">
        <ele>1205</ele>
        <time>1990-12-08T16:59:27Z</time>
      </trkpt>
      <trkpt lat="43.85177" lon="6.78748">
        <ele>1164</ele>
        <time>1990-12-08T17:04:47Z</time>
      </trkpt>
      <trkpt lat="43.85178" lon="6.78587">
        <ele>1141</ele>
        <time>1990-12-08T17:05:46Z</time>
      </trkpt>
      <trkpt lat="43.8529" lon="6.7886">
        <ele>1091</ele>
        <time>1990-12-08T17:11:59Z</time>
      </trkpt>
      <trkpt lat="43.854" lon="6.78912">
        <ele>1042</ele>
        <time>1990-12-08T17:16:52Z</time>
      </trkpt>
      <trkpt lat="43.85405" lon="6.78878">
        <ele>1037</ele>
        <time>1990-12-08T17:17:06Z</time>
      </trkpt>
      <trkpt lat="43.85422" lon="6.7892">
        <ele>1030</ele>
        <time>1990-12-08T17:17:31Z</time>
      </trkpt>
      <trkpt lat="43.8543" lon="6.78868">
        <ele>1023</ele>
        <time>1990-12-08T17:17:51Z</time>
      </trkpt>
      <trkpt lat="43.85455" lon="6.78925">
        <ele>1011</ele>
        <time>1990-12-08T17:18:23Z</time>
      </trkpt>
      <trkpt lat="43.85468" lon="6.7889">
        <ele>1005</ele>
        <time>1990-12-08T17:18:40Z</time>
      </trkpt>
      <trkpt lat="43.85497" lon="6.7893">
        <ele>993</ele>
        <time>1990-12-08T17:19:08Z</time>
      </trkpt>
      <trkpt lat="43.85503" lon="6.78877">
        <ele>985</ele>
        <time>1990-12-08T17:19:24Z</time>
      </trkpt>
      <trkpt lat="43.85553" lon="6.7897">
        <ele>968</ele>
        <time>1990-12-08T17:20:43Z</time>
      </trkpt>
      <trkpt lat="43.85383" lon="6.79112">
        <ele>952</ele>
        <time>1990-12-08T17:25:31Z</time>
      </trkpt>
      <trkpt lat="43.85382" lon="6.79158">
        <ele>955</ele>
        <time>1990-12-08T17:25:55Z</time>
      </trkpt>
      <trkpt lat="43.85592" lon="6.79355">
        <ele>962</ele>
        <time>1990-12-08T17:27:43Z</time>
      </trkpt>
      <trkpt lat="43.8573" lon="6.7942">
        <ele>939</ele>
        <time>1990-12-08T17:30:13Z</time>
      </trkpt>
      <trkpt lat="43.85867" lon="6.79365">
        <ele>907</ele>
        <time>1990-12-08T17:33:19Z</time>
      </trkpt>
      <trkpt lat="43.85878" lon="6.79405">
        <ele>903</ele>
        <time>1990-12-08T17:33:32Z</time>
      </trkpt>
      <trkpt lat="43.85912" lon="6.79387">
        <ele>898</ele>
        <time>1990-12-08T17:33:48Z</time>
      </trkpt>
      <trkpt lat="43.8593" lon="6.79443">
        <ele>888</ele>
        <time>1990-12-08T17:34:14Z</time>
      </trkpt>
      <trkpt lat="43.8605" lon="6.7948">
        <ele>861</ele>
        <time>1990-12-08T17:37:16Z</time>
      </trkpt>
      <trkpt lat="43.861" lon="6.79562">
        <ele>844</ele>
        <time>1990-12-08T17:38:23Z</time>
      </trkpt>
      <trkpt lat="43.86072" lon="6.79593">
        <ele>830</ele>
        <time>1990-12-08T17:39:12Z</time>
      </trkpt>
      <trkpt lat="43.86107" lon="6.79655">
        <ele>814</ele>
        <time>1990-12-08T17:40:33Z</time>
      </trkpt>
      <trkpt lat="43.86075" lon="6.79667">
        <ele>806</ele>
        <time>1990-12-08T17:41:33Z</time>
      </trkpt>
      <trkpt lat="43.86128" lon="6.79773">
        <ele>788</ele>
        <time>1990-12-08T17:42:34Z</time>
      </trkpt>
      <trkpt lat="43.86093" lon="6.79785">
        <ele>779</ele>
        <time>1990-12-08T17:43:27Z</time>
      </trkpt>
      <trkpt lat="43.86225" lon="6.80035">
        <ele>762</ele>
        <time>1990-12-08T17:51:55Z</time>
      </trkpt>
      <trkpt lat="43.8628" lon="6.80257">
        <ele>745</ele>
        <time>1990-12-08T17:52:57Z</time>
      </trkpt>
      <trkpt lat="43.86247" lon="6.80705">
        <ele>736</ele>
        <time>1990-12-08T17:55:20Z</time>
      </trkpt>
      <trkpt lat="43.8618" lon="6.80708">
        <ele>739</ele>
        <time>1990-12-08T17:57:35Z</time>
      </trkpt>
      <trkpt lat="43.86175" lon="6.80762">
        <ele>744</ele>
        <time>1990-12-08T17:57:59Z</time>
      </trkpt>
      <trkpt lat="43.86045" lon="6.8088">
        <ele>750</ele>
        <time>1990-12-08T17:59:18Z</time>
      </trkpt>
      <trkpt lat="43.859" lon="6.81282">
        <ele>764</ele>
        <time>1990-12-08T18:02:08Z</time>
      </trkpt>
      <trkpt lat="43.85807" lon="6.81272">
        <ele>759</ele>
        <time>1990-12-08T18:02:26Z</time>
      </trkpt>
      <trkpt lat="43.85857" lon="6.81505">
        <ele>759</ele>
        <time>1990-12-08T18:03:34Z</time>
      </trkpt>
      <trkpt lat="43.85752" lon="6.81858">
        <ele>749</ele>
        <time>1990-12-08T18:04:25Z</time>
      </trkpt>
      <trkpt lat="43.85793" lon="6.82415">
        <ele>739</ele>
        <time>1990-12-08T18:06:22Z</time>
      </trkpt>
      <trkpt lat="43.85762" lon="6.82562">
        <ele>737</ele>
        <time>1990-12-08T18:06:48Z</time>
      </trkpt>
      <trkpt lat="43.85873" lon="6.828">
        <ele>718</ele>
        <time>1990-12-08T18:07:33Z</time>
      </trkpt>
      <trkpt lat="43.86085" lon="6.831">
        <ele>696</ele>
        <time>1990-12-08T18:08:34Z</time>
      </trkpt>
      <trkpt lat="43.86147" lon="6.83655">
        <ele>703</ele>
        <time>1990-12-08T18:12:36Z</time>
      </trkpt>
      <trkpt lat="43.86278" lon="6.83865">
        <ele>681</ele>
        <time>1990-12-08T18:16:36Z</time>
      </trkpt>
      <trkpt lat="43.86285" lon="6.83983">
        <ele>683</ele>
        <time>1990-12-08T18:17:28Z</time>
      </trkpt>
      <trkpt lat="43.86503" lon="6.84368">
        <ele>680</ele>
        <time>1990-12-08T18:20:34Z</time>
      </trkpt>
      <trkpt lat="43.86518" lon="6.84612">
        <ele>704</ele>
        <time>1990-12-08T18:24:54Z</time>
      </trkpt>
      <trkpt lat="43.86448" lon="6.84953">
        <ele>735</ele>
        <time>1990-12-08T18:30:44Z</time>
      </trkpt>
      <trkpt lat="43.86485" lon="6.85138">
        <ele>741</ele>
        <time>1990-12-08T18:32:15Z</time>
      </trkpt>
      <trkpt lat="43.86537" lon="6.85158">
        <ele>743</ele>
        <time>1990-12-08T18:32:48Z</time>
      </trkpt>
      <trkpt lat="43.86562" lon="6.8524">
        <ele>751</ele>
        <time>1990-12-08T18:33:53Z</time>
      </trkpt>
      <trkpt lat="43.8648" lon="6.8555">
        <ele>771</ele>
        <time>1990-12-08T18:37:21Z</time>
      </trkpt>
      <trkpt lat="43.86557" lon="6.85677">
        <ele>771</ele>
        <time>1990-12-08T18:41:47Z</time>
      </trkpt>
      <trkpt lat="43.86563" lon="6.8593">
        <ele>737</ele>
        <time>1990-12-08T18:45:36Z</time>
      </trkpt>
      <trkpt lat="43.86633" lon="6.86108">
        <ele>723</ele>
        <time>1990-12-08T18:47:00Z</time>
      </trkpt>
      <trkpt lat="43.8662" lon="6.86205">
        <ele>698</ele>
        <time>1990-12-08T18:49:09Z</time>
      </trkpt>
      <trkpt lat="43.86717" lon="6.86268">
        <ele>681</ele>
        <time>1990-12-08T18:51:12Z</time>
      </trkpt>
      <trkpt lat="43.86738" lon="6.86222">
        <ele>679</ele>
        <time>1990-12-08T18:51:33Z</time>
      </trkpt>
      <trkpt lat="43.87132" lon="6.86685">
        <ele>623</ele>
        <time>1990-12-08T19:00:29Z</time>
      </trkpt>
      <trkpt lat="43.87178" lon="6.8693">
        <ele>601</ele>
        <time>1990-12-08T19:02:57Z</time>
      </trkpt>
      <trkpt lat="43.87545" lon="6.86747">
        <ele>608</ele>
        <time>1990-12-08T19:08:53Z</time>
      </trkpt>
      <trkpt lat="43.87587" lon="6.86677">
        <ele>613</ele>
        <time>1990-12-08T19:09:28Z</time>
      </trkpt>
      <trkpt lat="43.87783" lon="6.86577">
        <ele>619</ele>
        <time>1990-12-08T19:11:35Z</time>
      </trkpt>
      <trkpt lat="43.87823" lon="6.8646">
        <ele>628</ele>
        <time>1990-12-08T19:12:49Z</time>
      </trkpt>
      <trkpt lat="43.87898" lon="6.8642">
        <ele>633</ele>
        <time>1990-12-08T19:13:44Z</time>
      </trkpt>
      <trkpt lat="43.88022" lon="6.8603">
        <ele>656</ele>
        <time>1990-12-08T19:17:01Z</time>
      </trkpt>
      <trkpt lat="43.88193" lon="6.86172">
        <ele>674</ele>
        <time>1990-12-08T19:19:22Z</time>
      </trkpt>
      <trkpt lat="43.8816" lon="6.8606">
        <ele>682</ele>
        <time>1990-12-08T19:20:18Z</time>
      </trkpt>
      <trkpt lat="43.88178" lon="6.8586">
        <ele>698</ele>
        <time>1990-12-08T19:22:02Z</time>
      </trkpt>
      <trkpt lat="43.88148" lon="6.8567">
        <ele>712</ele>
        <time>1990-12-08T19:23:55Z</time>
      </trkpt>
      <trkpt lat="43.88187" lon="6.8557">
        <ele>720</ele>
        <time>1990-12-08T19:24:59Z</time>
      </trkpt>
      <trkpt lat="43.88198" lon="6.85745">
        <ele>732</ele>
        <time>1990-12-08T19:26:49Z</time>
      </trkpt>
      <trkpt lat="43.88313" lon="6.85917">
        <ele>749</ele>
        <time>1990-12-08T19:28:58Z</time>
      </trkpt>
      <trkpt lat="43.88302" lon="6.85998">
        <ele>752</ele>
        <time>1990-12-08T19:29:29Z</time>
      </trkpt>
      <trkpt lat="43.88398" lon="6.86117">
        <ele>753</ele>
        <time>1990-12-08T19:30:22Z</time>
      </trkpt>
      <trkpt lat="43.88355" lon="6.86252">
        <ele>762</ele>
        <time>1990-12-08T19:31:17Z</time>
      </trkpt>
      <trkpt lat="43.88447" lon="6.86172">
        <ele>775</ele>
        <time>1990-12-09T08:14:18Z</time>
      </trkpt>
      <trkpt lat="43.88492" lon="6.8621">
        <ele>770</ele>
        <time>1990-12-09T08:14:38Z</time>
      </trkpt>
      <trkpt lat="43.88442" lon="6.8611">
        <ele>758</ele>
        <time>1990-12-09T08:15:06Z</time>
      </trkpt>
      <trkpt lat="43.88502" lon="6.86065">
        <ele>750</ele>
        <time>1990-12-09T08:15:41Z</time>
      </trkpt>
      <trkpt lat="43.88565" lon="6.85145">
        <ele>700</ele>
        <time>1990-12-09T08:18:50Z</time>
      </trkpt>
      <trkpt lat="43.88678" lon="6.85753">
        <ele>666</ele>
        <time>1990-12-09T08:19:44Z</time>
      </trkpt>
      <trkpt lat="43.88667" lon="6.86167">
        <ele>645</ele>
        <time>1990-12-09T08:20:13Z</time>
      </trkpt>
      <trkpt lat="43.88718" lon="6.8634">
        <ele>637</ele>
        <time>1990-12-09T08:20:28Z</time>
      </trkpt>
      <trkpt lat="43.88823" lon="6.86337">
        <ele>633</ele>
        <time>1990-12-09T08:21:09Z</time>
      </trkpt>
      <trkpt lat="43.88853" lon="6.86423">
        <ele>630</ele>
        <time>1990-12-09T08:30:00Z</time>
      </trkpt>
      <trkpt lat="43.8895" lon="6.865">
        <ele>630</ele>
        <time>1990-12-09T08:31:04Z</time>
      </trkpt>
      <trkpt lat="43.89005" lon="6.8662">
        <ele>656</ele>
        <time>1990-12-09T08:32:43Z</time>
      </trkpt>
      <trkpt lat="43.8903" lon="6.86967">
        <ele>701</ele>
        <time>1990-12-09T08:39:27Z</time>
      </trkpt>
      <trkpt lat="43.89002" lon="6.871">
        <ele>717</ele>
        <time>1990-12-09T08:40:55Z</time>
      </trkpt>
      <trkpt lat="43.8906" lon="6.87305">
        <ele>733</ele>
        <time>1990-12-09T08:43:00Z</time>
      </trkpt>
      <trkpt lat="43.89115" lon="6.87348">
        <ele>734</ele>
        <time>1990-12-09T08:43:36Z</time>
      </trkpt>
      <trkpt lat="43.89058" lon="6.87572">
        <ele>752</ele>
        <time>1990-12-09T08:45:47Z</time>
      </trkpt>
      <trkpt lat="43.89133" lon="6.88157">
        <ele>759</ele>
        <time>1990-12-09T08:49:47Z</time>
      </trkpt>
      <trkpt lat="43.89105" lon="6.88342">
        <ele>770</ele>
        <time>1990-12-09T08:51:53Z</time>
      </trkpt>
      <trkpt lat="43.89175" lon="6.88617">
        <ele>771</ele>
        <time>1990-12-09T08:54:16Z</time>
      </trkpt>
      <trkpt lat="43.89222" lon="6.88672">
        <ele>772</ele>
        <time>1990-12-09T08:54:36Z</time>
      </trkpt>
      <trkpt lat="43.89213" lon="6.88775">
        <ele>771</ele>
        <time>1990-12-09T08:55:00Z</time>
      </trkpt>
      <trkpt lat="43.89513" lon="6.895">
        <ele>750</ele>
        <time>1990-12-09T08:57:36Z</time>
      </trkpt>
      <trkpt lat="43.89572" lon="6.89747">
        <ele>731</ele>
        <time>1990-12-09T08:58:23Z</time>
      </trkpt>
      <trkpt lat="43.894" lon="6.89908">
        <ele>826</ele>
        <time>1990-12-09T09:13:27Z</time>
      </trkpt>
      <trkpt lat="43.89353" lon="6.90275">
        <ele>877</ele>
        <time>1990-12-09T09:21:24Z</time>
      </trkpt>
      <trkpt lat="43.89277" lon="6.90312">
        <ele>890</ele>
        <time>1990-12-09T09:28:25Z</time>
      </trkpt>
      <trkpt lat="43.89275" lon="6.90245">
        <ele>895</ele>
        <time>1990-12-09T09:29:11Z</time>
      </trkpt>
      <trkpt lat="43.89177" lon="6.90122">
        <ele>884</ele>
        <time>1990-12-09T09:29:45Z</time>
      </trkpt>
      <trkpt lat="43.89147" lon="6.8999">
        <ele>871</ele>
        <time>1990-12-09T09:30:09Z</time>
      </trkpt>
      <trkpt lat="43.89072" lon="6.8993">
        <ele>861</ele>
        <time>1990-12-09T09:30:29Z</time>
      </trkpt>
      <trkpt lat="43.88993" lon="6.89943">
        <ele>855</ele>
        <time>1990-12-09T09:30:50Z</time>
      </trkpt>
      <trkpt lat="43.88927" lon="6.89802">
        <ele>837</ele>
        <time>1990-12-09T09:31:30Z</time>
      </trkpt>
      <trkpt lat="43.88767" lon="6.89732">
        <ele>809</ele>
        <time>1990-12-09T09:32:25Z</time>
      </trkpt>
      <trkpt lat="43.8877" lon="6.89785">
        <ele>801</ele>
        <time>1990-12-09T09:32:34Z</time>
      </trkpt>
      <trkpt lat="43.88628" lon="6.89858">
        <ele>777</ele>
        <time>1990-12-09T09:33:44Z</time>
      </trkpt>
      <trkpt lat="43.88602" lon="6.90003">
        <ele>758</ele>
        <time>1990-12-09T09:34:11Z</time>
      </trkpt>
      <trkpt lat="43.88455" lon="6.9014">
        <ele>732</ele>
        <time>1990-12-09T09:35:02Z</time>
      </trkpt>
      <trkpt lat="43.88447" lon="6.90597">
        <ele>728</ele>
        <time>1990-12-09T09:37:58Z</time>
      </trkpt>
      <trkpt lat="43.88358" lon="6.90997">
        <ele>729</ele>
        <time>1990-12-09T09:46:52Z</time>
      </trkpt>
      <trkpt lat="43.88455" lon="6.91713">
        <ele>681</ele>
        <time>1990-12-09T09:48:29Z</time>
      </trkpt>
      <trkpt lat="43.88423" lon="6.91942">
        <ele>665</ele>
        <time>1990-12-09T09:49:48Z</time>
      </trkpt>
      <trkpt lat="43.88355" lon="6.92057">
        <ele>658</ele>
        <time>1990-12-09T09:50:17Z</time>
      </trkpt>
      <trkpt lat="43.88238" lon="6.92092">
        <ele>656</ele>
        <time>1990-12-09T09:52:30Z</time>
      </trkpt>
      <trkpt lat="43.88143" lon="6.92305">
        <ele>654</ele>
        <time>1990-12-09T09:53:23Z</time>
      </trkpt>
      <trkpt lat="43.88152" lon="6.92397">
        <ele>650</ele>
        <time>1990-12-09T09:53:36Z</time>
      </trkpt>
      <trkpt lat="43.88098" lon="6.92562">
        <ele>645</ele>
        <time>1990-12-09T09:54:07Z</time>
      </trkpt>
      <trkpt lat="43.88123" lon="6.92815">
        <ele>638</ele>
        <time>1990-12-09T09:54:48Z</time>
      </trkpt>
      <trkpt lat="43.88082" lon="6.92895">
        <ele>641</ele>
        <time>1990-12-09T09:55:08Z</time>
      </trkpt>
      <trkpt lat="43.88048" lon="6.9318">
        <ele>639</ele>
        <time>1990-12-09T09:56:00Z</time>
      </trkpt>
      <trkpt lat="43.88103" lon="6.93235">
        <ele>630</ele>
        <time>1990-12-09T09:56:17Z</time>
      </trkpt>
      <trkpt lat="43.8814" lon="6.93405">
        <ele>611</ele>
        <time>1990-12-09T09:56:44Z</time>
      </trkpt>
      <trkpt lat="43.88217" lon="6.93455">
        <ele>597</ele>
        <time>1990-12-09T09:57:21Z</time>
      </trkpt>
      <trkpt lat="43.88188" lon="6.9357">
        <ele>595</ele>
        <time>1990-12-09T09:58:13Z</time>
      </trkpt>
      <trkpt lat="43.88228" lon="6.93595">
        <ele>589</ele>
        <time>1990-12-09T09:59:05Z</time>
      </trkpt>
      <trkpt lat="43.88182" lon="6.93732">
        <ele>598</ele>
        <time>1990-12-09T10:05:40Z</time>
      </trkpt>
      <trkpt lat="43.88062" lon="6.9384">
        <ele>625</ele>
        <time>1990-12-09T10:08:58Z</time>
      </trkpt>
      <trkpt lat="43.88037" lon="6.94005">
        <ele>658</ele>
        <time>1990-12-09T10:11:56Z</time>
      </trkpt>
      <trkpt lat="43.88197" lon="6.93747">
        <ele>647</ele>
        <time>1990-12-09T10:17:26Z</time>
      </trkpt>
      <trkpt lat="43.88333" lon="6.93778">
        <ele>638</ele>
        <time>1990-12-09T10:18:31Z</time>
      </trkpt>
      <trkpt lat="43.88458" lon="6.9371">
        <ele>632</ele>
        <time>1990-12-09T10:18:56Z</time>
      </trkpt>
      <trkpt lat="43.88633" lon="6.93888">
        <ele>624</ele>
        <time>1990-12-09T10:19:36Z</time>
      </trkpt>
      <trkpt lat="43.88677" lon="6.94195">
        <ele>628</ele>
        <time>1990-12-09T10:21:06Z</time>
      </trkpt>
      <trkpt lat="43.88693" lon="6.94957">
        <ele>654</ele>
        <time>1990-12-09T10:24:36Z</time>
      </trkpt>
      <trkpt lat="43.88585" lon="6.95398">
        <ele>683</ele>
        <time>1990-12-09T10:27:08Z</time>
      </trkpt>
      <trkpt lat="43.88607" lon="6.96057">
        <ele>709</ele>
        <time>1990-12-09T10:29:45Z</time>
      </trkpt>
      <trkpt lat="43.88573" lon="6.96283">
        <ele>721</ele>
        <time>1990-12-09T10:30:50Z</time>
      </trkpt>
      <trkpt lat="43.886" lon="6.96815">
        <ele>757</ele>
        <time>1990-12-09T10:33:34Z</time>
      </trkpt>
      <trkpt lat="43.8857" lon="6.9684">
        <ele>761</ele>
        <time>1990-12-09T10:33:54Z</time>
      </trkpt>
      <trkpt lat="43.88668" lon="6.97518">
        <ele>784</ele>
        <time>1990-12-09T10:36:28Z</time>
      </trkpt>
      <trkpt lat="43.8862" lon="6.97653">
        <ele>796</ele>
        <time>1990-12-09T10:37:22Z</time>
      </trkpt>
      <trkpt lat="43.8863" lon="6.9807">
        <ele>832</ele>
        <time>1990-12-09T10:39:49Z</time>
      </trkpt>
      <trkpt lat="43.88742" lon="6.98448">
        <ele>855</ele>
        <time>1990-12-09T10:58:10Z</time>
      </trkpt>
      <trkpt lat="43.89012" lon="6.98987">
        <ele>813</ele>
        <time>1990-12-09T11:09:43Z</time>
      </trkpt>
      <trkpt lat="43.88982" lon="6.98978">
        <ele>810</ele>
        <time>1990-12-09T11:09:56Z</time>
      </trkpt>
      <trkpt lat="43.89007" lon="6.99">
        <ele>806</ele>
        <time>1990-12-09T11:10:25Z</time>
      </trkpt>
      <trkpt lat="43.88958" lon="6.98993">
        <ele>799</ele>
        <time>1990-12-09T11:10:40Z</time>
      </trkpt>
      <trkpt lat="43.88987" lon="6.99043">
        <ele>794</ele>
        <time>1990-12-09T11:10:59Z</time>
      </trkpt>
      <trkpt lat="43.88955" lon="6.9905">
        <ele>789</ele>
        <time>1990-12-09T11:11:11Z</time>
      </trkpt>
      <trkpt lat="43.89028" lon="6.99098">
        <ele>777</ele>
        <time>1990-12-09T11:11:33Z</time>
      </trkpt>
      <trkpt lat="43.89055" lon="6.99252">
        <ele>769</ele>
        <time>1990-12-09T11:11:53Z</time>
      </trkpt>
      <trkpt lat="43.89025" lon="6.99393">
        <ele>765</ele>
        <time>1990-12-09T11:12:11Z</time>
      </trkpt>
      <trkpt lat="43.89083" lon="6.9948">
        <ele>765</ele>
        <time>1990-12-09T11:12:26Z</time>
      </trkpt>
      <trkpt lat="43.89133" lon="6.99482">
        <ele>768</ele>
        <time>1990-12-09T11:12:46Z</time>
      </trkpt>
      <trkpt lat="43.89175" lon="6.99702">
        <ele>753</ele>
        <time>1990-12-09T11:13:21Z</time>
      </trkpt>
      <trkpt lat="43.89237" lon="6.9972">
        <ele>749</ele>
        <time>1990-12-09T11:13:36Z</time>
      </trkpt>
      <trkpt lat="43.89242" lon="6.99878">
        <ele>751</ele>
        <time>1990-12-09T11:16:11Z</time>
      </trkpt>
      <trkpt lat="43.89137" lon="7.00072">
        <ele>731</ele>
        <time>1990-12-09T11:16:43Z</time>
      </trkpt>
      <trkpt lat="43.89192" lon="7.00448">
        <ele>708</ele>
        <time>1990-12-09T11:17:44Z</time>
      </trkpt>
      <trkpt lat="43.89118" lon="7.00778">
        <ele>684</ele>
        <time>1990-12-09T11:19:28Z</time>
      </trkpt>
      <trkpt lat="43.89067" lon="7.00625">
        <ele>672</ele>
        <time>1990-12-09T11:19:53Z</time>
      </trkpt>
      <trkpt lat="43.89012" lon="7.00775">
        <ele>655</ele>
        <time>1990-12-09T11:20:11Z</time>
      </trkpt>
      <trkpt lat="43.89047" lon="7.00858">
        <ele>647</ele>
        <time>1990-12-09T11:20:22Z</time>
      </trkpt>
      <trkpt lat="43.89023" lon="7.0101">
        <ele>637</ele>
        <time>1990-12-09T11:20:36Z</time>
      </trkpt>
      <trkpt lat="43.8906" lon="7.01205">
        <ele>625</ele>
        <time>1990-12-09T11:20:53Z</time>
      </trkpt>
      <trkpt lat="43.88967" lon="7.01398">
        <ele>613</ele>
        <time>1990-12-09T11:21:15Z</time>
      </trkpt>
      <trkpt lat="43.8898" lon="7.01572">
        <ele>597</ele>
        <time>1990-12-09T11:21:30Z</time>
      </trkpt>
      <trkpt lat="43.88927" lon="7.01787">
        <ele>575</ele>
        <time>1990-12-09T11:21:52Z</time>
      </trkpt>
      <trkpt lat="43.88855" lon="7.01847">
        <ele>562</ele>
        <time>1990-12-09T11:22:03Z</time>
      </trkpt>
      <trkpt lat="43.88787" lon="7.01753">
        <ele>555</ele>
        <time>1990-12-09T11:22:21Z</time>
      </trkpt>
      <trkpt lat="43.88738" lon="7.01757">
        <ele>552</ele>
        <time>1990-12-09T11:22:35Z</time>
      </trkpt>
      <trkpt lat="43.88727" lon="7.01895">
        <ele>543</ele>
        <time>1990-12-09T11:23:06Z</time>
      </trkpt>
      <trkpt lat="43.8867" lon="7.02012">
        <ele>537</ele>
        <time>1990-12-09T11:23:47Z</time>
      </trkpt>
      <trkpt lat="43.88598" lon="7.0202">
        <ele>530</ele>
        <time>1990-12-09T11:25:24Z</time>
      </trkpt>
      <trkpt lat="43.88397" lon="7.01865">
        <ele>534</ele>
        <time>1990-12-09T11:29:42Z</time>
      </trkpt>
      <trkpt lat="43.88363" lon="7.01937">
        <ele>537</ele>
        <time>1990-12-09T11:30:12Z</time>
      </trkpt>
      <trkpt lat="43.88268" lon="7.01985">
        <ele>549</ele>
        <time>1990-12-09T11:31:21Z</time>
      </trkpt>
      <trkpt lat="43.88093" lon="7.0175">
        <ele>549</ele>
        <time>1990-12-09T11:40:47Z</time>
      </trkpt>
      <trkpt lat="43.88042" lon="7.01543">
        <ele>531</ele>
        <time>1990-12-09T11:43:37Z</time>
      </trkpt>
      <trkpt lat="43.87983" lon="7.0152">
        <ele>516</ele>
        <time>1990-12-09T11:44:35Z</time>
      </trkpt>
      <trkpt lat="43.8787" lon="7.01238">
        <ele>476</ele>
        <time>1990-12-09T11:46:42Z</time>
      </trkpt>
      <trkpt lat="43.87857" lon="7.01072">
        <ele>456</ele>
        <time>1990-12-09T11:48:11Z</time>
      </trkpt>
      <trkpt lat="43.87888" lon="7.0097">
        <ele>441</ele>
        <time>1990-12-09T11:50:21Z</time>
      </trkpt>
      <trkpt lat="43.87737" lon="7.00857">
        <ele>429</ele>
        <time>1990-12-09T11:50:54Z</time>
      </trkpt>
      <trkpt lat="43.87583" lon="7.00335">
        <ele>400</ele>
        <time>1990-12-09T11:52:40Z</time>
      </trkpt>
      <trkpt lat="43.8758" lon="7.00462">
        <ele>392</ele>
        <time>1990-12-09T11:53:06Z</time>
      </trkpt>
      <trkpt lat="43.87458" lon="7.00182">
        <ele>377</ele>
        <time>1990-12-09T11:53:40Z</time>
      </trkpt>
      <trkpt lat="43.87465" lon="7.00043">
        <ele>370</ele>
        <time>1990-12-09T11:53:52Z</time>
      </trkpt>
      <trkpt lat="43.87392" lon="7.00158">
        <ele>363</ele>
        <time>1990-12-09T11:54:09Z</time>
      </trkpt>
      <trkpt lat="43.8742" lon="7.00682">
        <ele>344</ele>
        <time>1990-12-09T11:55:39Z</time>
      </trkpt>
      <trkpt lat="43.87478" lon="7.00922">
        <ele>336</ele>
        <time>1990-12-09T11:58:42Z</time>
      </trkpt>
      <trkpt lat="43.8742" lon="7.0095">
        <ele>335</ele>
        <time>1990-12-09T11:58:59Z</time>
      </trkpt>
      <trkpt lat="43.87178" lon="7.00663">
        <ele>337</ele>
        <time>1990-12-09T12:00:31Z</time>
      </trkpt>
      <trkpt lat="43.8719" lon="7.00588">
        <ele>328</ele>
        <time>1990-12-09T12:01:56Z</time>
      </trkpt>
      <trkpt lat="43.86962" lon="7.00427">
        <ele>346</ele>
        <time>1990-12-09T14:18:14Z</time>
      </trkpt>
      <trkpt lat="43.86687" lon="7.00528">
        <ele>374</ele>
        <time>1990-12-09T14:22:14Z</time>
      </trkpt>
      <trkpt lat="43.86555" lon="7.00508">
        <ele>391</ele>
        <time>1990-12-09T14:23:52Z</time>
      </trkpt>
      <trkpt lat="43.86583" lon="7.00635">
        <ele>402</ele>
        <time>1990-12-09T14:24:49Z</time>
      </trkpt>
      <trkpt lat="43.86543" lon="7.00678">
        <ele>412</ele>
        <time>1990-12-09T14:25:37Z</time>
      </trkpt>
      <trkpt lat="43.86542" lon="7.00762">
        <ele>417</ele>
        <time>1990-12-09T14:26:08Z</time>
      </trkpt>
      <trkpt lat="43.86467" lon="7.00868">
        <ele>430</ele>
        <time>1990-12-09T14:27:22Z</time>
      </trkpt>
      <trkpt lat="43.86497" lon="7.00917">
        <ele>436</ele>
        <time>1990-12-09T14:27:50Z</time>
      </trkpt>
      <trkpt lat="43.86368" lon="7.01257">
        <ele>472</ele>
        <time>1990-12-09T14:30:59Z</time>
      </trkpt>
      <trkpt lat="43.86303" lon="7.01317">
        <ele>483</ele>
        <time>1990-12-09T14:31:49Z</time>
      </trkpt>
      <trkpt lat="43.86312" lon="7.01408">
        <ele>492</ele>
        <time>1990-12-09T14:32:31Z</time>
      </trkpt>
      <trkpt lat="43.8611" lon="7.01245">
        <ele>522</ele>
        <time>1990-12-09T14:35:08Z</time>
      </trkpt>
      <trkpt lat="43.86097" lon="7.01012">
        <ele>538</ele>
        <time>1990-12-09T14:36:50Z</time>
      </trkpt>
      <trkpt lat="43.85942" lon="7.00765">
        <ele>566</ele>
        <time>1990-12-09T14:39:39Z</time>
      </trkpt>
      <trkpt lat="43.85942" lon="7.00587">
        <ele>574</ele>
        <time>1990-12-09T14:40:47Z</time>
      </trkpt>
      <trkpt lat="43.8583" lon="7.00403">
        <ele>576</ele>
        <time>1990-12-09T14:41:29Z</time>
      </trkpt>
      <trkpt lat="43.85858" lon="7.00397">
        <ele>577</ele>
        <time>1990-12-09T14:41:45Z</time>
      </trkpt>
      <trkpt lat="43.85713" lon="7.0018">
        <ele>597</ele>
        <time>1990-12-09T14:43:20Z</time>
      </trkpt>
      <trkpt lat="43.85682" lon="7.00237">
        <ele>606</ele>
        <time>1990-12-09T14:44:03Z</time>
      </trkpt>
      <trkpt lat="43.85723" lon="7.00138">
        <ele>618</ele>
        <time>1990-12-09T14:45:03Z</time>
      </trkpt>
      <trkpt lat="43.85823" lon="7.00218">
        <ele>632</ele>
        <time>1990-12-09T14:46:12Z</time>
      </trkpt>
      <trkpt lat="43.85915" lon="7.00208">
        <ele>642</ele>
        <time>1990-12-09T14:47:07Z</time>
      </trkpt>
      <trkpt lat="43.86047" lon="7.00287">
        <ele>657</ele>
        <time>1990-12-09T14:48:26Z</time>
      </trkpt>
      <trkpt lat="43.85885" lon="7.0011">
        <ele>666</ele>
        <time>1990-12-09T14:49:59Z</time>
      </trkpt>
      <trkpt lat="43.85717" lon="6.99807">
        <ele>678</ele>
        <time>1990-12-09T14:54:50Z</time>
      </trkpt>
      <trkpt lat="43.85753" lon="6.99707">
        <ele>681</ele>
        <time>1990-12-09T14:55:19Z</time>
      </trkpt>
      <trkpt lat="43.85695" lon="6.99623">
        <ele>684</ele>
        <time>1990-12-09T14:55:48Z</time>
      </trkpt>
      <trkpt lat="43.85578" lon="6.9962">
        <ele>692</ele>
        <time>1990-12-09T14:56:38Z</time>
      </trkpt>
      <trkpt lat="43.85395" lon="6.99773">
        <ele>696</ele>
        <time>1990-12-09T14:57:49Z</time>
      </trkpt>
      <trkpt lat="43.85248" lon="6.99737">
        <ele>706</ele>
        <time>1990-12-09T15:02:02Z</time>
      </trkpt>
      <trkpt lat="43.85182" lon="6.99652">
        <ele>713</ele>
        <time>1990-12-09T15:02:51Z</time>
      </trkpt>
      <trkpt lat="43.85198" lon="6.99502">
        <ele>724</ele>
        <time>1990-12-09T15:03:52Z</time>
      </trkpt>
      <trkpt lat="43.85148" lon="6.99413">
        <ele>733</ele>
        <time>1990-12-09T15:04:42Z</time>
      </trkpt>
      <trkpt lat="43.85178" lon="6.99207">
        <ele>748</ele>
        <time>1990-12-09T15:06:04Z</time>
      </trkpt>
      <trkpt lat="43.85117" lon="6.99053">
        <ele>760</ele>
        <time>1990-12-09T15:07:16Z</time>
      </trkpt>
      <trkpt lat="43.85162" lon="6.98933">
        <ele>769</ele>
        <time>1990-12-09T15:08:10Z</time>
      </trkpt>
      <trkpt lat="43.85123" lon="6.98938">
        <ele>774</ele>
        <time>1990-12-09T15:08:35Z</time>
      </trkpt>
      <trkpt lat="43.85078" lon="6.99092">
        <ele>784</ele>
        <time>1990-12-09T15:09:39Z</time>
      </trkpt>
      <trkpt lat="43.85093" lon="6.99232">
        <ele>793</ele>
        <time>1990-12-09T15:10:36Z</time>
      </trkpt>
      <trkpt lat="43.85025" lon="6.99362">
        <ele>806</ele>
        <time>1990-12-09T15:11:42Z</time>
      </trkpt>
      <trkpt lat="43.85033" lon="6.9953">
        <ele>820</ele>
        <time>1990-12-09T15:12:59Z</time>
      </trkpt>
      <trkpt lat="43.85" lon="6.9938">
        <ele>828</ele>
        <time>1990-12-09T15:13:57Z</time>
      </trkpt>
      <trkpt lat="43.85032" lon="6.98693">
        <ele>873</ele>
        <time>1990-12-09T15:18:00Z</time>
      </trkpt>
      <trkpt lat="43.84997" lon="6.98677">
        <ele>875</ele>
        <time>1990-12-09T15:24:47Z</time>
      </trkpt>
      <trkpt lat="43.8493" lon="6.98768">
        <ele>869</ele>
        <time>1990-12-09T15:26:47Z</time>
      </trkpt>
      <trkpt lat="43.8498" lon="6.98718">
        <ele>871</ele>
        <time>1990-12-09T15:27:37Z</time>
      </trkpt>
      <trkpt lat="43.84792" lon="6.98925">
        <ele>870</ele>
        <time>1990-12-09T15:28:43Z</time>
      </trkpt>
      <trkpt lat="43.84548" lon="6.99387">
        <ele>857</ele>
        <time>1990-12-09T15:30:14Z</time>
      </trkpt>
      <trkpt lat="43.84405" lon="6.99262">
        <ele>860</ele>
        <time>1990-12-09T16:19:57Z</time>
      </trkpt>
      <trkpt lat="43.84402" lon="6.99315">
        <ele>855</ele>
        <time>1990-12-09T16:20:06Z</time>
      </trkpt>
      <trkpt lat="43.84337" lon="6.99357">
        <ele>848</ele>
        <time>1990-12-09T16:23:47Z</time>
      </trkpt>
      <trkpt lat="43.84057" lon="7.00113">
        <ele>838</ele>
        <time>1990-12-09T16:26:03Z</time>
      </trkpt>
      <trkpt lat="43.84012" lon="7.00612">
        <ele>838</ele>
        <time>1990-12-09T16:27:29Z</time>
      </trkpt>
      <trkpt lat="43.84037" lon="7.0121">
        <ele>837</ele>
        <time>1990-12-09T16:29:07Z</time>
      </trkpt>
      <trkpt lat="43.83842" lon="7.02445">
        <ele>836</ele>
        <time>1990-12-09T16:33:22Z</time>
      </trkpt>
      <trkpt lat="43.8386" lon="7.02515">
        <ele>836</ele>
        <time>1990-12-09T16:33:38Z</time>
      </trkpt>
      <trkpt lat="43.83752" lon="7.02753">
        <ele>836</ele>
        <time>1990-12-09T16:34:29Z</time>
      </trkpt>
      <trkpt lat="43.8378" lon="7.02912">
        <ele>836</ele>
        <time>1990-12-09T16:34:55Z</time>
      </trkpt>
      <trkpt lat="43.8375" lon="7.0313">
        <ele>836</ele>
        <time>1990-12-09T16:35:33Z</time>
      </trkpt>
      <trkpt lat="43.83693" lon="7.03243">
        <ele>835</ele>
        <time>1990-12-09T16:35:57Z</time>
      </trkpt>
      <trkpt lat="43.83725" lon="7.03672">
        <ele>834</ele>
        <time>1990-12-09T16:37:10Z</time>
      </trkpt>
      <trkpt lat="43.83658" lon="7.048">
        <ele>833</ele>
        <time>1990-12-09T16:40:25Z</time>
      </trkpt>
      <trkpt lat="43.83625" lon="7.04882">
        <ele>834</ele>
        <time>1990-12-09T16:43:05Z</time>
      </trkpt>
      <trkpt lat="43.83567" lon="7.05742">
        <ele>833</ele>
        <time>1990-12-09T16:47:25Z</time>
      </trkpt>
      <trkpt lat="43.83603" lon="7.06013">
        <ele>832</ele>
        <time>1990-12-09T16:48:09Z</time>
      </trkpt>
      <trkpt lat="43.83582" lon="7.06413">
        <ele>831</ele>
        <time>1990-12-09T16:49:18Z</time>
      </trkpt>
      <trkpt lat="43.83628" lon="7.06675">
        <ele>830</ele>
        <time>1990-12-09T16:49:57Z</time>
      </trkpt>
      <trkpt lat="43.83542" lon="7.07143">
        <ele>830</ele>
        <time>1990-12-09T16:52:35Z</time>
      </trkpt>
      <trkpt lat="43.83613" lon="7.07662">
        <ele>830</ele>
        <time>1990-12-09T16:54:10Z</time>
      </trkpt>
      <trkpt lat="43.83555" lon="7.08055">
        <ele>829</ele>
        <time>1990-12-09T16:55:19Z</time>
      </trkpt>
      <trkpt lat="43.83632" lon="7.0869">
        <ele>828</ele>
        <time>1990-12-09T16:57:01Z</time>
      </trkpt>
      <trkpt lat="43.83593" lon="7.08838">
        <ele>828</ele>
        <time>1990-12-09T16:57:29Z</time>
      </trkpt>
      <trkpt lat="43.83667" lon="7.09013">
        <ele>827</ele>
        <time>1990-12-09T16:58:06Z</time>
      </trkpt>
      <trkpt lat="43.83662" lon="7.09312">
        <ele>827</ele>
        <time>1990-12-09T16:58:59Z</time>
      </trkpt>
      <trkpt lat="43.83758" lon="7.09363">
        <ele>826</ele>
        <time>1990-12-09T16:59:38Z</time>
      </trkpt>
      <trkpt lat="43.83847" lon="7.09812">
        <ele>826</ele>
        <time>1990-12-09T17:03:13Z</time>
      </trkpt>
      <trkpt lat="43.83922" lon="7.09982">
        <ele>826</ele>
        <time>1990-12-09T17:03:44Z</time>
      </trkpt>
      <trkpt lat="43.83942" lon="7.10197">
        <ele>826</ele>
        <time>1990-12-09T17:04:18Z</time>
      </trkpt>
      <trkpt lat="43.84007" lon="7.10353">
        <ele>827</ele>
        <time>1990-12-09T17:04:46Z</time>
      </trkpt>
      <trkpt lat="43.84007" lon="7.10602">
        <ele>833</ele>
        <time>1990-12-09T17:10:58Z</time>
      </trkpt>
      <trkpt lat="43.83943" lon="7.10918">
        <ele>877</ele>
        <time>1990-12-09T17:18:20Z</time>
      </trkpt>
      <trkpt lat="43.83932" lon="7.11618">
        <ele>918</ele>
        <time>1990-12-09T17:29:11Z</time>
      </trkpt>
      <trkpt lat="43.83787" lon="7.1162">
        <ele>975</ele>
        <time>1990-12-09T17:38:41Z</time>
      </trkpt>
      <trkpt lat="43.83665" lon="7.1148">
        <ele>1000</ele>
        <time>1990-12-09T17:54:25Z</time>
      </trkpt>
      <trkpt lat="43.83642" lon="7.11508">
        <ele>986</ele>
        <time>1990-12-09T18:04:21Z</time>
      </trkpt>
      <trkpt lat="43.83322" lon="7.11362">
        <ele>936</ele>
        <time>1990-12-09T18:07:41Z</time>
      </trkpt>
      <trkpt lat="43.8329" lon="7.11587">
        <ele>936</ele>
        <time>1990-12-09T18:10:23Z</time>
      </trkpt>
      <trkpt lat="43.83208" lon="7.11582">
        <ele>915</ele>
        <time>1990-12-09T18:12:18Z</time>
      </trkpt>
      <trkpt lat="43.83218" lon="7.11615">
        <ele>908</ele>
        <time>1990-12-09T18:12:39Z</time>
      </trkpt>
      <trkpt lat="43.83082" lon="7.1169">
        <ele>874</ele>
        <time>1990-12-09T18:15:13Z</time>
      </trkpt>
      <trkpt lat="43.82832" lon="7.1168">
        <ele>823</ele>
        <time>1990-12-09T18:18:16Z</time>
      </trkpt>
      <trkpt lat="43.82848" lon="7.11767">
        <ele>801</ele>
        <time>1990-12-09T18:20:24Z</time>
      </trkpt>
      <trkpt lat="43.82793" lon="7.11782">
        <ele>782</ele>
        <time>1990-12-09T18:21:42Z</time>
      </trkpt>
      <trkpt lat="43.8279" lon="7.11863">
        <ele>763</ele>
        <time>1990-12-09T18:24:53Z</time>
      </trkpt>
      <trkpt lat="43.82717" lon="7.11915">
        <ele>737</ele>
        <time>1990-12-09T18:25:42Z</time>
      </trkpt>
      <trkpt lat="43.82853" lon="7.12128">
        <ele>713</ele>
        <time>1990-12-09T18:27:12Z</time>
      </trkpt>
      <trkpt lat="43.82737" lon="7.12055">
        <ele>702</ele>
        <time>1990-12-09T18:27:34Z</time>
      </trkpt>
      <trkpt lat="43.82565" lon="7.12067">
        <ele>683</ele>
        <time>1990-12-09T18:28:05Z</time>
      </trkpt>
      <trkpt lat="43.82417" lon="7.12167">
        <ele>667</ele>
        <time>1990-12-09T18:28:31Z</time>
      </trkpt>
      <trkpt lat="43.82163" lon="7.11917">
        <ele>675</ele>
        <time>1990-12-09T18:30:06Z</time>
      </trkpt>
      <trkpt lat="43.82125" lon="7.11803">
        <ele>679</ele>
        <time>1990-12-09T18:30:33Z</time>
      </trkpt>
      <trkpt lat="43.81878" lon="7.11728">
        <ele>691</ele>
        <time>1990-12-09T18:31:51Z</time>
      </trkpt>
      <trkpt lat="43.81735" lon="7.11343">
        <ele>706</ele>
        <time>1990-12-09T18:33:22Z</time>
      </trkpt>
      <trkpt lat="43.81695" lon="7.11048">
        <ele>716</ele>
        <time>1990-12-09T18:34:26Z</time>
      </trkpt>
      <trkpt lat="43.81627" lon="7.1087">
        <ele>723</ele>
        <time>1990-12-09T18:35:23Z</time>
      </trkpt>
      <trkpt lat="43.8154" lon="7.10813">
        <ele>727</ele>
        <time>1990-12-09T18:35:51Z</time>
      </trkpt>
      <trkpt lat="43.81458" lon="7.10453">
        <ele>741</ele>
        <time>1990-12-09T18:37:11Z</time>
      </trkpt>
      <trkpt lat="43.8126" lon="7.10313">
        <ele>751</ele>
        <time>1990-12-09T18:38:12Z</time>
      </trkpt>
      <trkpt lat="43.8119" lon="7.10075">
        <ele>760</ele>
        <time>1990-12-09T18:39:05Z</time>
      </trkpt>
      <trkpt lat="43.81228" lon="7.09717">
        <ele>766</ele>
        <time>1990-12-09T18:40:11Z</time>
      </trkpt>
      <trkpt lat="43.81162" lon="7.0945">
        <ele>766</ele>
        <time>1990-12-09T18:40:54Z</time>
      </trkpt>
      <trkpt lat="43.81207" lon="7.09332">
        <ele>765</ele>
        <time>1990-12-09T18:41:12Z</time>
      </trkpt>
      <trkpt lat="43.81185" lon="7.09282">
        <ele>766</ele>
        <time>1990-12-09T18:41:22Z</time>
      </trkpt>
      <trkpt lat="43.8106" lon="7.09453">
        <ele>776</ele>
        <time>1990-12-09T18:42:16Z</time>
      </trkpt>
      <trkpt lat="43.81068" lon="7.09805">
        <ele>790</ele>
        <time>1990-12-09T18:43:38Z</time>
      </trkpt>
      <trkpt lat="43.808" lon="7.09872">
        <ele>806</ele>
        <time>1990-12-09T18:45:10Z</time>
      </trkpt>
      <trkpt lat="43.80623" lon="7.09785">
        <ele>817</ele>
        <time>1990-12-09T18:46:10Z</time>
      </trkpt>
      <trkpt lat="43.80548" lon="7.09797">
        <ele>822</ele>
        <time>1990-12-09T18:46:36Z</time>
      </trkpt>
      <trkpt lat="43.80487" lon="7.0999">
        <ele>830</ele>
        <time>1990-12-09T18:47:23Z</time>
      </trkpt>
      <trkpt lat="43.80287" lon="7.1014">
        <ele>841</ele>
        <time>1990-12-09T18:48:31Z</time>
      </trkpt>
      <trkpt lat="43.80478" lon="7.0992">
        <ele>855</ele>
        <time>1990-12-09T18:49:51Z</time>
      </trkpt>
      <trkpt lat="43.805" lon="7.09682">
        <ele>865</ele>
        <time>1990-12-09T18:50:45Z</time>
      </trkpt>
      <trkpt lat="43.80588" lon="7.09628">
        <ele>870</ele>
        <time>1990-12-09T18:51:11Z</time>
      </trkpt>
      <trkpt lat="43.80812" lon="7.0967">
        <ele>880</ele>
        <time>1990-12-09T18:52:34Z</time>
      </trkpt>
      <trkpt lat="43.80608" lon="7.09612">
        <ele>882</ele>
        <time>1990-12-10T08:16:01Z</time>
      </trkpt>
      <trkpt lat="43.80505" lon="7.09675">
        <ele>875</ele>
        <time>1990-12-10T08:16:20Z</time>
      </trkpt>
      <trkpt lat="43.8048" lon="7.09917">
        <ele>866</ele>
        <time>1990-12-10T08:16:51Z</time>
      </trkpt>
      <trkpt lat="43.80322" lon="7.10103">
        <ele>854</ele>
        <time>1990-12-10T08:17:18Z</time>
      </trkpt>
      <trkpt lat="43.80113" lon="7.10137">
        <ele>859</ele>
        <time>1990-12-10T08:18:15Z</time>
      </trkpt>
      <trkpt lat="43.80012" lon="7.09752">
        <ele>873</ele>
        <time>1990-12-10T08:20:05Z</time>
      </trkpt>
      <trkpt lat="43.80127" lon="7.09445">
        <ele>883</ele>
        <time>1990-12-10T08:21:38Z</time>
      </trkpt>
      <trkpt lat="43.80108" lon="7.09362">
        <ele>885</ele>
        <time>1990-12-10T08:22:02Z</time>
      </trkpt>
      <trkpt lat="43.7999" lon="7.09572">
        <ele>895</ele>
        <time>1990-12-10T08:23:23Z</time>
      </trkpt>
      <trkpt lat="43.79952" lon="7.09798">
        <ele>896</ele>
        <time>1990-12-10T08:24:25Z</time>
      </trkpt>
      <trkpt lat="43.8001" lon="7.10313">
        <ele>898</ele>
        <time>1990-12-10T08:26:01Z</time>
      </trkpt>
      <trkpt lat="43.7991" lon="7.10382">
        <ele>899</ele>
        <time>1990-12-10T08:26:34Z</time>
      </trkpt>
      <trkpt lat="43.79992" lon="7.10498">
        <ele>899</ele>
        <time>1990-12-10T08:27:10Z</time>
      </trkpt>
      <trkpt lat="43.80027" lon="7.11087">
        <ele>903</ele>
        <time>1990-12-10T08:28:55Z</time>
      </trkpt>
      <trkpt lat="43.80073" lon="7.11307">
        <ele>904</ele>
        <time>1990-12-10T08:29:45Z</time>
      </trkpt>
      <trkpt lat="43.79975" lon="7.11428">
        <ele>921</ele>
        <time>1990-12-10T08:31:12Z</time>
      </trkpt>
      <trkpt lat="43.79775" lon="7.11505">
        <ele>939</ele>
        <time>1990-12-10T08:33:29Z</time>
      </trkpt>
      <trkpt lat="43.79623" lon="7.11472">
        <ele>958</ele>
        <time>1990-12-10T08:35:44Z</time>
      </trkpt>
      <trkpt lat="43.79717" lon="7.1169">
        <ele>982</ele>
        <time>1990-12-10T08:37:59Z</time>
      </trkpt>
      <trkpt lat="43.7966" lon="7.11997">
        <ele>994</ele>
        <time>1990-12-10T08:39:59Z</time>
      </trkpt>
      <trkpt lat="43.79573" lon="7.12178">
        <ele>1003</ele>
        <time>1990-12-10T08:41:35Z</time>
      </trkpt>
      <trkpt lat="43.79575" lon="7.12402">
        <ele>1010</ele>
        <time>1990-12-10T08:49:36Z</time>
      </trkpt>
      <trkpt lat="43.79497" lon="7.12587">
        <ele>1011</ele>
        <time>1990-12-10T08:50:35Z</time>
      </trkpt>
      <trkpt lat="43.79305" lon="7.1274">
        <ele>1018</ele>
        <time>1990-12-10T08:52:18Z</time>
      </trkpt>
      <trkpt lat="43.79285" lon="7.12895">
        <ele>1004</ele>
        <time>1990-12-10T08:54:41Z</time>
      </trkpt>
      <trkpt lat="43.7923" lon="7.12897">
        <ele>994</ele>
        <time>1990-12-10T08:55:13Z</time>
      </trkpt>
      <trkpt lat="43.79243" lon="7.13022">
        <ele>977</ele>
        <time>1990-12-10T08:56:37Z</time>
      </trkpt>
      <trkpt lat="43.79138" lon="7.1308">
        <ele>954</ele>
        <time>1990-12-10T09:00:32Z</time>
      </trkpt>
      <trkpt lat="43.78872" lon="7.13985">
        <ele>936</ele>
        <time>1990-12-10T09:05:50Z</time>
      </trkpt>
      <trkpt lat="43.78823" lon="7.14022">
        <ele>925</ele>
        <time>1990-12-10T09:08:05Z</time>
      </trkpt>
      <trkpt lat="43.78838" lon="7.14112">
        <ele>917</ele>
        <time>1990-12-10T09:08:41Z</time>
      </trkpt>
      <trkpt lat="43.78772" lon="7.14335">
        <ele>901</ele>
        <time>1990-12-10T09:09:56Z</time>
      </trkpt>
      <trkpt lat="43.78628" lon="7.14348">
        <ele>883</ele>
        <time>1990-12-10T09:12:16Z</time>
      </trkpt>
      <trkpt lat="43.78375" lon="7.14232">
        <ele>845</ele>
        <time>1990-12-10T09:14:40Z</time>
      </trkpt>
      <trkpt lat="43.78648" lon="7.1465">
        <ele>815</ele>
        <time>1990-12-10T09:18:25Z</time>
      </trkpt>
      <trkpt lat="43.78518" lon="7.14588">
        <ele>814</ele>
        <time>1990-12-10T09:19:56Z</time>
      </trkpt>
      <trkpt lat="43.78335" lon="7.14357">
        <ele>825</ele>
        <time>1990-12-10T09:24:05Z</time>
      </trkpt>
      <trkpt lat="43.78262" lon="7.14367">
        <ele>828</ele>
        <time>1990-12-10T09:24:41Z</time>
      </trkpt>
      <trkpt lat="43.7812" lon="7.14245">
        <ele>841</ele>
        <time>1990-12-10T09:27:17Z</time>
      </trkpt>
      <trkpt lat="43.77875" lon="7.14247">
        <ele>848</ele>
        <time>1990-12-10T09:32:14Z</time>
      </trkpt>
      <trkpt lat="43.77492" lon="7.13975">
        <ele>801</ele>
        <time>1990-12-10T09:40:10Z</time>
      </trkpt>
      <trkpt lat="43.77387" lon="7.14038">
        <ele>793</ele>
        <time>1990-12-10T09:41:27Z</time>
      </trkpt>
      <trkpt lat="43.77253" lon="7.1426">
        <ele>768</ele>
        <time>1990-12-10T09:42:59Z</time>
      </trkpt>
      <trkpt lat="43.76993" lon="7.14467">
        <ele>752</ele>
        <time>1990-12-10T09:44:32Z</time>
      </trkpt>
      <trkpt lat="43.76637" lon="7.14423">
        <ele>712</ele>
        <time>1990-12-10T09:46:44Z</time>
      </trkpt>
      <trkpt lat="43.76305" lon="7.1445">
        <ele>682</ele>
        <time>1990-12-10T09:48:56Z</time>
      </trkpt>
      <trkpt lat="43.7588" lon="7.1429">
        <ele>652</ele>
        <time>1990-12-10T09:52:00Z</time>
      </trkpt>
      <trkpt lat="43.75505" lon="7.14325">
        <ele>604</ele>
        <time>1990-12-10T09:55:55Z</time>
      </trkpt>
      <trkpt lat="43.75357" lon="7.14258">
        <ele>581</ele>
        <time>1990-12-10T09:57:12Z</time>
      </trkpt>
      <trkpt lat="43.7539" lon="7.14292">
        <ele>574</ele>
        <time>1990-12-10T09:59:36Z</time>
      </trkpt>
      <trkpt lat="43.75127" lon="7.14178">
        <ele>535</ele>
        <time>1990-12-10T10:01:25Z</time>
      </trkpt>
      <trkpt lat="43.74945" lon="7.14162">
        <ele>501</ele>
        <time>1990-12-10T10:09:51Z</time>
      </trkpt>
      <trkpt lat="43.74767" lon="7.14268">
        <ele>451</ele>
        <time>1990-12-10T10:12:36Z</time>
      </trkpt>
      <trkpt lat="43.74787" lon="7.14328">
        <ele>446</ele>
        <time>1990-12-10T10:13:22Z</time>
      </trkpt>
      <trkpt lat="43.75025" lon="7.14447">
        <ele>434</ele>
        <time>1990-12-10T10:17:18Z</time>
      </trkpt>
      <trkpt lat="43.75002" lon="7.14433">
        <ele>431</ele>
        <time>1990-12-10T10:17:36Z</time>
      </trkpt>
      <trkpt lat="43.7489" lon="7.1482">
        <ele>409</ele>
        <time>1990-12-10T10:18:35Z</time>
      </trkpt>
      <trkpt lat="43.74793" lon="7.14957">
        <ele>398</ele>
        <time>1990-12-10T10:18:49Z</time>
      </trkpt>
      <trkpt lat="43.75048" lon="7.1576">
        <ele>386</ele>
        <time>1990-12-10T10:23:13Z</time>
      </trkpt>
      <trkpt lat="43.75517" lon="7.16343">
        <ele>389</ele>
        <time>1990-12-10T10:26:08Z</time>
      </trkpt>
      <trkpt lat="43.7583" lon="7.16618">
        <ele>411</ele>
        <time>1990-12-10T10:28:28Z</time>
      </trkpt>
      <trkpt lat="43.75897" lon="7.16623">
        <ele>414</ele>
        <time>1990-12-10T10:28:52Z</time>
      </trkpt>
      <trkpt lat="43.75987" lon="7.1674">
        <ele>410</ele>
        <time>1990-12-10T10:32:04Z</time>
      </trkpt>
      <trkpt lat="43.75943" lon="7.16748">
        <ele>394</ele>
        <time>1990-12-10T10:33:01Z</time>
      </trkpt>
      <trkpt lat="43.75992" lon="7.1698">
        <ele>369</ele>
        <time>1990-12-10T10:35:25Z</time>
      </trkpt>
      <trkpt lat="43.75922" lon="7.17388">
        <ele>319</ele>
        <time>1990-12-10T10:39:42Z</time>
      </trkpt>
      <trkpt lat="43.7605" lon="7.1732">
        <ele>303</ele>
        <time>1990-12-10T10:40:39Z</time>
      </trkpt>
      <trkpt lat="43.75965" lon="7.17478">
        <ele>296</ele>
        <time>1990-12-10T10:41:12Z</time>
      </trkpt>
      <trkpt lat="43.76063" lon="7.1744">
        <ele>279</ele>
        <time>1990-12-10T10:41:37Z</time>
      </trkpt>
      <trkpt lat="43.76002" lon="7.17612">
        <ele>275</ele>
        <time>1990-12-10T10:42:23Z</time>
      </trkpt>
      <trkpt lat="43.76088" lon="7.17508">
        <ele>266</ele>
        <time>1990-12-10T10:59:40Z</time>
      </trkpt>
      <trkpt lat="43.76235" lon="7.17558">
        <ele>257</ele>
        <time>1990-12-10T11:00:52Z</time>
      </trkpt>
      <trkpt lat="43.76698" lon="7.1793">
        <ele>228</ele>
        <time>1990-12-10T11:01:56Z</time>
      </trkpt>
      <trkpt lat="43.76835" lon="7.17802">
        <ele>219</ele>
        <time>1990-12-10T11:02:14Z</time>
      </trkpt>
      <trkpt lat="43.76855" lon="7.17717">
        <ele>215</ele>
        <time>1990-12-10T11:02:23Z</time>
      </trkpt>
      <trkpt lat="43.76887" lon="7.17972">
        <ele>204</ele>
        <time>1990-12-10T11:02:47Z</time>
      </trkpt>
      <trkpt lat="43.76978" lon="7.18067">
        <ele>197</ele>
        <time>1990-12-10T11:03:03Z</time>
      </trkpt>
      <trkpt lat="43.76972" lon="7.18128">
        <ele>194</ele>
        <time>1990-12-10T11:03:09Z</time>
      </trkpt>
      <trkpt lat="43.77057" lon="7.18193">
        <ele>188</ele>
        <time>1990-12-10T11:03:20Z</time>
      </trkpt>
      <trkpt lat="43.77088" lon="7.1828">
        <ele>183</ele>
        <time>1990-12-10T11:03:30Z</time>
      </trkpt>
      <trkpt lat="43.77072" lon="7.1836">
        <ele>179</ele>
        <time>1990-12-10T11:03:38Z</time>
      </trkpt>
      <trkpt lat="43.77222" lon="7.18605">
        <ele>164</ele>
        <time>1990-12-10T11:04:08Z</time>
      </trkpt>
      <trkpt lat="43.77333" lon="7.18668">
        <ele>155</ele>
        <time>1990-12-10T11:04:25Z</time>
      </trkpt>
      <trkpt lat="43.76958" lon="7.18853">
        <ele>133</ele>
        <time>1990-12-10T11:05:10Z</time>
      </trkpt>
      <trkpt lat="43.7696" lon="7.1891">
        <ele>128</ele>
        <time>1990-12-10T11:05:19Z</time>
      </trkpt>
      <trkpt lat="43.7712" lon="7.18913">
        <ele>119</ele>
        <time>1990-12-10T11:05:41Z</time>
      </trkpt>
      <trkpt lat="43.7704" lon="7.18983">
        <ele>115</ele>
        <time>1990-12-10T11:05:56Z</time>
      </trkpt>
      <trkpt lat="43.76808" lon="7.18973">
        <ele>106</ele>
        <time>1990-12-10T11:06:28Z</time>
      </trkpt>
      <trkpt lat="43.76653" lon="7.1904">
        <ele>102</ele>
        <time>1990-12-10T11:06:51Z</time>
      </trkpt>
      <trkpt lat="43.76595" lon="7.19215">
        <ele>100</ele>
        <time>1990-12-10T11:07:13Z</time>
      </trkpt>
      <trkpt lat="43.76685" lon="7.19565">
        <ele>92</ele>
        <time>1990-12-10T11:07:55Z</time>
      </trkpt>
      <trkpt lat="43.76693" lon="7.19757">
        <ele>86</ele>
        <time>1990-12-10T11:08:15Z</time>
      </trkpt>
      <trkpt lat="43.76737" lon="7.19855">
        <ele>79</ele>
        <time>1990-12-10T11:09:31Z</time>
      </trkpt>
      <trkpt lat="43.7671" lon="7.19878">
        <ele>78</ele>
        <time>1990-12-10T11:09:43Z</time>
      </trkpt>
      <trkpt lat="43.7669" lon="7.19813">
        <ele>74</ele>
        <time>1990-12-10T11:09:58Z</time>
      </trkpt>
      <trkpt lat="43.76673" lon="7.20005">
        <ele>75</ele>
        <time>1990-12-10T11:10:40Z</time>
      </trkpt>
      <trkpt lat="43.76398" lon="7.20508">
        <ele>74</ele>
        <time>1990-12-10T11:14:47Z</time>
      </trkpt>
      <trkpt lat="43.76413" lon="7.20562">
        <ele>74</ele>
        <time>1990-12-10T11:15:23Z</time>
      </trkpt>
      <trkpt lat="43.76282" lon="7.20652">
        <ele>76</ele>
        <time>1990-12-10T11:18:38Z</time>
      </trkpt>
      <trkpt lat="43.76497" lon="7.20865">
        <ele>79</ele>
        <time>1990-12-10T11:20:04Z</time>
      </trkpt>
      <trkpt lat="43.76755" lon="7.20918">
        <ele>75</ele>
        <time>1990-12-10T11:21:06Z</time>
      </trkpt>
      <trkpt lat="43.77172" lon="7.2136">
        <ele>78</ele>
        <time>1990-12-10T11:23:00Z</time>
      </trkpt>
      <trkpt lat="43.77123" lon="7.21523">
        <ele>80</ele>
        <time>1990-12-10T11:23:33Z</time>
      </trkpt>
      <trkpt lat="43.77218" lon="7.22365">
        <ele>110</ele>
        <time>1990-12-10T11:27:09Z</time>
      </trkpt>
      <trkpt lat="43.77358" lon="7.22437">
        <ele>133</ele>
        <time>1990-12-10T11:28:47Z</time>
      </trkpt>
      <trkpt lat="43.77282" lon="7.22475">
        <ele>146</ele>
        <time>1990-12-10T11:29:49Z</time>
      </trkpt>
      <trkpt lat="43.77313" lon="7.22463">
        <ele>151</ele>
        <time>1990-12-10T11:30:11Z</time>
      </trkpt>
      <trkpt lat="43.77298" lon="7.22542">
        <ele>167</ele>
        <time>1990-12-10T11:31:26Z</time>
      </trkpt>
      <trkpt lat="43.7733" lon="7.22555">
        <ele>172</ele>
        <time>1990-12-10T11:31:54Z</time>
      </trkpt>
      <trkpt lat="43.77227" lon="7.22668">
        <ele>189</ele>
        <time>1990-12-10T11:39:39Z</time>
      </trkpt>
      <trkpt lat="43.77185" lon="7.22662">
        <ele>193</ele>
        <time>1990-12-10T11:40:06Z</time>
      </trkpt>
      <trkpt lat="43.77192" lon="7.22593">
        <ele>198</ele>
        <time>1990-12-10T11:40:37Z</time>
      </trkpt>
      <trkpt lat="43.77157" lon="7.22665">
        <ele>204</ele>
        <time>1990-12-10T11:41:21Z</time>
      </trkpt>
      <trkpt lat="43.77272" lon="7.2277">
        <ele>226</ele>
        <time>1990-12-10T11:43:04Z</time>
      </trkpt>
      <trkpt lat="43.77245" lon="7.22823">
        <ele>232</ele>
        <time>1990-12-10T11:43:34Z</time>
      </trkpt>
      <trkpt lat="43.77242" lon="7.22785">
        <ele>237</ele>
        <time>1990-12-10T11:43:56Z</time>
      </trkpt>
      <trkpt lat="43.7718" lon="7.22785">
        <ele>241</ele>
        <time>1990-12-10T11:44:28Z</time>
      </trkpt>
      <trkpt lat="43.77075" lon="7.23042">
        <ele>254</ele>
        <time>1990-12-10T11:46:08Z</time>
      </trkpt>
      <trkpt lat="43.77092" lon="7.231">
        <ele>263</ele>
        <time>1990-12-10T11:47:04Z</time>
      </trkpt>
      <trkpt lat="43.77048" lon="7.23162">
        <ele>275</ele>
        <time>1990-12-10T11:47:50Z</time>
      </trkpt>
      <trkpt lat="43.77035" lon="7.23323">
        <ele>292</ele>
        <time>1990-12-10T11:49:17Z</time>
      </trkpt>
      <trkpt lat="43.77" lon="7.23327">
        <ele>300</ele>
        <time>1990-12-10T11:49:56Z</time>
      </trkpt>
      <trkpt lat="43.76998" lon="7.2351">
        <ele>322</ele>
        <time>1990-12-10T11:51:41Z</time>
      </trkpt>
      <trkpt lat="43.76963" lon="7.23477">
        <ele>328</ele>
        <time>1990-12-10T11:52:15Z</time>
      </trkpt>
      <trkpt lat="43.77035" lon="7.23595">
        <ele>345</ele>
        <time>1990-12-10T11:53:26Z</time>
      </trkpt>
      <trkpt lat="43.77087" lon="7.23608">
        <ele>354</ele>
        <time>1990-12-10T11:54:00Z</time>
      </trkpt>
      <trkpt lat="43.77007" lon="7.23638">
        <ele>363</ele>
        <time>1990-12-10T11:55:22Z</time>
      </trkpt>
      <trkpt lat="43.7736" lon="7.237">
        <ele>397</ele>
        <time>1990-12-10T12:18:52Z</time>
      </trkpt>
      <trkpt lat="43.77563" lon="7.23808">
        <ele>421</ele>
        <time>1990-12-10T12:21:23Z</time>
      </trkpt>
      <trkpt lat="43.7773" lon="7.2382">
        <ele>432</ele>
        <time>1990-12-10T12:22:47Z</time>
      </trkpt>
      <trkpt lat="43.77788" lon="7.2391">
        <ele>426</ele>
        <time>1990-12-10T12:23:00Z</time>
      </trkpt>
      <trkpt lat="43.7827" lon="7.2407">
        <ele>462</ele>
        <time>1990-12-10T12:26:32Z</time>
      </trkpt>
      <trkpt lat="43.78427" lon="7.24365">
        <ele>495</ele>
        <time>1990-12-10T12:28:57Z</time>
      </trkpt>
      <trkpt lat="43.78452" lon="7.24348">
        <ele>496</ele>
        <time>1990-12-10T12:29:59Z</time>
      </trkpt>
      <trkpt lat="43.78487" lon="7.24482">
        <ele>495</ele>
        <time>1990-12-10T12:39:24Z</time>
      </trkpt>
      <trkpt lat="43.78405" lon="7.24678">
        <ele>506</ele>
        <time>1990-12-10T12:40:43Z</time>
      </trkpt>
      <trkpt lat="43.78327" lon="7.25055">
        <ele>520</ele>
        <time>1990-12-10T12:42:52Z</time>
      </trkpt>
      <trkpt lat="43.78197" lon="7.25285">
        <ele>529</ele>
        <time>1990-12-10T12:44:19Z</time>
      </trkpt>
      <trkpt lat="43.78152" lon="7.25237">
        <ele>536</ele>
        <time>1990-12-10T12:44:52Z</time>
      </trkpt>
      <trkpt lat="43.7794" lon="7.25432">
        <ele>568</ele>
        <time>1990-12-10T12:47:42Z</time>
      </trkpt>
      <trkpt lat="43.77865" lon="7.25623">
        <ele>610</ele>
        <time>1990-12-10T12:55:02Z</time>
      </trkpt>
      <trkpt lat="43.77747" lon="7.25665">
        <ele>660</ele>
        <time>1990-12-10T13:00:01Z</time>
      </trkpt>
      <trkpt lat="43.77723" lon="7.25782">
        <ele>680</ele>
        <time>1990-12-10T13:06:36Z</time>
      </trkpt>
      <trkpt lat="43.77517" lon="7.26043">
        <ele>723</ele>
        <time>1990-12-10T13:11:48Z</time>
      </trkpt>
      <trkpt lat="43.77575" lon="7.25808">
        <ele>728</ele>
        <time>1990-12-10T13:19:05Z</time>
      </trkpt>
      <trkpt lat="43.77198" lon="7.25942">
        <ele>708</ele>
        <time>1990-12-10T13:23:26Z</time>
      </trkpt>
      <trkpt lat="43.77102" lon="7.2592">
        <ele>714</ele>
        <time>1990-12-10T13:24:51Z</time>
      </trkpt>
      <trkpt lat="43.77245" lon="7.25943">
        <ele>711</ele>
        <time>1990-12-10T13:28:10Z</time>
      </trkpt>
      <trkpt lat="43.76972" lon="7.25887">
        <ele>725</ele>
        <time>1990-12-10T13:30:38Z</time>
      </trkpt>
      <trkpt lat="43.7683" lon="7.25575">
        <ele>741</ele>
        <time>1990-12-10T13:34:51Z</time>
      </trkpt>
      <trkpt lat="43.7698" lon="7.2509">
        <ele>702</ele>
        <time>1990-12-10T13:36:27Z</time>
      </trkpt>
      <trkpt lat="43.76922" lon="7.2513">
        <ele>692</ele>
        <time>1990-12-10T13:38:01Z</time>
      </trkpt>
      <trkpt lat="43.76868" lon="7.25048">
        <ele>677</ele>
        <time>1990-12-10T13:40:23Z</time>
      </trkpt>
      <trkpt lat="43.76692" lon="7.25047">
        <ele>658</ele>
        <time>1990-12-10T13:41:27Z</time>
      </trkpt>
      <trkpt lat="43.76213" lon="7.25213">
        <ele>603</ele>
        <time>1990-12-10T13:48:53Z</time>
      </trkpt>
      <trkpt lat="43.75557" lon="7.2559">
        <ele>526</ele>
        <time>1990-12-10T13:58:45Z</time>
      </trkpt>
      <trkpt lat="43.75475" lon="7.25782">
        <ele>506</ele>
        <time>1990-12-10T14:02:38Z</time>
      </trkpt>
      <trkpt lat="43.75092" lon="7.25877">
        <ele>488</ele>
        <time>1990-12-10T14:06:36Z</time>
      </trkpt>
      <trkpt lat="43.74802" lon="7.2584">
        <ele>477</ele>
        <time>1990-12-10T14:08:55Z</time>
      </trkpt>
      <trkpt lat="43.74683" lon="7.25893">
        <ele>460</ele>
        <time>1990-12-10T14:11:09Z</time>
      </trkpt>
      <trkpt lat="43.74655" lon="7.25848">
        <ele>454</ele>
        <time>1990-12-10T14:11:46Z</time>
      </trkpt>
      <trkpt lat="43.7458" lon="7.25872">
        <ele>445</ele>
        <time>1990-12-10T14:17:00Z</time>
      </trkpt>
      <trkpt lat="43.74537" lon="7.25725">
        <ele>412</ele>
        <time>1990-12-10T14:19:34Z</time>
      </trkpt>
      <trkpt lat="43.74293" lon="7.25612">
        <ele>386</ele>
        <time>1990-12-10T14:23:07Z</time>
      </trkpt>
      <trkpt lat="43.74193" lon="7.2574">
        <ele>372</ele>
        <time>1990-12-10T14:24:56Z</time>
      </trkpt>
      <trkpt lat="43.74275" lon="7.25865">
        <ele>357</ele>
        <time>1990-12-10T14:30:16Z</time>
      </trkpt>
      <trkpt lat="43.7438" lon="7.26255">
        <ele>332</ele>
        <time>1990-12-10T14:31:29Z</time>
      </trkpt>
      <trkpt lat="43.74353" lon="7.26332">
        <ele>324</ele>
        <time>1990-12-10T14:31:49Z</time>
      </trkpt>
      <trkpt lat="43.74165" lon="7.26367">
        <ele>302</ele>
        <time>1990-12-10T14:33:07Z</time>
      </trkpt>
      <trkpt lat="43.74005" lon="7.2625">
        <ele>283</ele>
        <time>1990-12-10T14:33:29Z</time>
      </trkpt>
      <trkpt lat="43.73683" lon="7.26277">
        <ele>230</ele>
        <time>1990-12-10T14:34:41Z</time>
      </trkpt>
      <trkpt lat="43.73565" lon="7.26347">
        <ele>221</ele>
        <time>1990-12-10T14:35:02Z</time>
      </trkpt>
      <trkpt lat="43.73335" lon="7.26228">
        <ele>205</ele>
        <time>1990-12-10T14:35:30Z</time>
      </trkpt>
      <trkpt lat="43.73392" lon="7.26182">
        <ele>201</ele>
        <time>1990-12-10T14:35:49Z</time>
      </trkpt>
      <trkpt lat="43.7319" lon="7.261">
        <ele>179</ele>
        <time>1990-12-10T14:40:03Z</time>
      </trkpt>
      <trkpt lat="43.72825" lon="7.26075">
        <ele>148</ele>
        <time>1990-12-10T14:40:51Z</time>
      </trkpt>
      <trkpt lat="43.72785" lon="7.26132">
        <ele>139</ele>
        <time>1990-12-10T14:41:28Z</time>
      </trkpt>
      <trkpt lat="43.72733" lon="7.26122">
        <ele>131</ele>
        <time>1990-12-10T14:41:41Z</time>
      </trkpt>
      <trkpt lat="43.7275" lon="7.25983">
        <ele>124</ele>
        <time>1990-12-10T14:42:00Z</time>
      </trkpt>
      <trkpt lat="43.7263" lon="7.26088">
        <ele>113</ele>
        <time>1990-12-10T14:42:21Z</time>
      </trkpt>
      <trkpt lat="43.72572" lon="7.26068">
        <ele>108</ele>
        <time>1990-12-10T14:42:29Z</time>
      </trkpt>
      <trkpt lat="43.72543" lon="7.26157">
        <ele>101</ele>
        <time>1990-12-10T14:42:42Z</time>
      </trkpt>
      <trkpt lat="43.72467" lon="7.26183">
        <ele>96</ele>
        <time>1990-12-10T14:42:52Z</time>
      </trkpt>
      <trkpt lat="43.72478" lon="7.26253">
        <ele>89</ele>
        <time>1990-12-10T14:43:08Z</time>
      </trkpt>
      <trkpt lat="43.7242" lon="7.25933">
        <ele>77</ele>
        <time>1990-12-10T14:43:47Z</time>
      </trkpt>
      <trkpt lat="43.72118" lon="7.26082">
        <ele>63</ele>
        <time>1990-12-10T14:44:49Z</time>
      </trkpt>
      <trkpt lat="43.72047" lon="7.26195">
        <ele>61</ele>
        <time>1990-12-10T14:45:11Z</time>
      </trkpt>
      <trkpt lat="43.71963" lon="7.26237">
        <ele>58</ele>
        <time>1990-12-10T14:45:29Z</time>
      </trkpt>
      <trkpt lat="43.71853" lon="7.26157">
        <ele>54</ele>
        <time>1990-12-10T14:45:53Z</time>
      </trkpt>
      <trkpt lat="43.71565" lon="7.26132">
        <ele>46</ele>
        <time>1990-12-10T14:48:57Z</time>
      </trkpt>
      <trkpt lat="43.7127" lon="7.26188">
        <ele>39</ele>
        <time>1990-12-10T14:50:48Z</time>
      </trkpt>
      <trkpt lat="43.7116" lon="7.26142">
        <ele>36</ele>
        <time>1990-12-10T14:51:53Z</time>
      </trkpt>
      <trkpt lat="43.7102" lon="7.26188">
        <ele>33</ele>
        <time>1990-12-10T14:52:37Z</time>
      </trkpt>
      <trkpt lat="43.7044" lon="7.26568">
        <ele>21</ele>
        <time>1990-12-10T14:56:52Z</time>
      </trkpt>
    </trkseg>
  </trk>
  <trk>
    <name><![CDATA[track]]></name>
    <trkseg>
      <trkpt lat="43.70398" lon="7.26588">
        <ele>21</ele>
        <time>1990-12-10T14:57:03Z</time>
      </trkpt>
      <trkpt lat="43.70365" lon="7.26618">
        <ele>20</ele>
        <time>1990-12-10T14:57:13Z</time>
      </trkpt>
      <trkpt lat="43.70325" lon="7.26638">
        <ele>20</ele>
        <time>1990-12-10T14:57:25Z</time>
      </trkpt>
      <trkpt lat="43.70272" lon="7.26662">
        <ele>20</ele>
        <time>1990-12-10T14:58:05Z</time>
      </trkpt>
      <trkpt lat="43.7026" lon="7.26667">
        <ele>19</ele>
        <time>1990-12-10T14:58:12Z</time>
      </trkpt>
      <trkpt lat="43.70198" lon="7.26697">
        <ele>19</ele>
        <time>1990-12-10T14:58:31Z</time>
      </trkpt>
      <trkpt lat="43.70163" lon="7.26745">
        <ele>19</ele>
        <time>1990-12-10T14:58:48Z</time>
      </trkpt>
      <trkpt lat="43.70077" lon="7.2679">
        <ele>18</ele>
        <time>1990-12-10T14:59:07Z</time>
      </trkpt>
      <trkpt lat="43.70023" lon="7.26825">
        <ele>19</ele>
        <time>1990-12-10T14:59:50Z</time>
      </trkpt>
      <trkpt lat="43.69975" lon="7.26853">
        <ele>19</ele>
        <time>1990-12-10T15:00:19Z</time>
      </trkpt>
      <trkpt lat="43.6994" lon="7.26873">
        <ele>19</ele>
        <time>1990-12-10T15:00:33Z</time>
      </trkpt>
      <trkpt lat="43.69872" lon="7.26908">
        <ele>19</ele>
        <time>1990-12-10T15:00:53Z</time>
      </trkpt>
      <trkpt lat="43.69867" lon="7.2691">
        <ele>19</ele>
        <time>1990-12-10T15:01:07Z</time>
      </trkpt>
      <trkpt lat="43.69863" lon="7.26918">
        <ele>19</ele>
        <time>1990-12-10T15:01:13Z</time>
      </trkpt>
      <trkpt lat="43.6977" lon="7.2697">
        <ele>21</ele>
        <time>1990-12-10T15:01:37Z</time>
      </trkpt>
      <trkpt lat="43.6972" lon="7.27008">
        <ele>21</ele>
        <time>1990-12-10T15:02:03Z</time>
      </trkpt>
      <trkpt lat="43.69663" lon="7.2703">
        <ele>21</ele>
        <time>1990-12-10T15:02:32Z</time>
      </trkpt>
      <trkpt lat="43.6962" lon="7.2702">
        <ele>19</ele>
        <time>1990-12-10T15:02:55Z</time>
      </trkpt>
      <trkpt lat="43.69595" lon="7.26988">
        <ele>18</ele>
        <time>1990-12-10T15:03:07Z</time>
      </trkpt>
      <trkpt lat="43.69547" lon="7.26977">
        <ele>18</ele>
        <time>1990-12-10T15:03:21Z</time>
      </trkpt>
      <trkpt lat="43.69518" lon="7.26977">
        <ele>17</ele>
        <time>1990-12-10T15:03:34Z</time>
      </trkpt>
      <trkpt lat="43.69503" lon="7.26925">
        <ele>17</ele>
        <time>1990-12-10T15:03:55Z</time>
      </trkpt>
      <trkpt lat="43.69492" lon="7.26883">
        <ele>16</ele>
        <time>1990-12-10T15:05:01Z</time>
      </trkpt>
      <trkpt lat="43.69478" lon="7.26822">
        <ele>16</ele>
        <time>1990-12-10T15:05:30Z</time>
      </trkpt>
      <trkpt lat="43.6948" lon="7.26758">
        <ele>15</ele>
        <time>1990-12-10T15:05:57Z</time>
      </trkpt>
      <trkpt lat="43.69473" lon="7.26682">
        <ele>14</ele>
        <time>1990-12-10T15:06:18Z</time>
      </trkpt>
      <trkpt lat="43.6947" lon="7.26655">
        <ele>14</ele>
        <time>1990-12-10T15:06:33Z</time>
      </trkpt>
      <trkpt lat="43.6947" lon="7.26688">
        <ele>13</ele>
        <time>1990-12-10T15:06:51Z</time>
      </trkpt>
    </trkseg>
  </trk>
</gpx>